<?xml version='1.0' encoding='UTF-8'?><gpx version="1.1" creator="JPX - https://github.com/jenetics/jpx" xmlns="http://www.topografix.com/GPX/1/1"><trk><trkseg><trkpt lat="45.643508589708354" lon="8.705417253497922"><ele>241.0</ele><time>2026-03-28T16:32:12Z</time></trkpt><trkpt lat="45.64345015816229" lon="8.7053782508147"><ele>241.00000000000003</ele><time>2026-03-28T16:32:13Z</time></trkpt><trkpt lat="45.64337950650415" lon="8.705321577714864"><ele>241.00000000000003</ele><time>2026-03-28T16:32:14Z</time></trkpt><trkpt lat="45.643302479943706" lon="8.705202901300835"><ele>241.0</ele><time>2026-03-28T16:32:15Z</time></trkpt><trkpt lat="45.643203118458366" lon="8.70514762568656"><ele>241.0</ele><time>2026-03-28T16:32:16Z</time></trkpt><trkpt lat="45.64309212174617" lon="8.705089656181334"><ele>240.5</ele><time>2026-03-28T16:32:17Z</time></trkpt><trkpt lat="45.642977803741715" lon="8.705033221072371"><ele>240.0</ele><time>2026-03-28T16:32:18Z</time></trkpt><trkpt lat="45.642845451004504" lon="8.704974604183517"><ele>239.5</ele><time>2026-03-28T16:32:19Z</time></trkpt><trkpt lat="45.64271589318085" lon="8.704938850758035"><ele>239.0</ele><time>2026-03-28T16:32:20Z</time></trkpt><trkpt lat="45.6426054006823" lon="8.704890494848847"><ele>239.0</ele><time>2026-03-28T16:32:21Z</time></trkpt><trkpt lat="45.64249936268696" lon="8.704834937964815"><ele>238.99999999999997</ele><time>2026-03-28T16:32:22Z</time></trkpt><trkpt lat="45.64240203153071" lon="8.704798493181244"><ele>238.99999999999997</ele><time>2026-03-28T16:32:23Z</time></trkpt><trkpt lat="45.64230377833687" lon="8.70476914811883"><ele>239.0</ele><time>2026-03-28T16:32:24Z</time></trkpt><trkpt lat="45.64221419811443" lon="8.704742482000947"><ele>239.0</ele><time>2026-03-28T16:32:25Z</time></trkpt><trkpt lat="45.64214452804276" lon="8.704724453715027"><ele>239.0</ele><time>2026-03-28T16:32:26Z</time></trkpt><trkpt lat="45.64208239306255" lon="8.704707759391386"><ele>238.99999999999997</ele><time>2026-03-28T16:32:27Z</time></trkpt><trkpt lat="45.64192755216322" lon="8.704654272627026"><ele>238.99999999999997</ele><time>2026-03-28T16:32:56.999Z</time></trkpt><trkpt lat="45.641839731337036" lon="8.7046588858056"><ele>239.0</ele><time>2026-03-28T16:32:57.999Z</time></trkpt><trkpt lat="45.64172081206674" lon="8.70463939265931"><ele>239.0</ele><time>2026-03-28T16:32:58.999Z</time></trkpt><trkpt lat="45.64157055369993" lon="8.704619002337642"><ele>239.0</ele><time>2026-03-28T16:32:59.999Z</time></trkpt><trkpt lat="45.64141807148046" lon="8.704607937909865"><ele>239.0</ele><time>2026-03-28T16:33:00.999Z</time></trkpt><trkpt lat="45.641255610049306" lon="8.704601500648831"><ele>239.0</ele><time>2026-03-28T16:33:01.999Z</time></trkpt><trkpt lat="45.64108517235747" lon="8.704599935500465"><ele>239.0</ele><time>2026-03-28T16:33:02.999Z</time></trkpt><trkpt lat="45.64090543989911" lon="8.704590480908168"><ele>239.0</ele><time>2026-03-28T16:33:03.999Z</time></trkpt><trkpt lat="45.640684927325864" lon="8.704631309298389"><ele>239.0</ele><time>2026-03-28T16:33:04.999Z</time></trkpt><trkpt lat="45.640468349053165" lon="8.7046437496887"><ele>239.5</ele><time>2026-03-28T16:33:05.999Z</time></trkpt><trkpt lat="45.64024600782287" lon="8.704698606660221"><ele>240.0</ele><time>2026-03-28T16:33:06.999Z</time></trkpt><trkpt lat="45.64001263385862" lon="8.704718039599353"><ele>240.0</ele><time>2026-03-28T16:33:07.999Z</time></trkpt><trkpt lat="45.639799085132964" lon="8.70473389268067"><ele>240.0</ele><time>2026-03-28T16:33:08.999Z</time></trkpt><trkpt lat="45.63958118548296" lon="8.704779350251568"><ele>240.0</ele><time>2026-03-28T16:33:09.999Z</time></trkpt><trkpt lat="45.63936040864546" lon="8.704795625161086"><ele>241.0</ele><time>2026-03-28T16:33:10.999Z</time></trkpt><trkpt lat="45.63916180798975" lon="8.70481735139091"><ele>242.0</ele><time>2026-03-28T16:33:11.999Z</time></trkpt><trkpt lat="45.6389589119342" lon="8.704839547518544"><ele>243.0</ele><time>2026-03-28T16:33:12.999Z</time></trkpt><trkpt lat="45.63876365314112" lon="8.704860556292758"><ele>241.66666666666669</ele><time>2026-03-28T16:33:13.999Z</time></trkpt><trkpt lat="45.63861197015162" lon="8.704876838645085"><ele>240.33333333333334</ele><time>2026-03-28T16:33:14.999Z</time></trkpt><trkpt lat="45.638431439709834" lon="8.704897266172571"><ele>239.0</ele><time>2026-03-28T16:33:15.999Z</time></trkpt><trkpt lat="45.63826884307911" lon="8.704916855591575"><ele>239.0</ele><time>2026-03-28T16:33:16.999Z</time></trkpt><trkpt lat="45.638081811197104" lon="8.704939036098164"><ele>239.0</ele><time>2026-03-28T16:33:17.999Z</time></trkpt><trkpt lat="45.637918650497376" lon="8.70495744233936"><ele>239.0</ele><time>2026-03-28T16:33:18.999Z</time></trkpt><trkpt lat="45.63776696083781" lon="8.704969334092606"><ele>239.0</ele><time>2026-03-28T16:33:19.999Z</time></trkpt><trkpt lat="45.637625641175866" lon="8.705061936114355"><ele>239.0</ele><time>2026-03-28T16:33:20.999Z</time></trkpt><trkpt lat="45.63754379910509" lon="8.70499723883836"><ele>239.0</ele><time>2026-03-28T16:33:21.999Z</time></trkpt><trkpt lat="45.63742933859442" lon="8.704957772935995"><ele>239.0</ele><time>2026-03-28T16:33:22.999Z</time></trkpt><trkpt lat="45.637325322868605" lon="8.704943259727136"><ele>239.0</ele><time>2026-03-28T16:33:23.999Z</time></trkpt><trkpt lat="45.63723627040834" lon="8.704987420231124"><ele>239.0</ele><time>2026-03-28T16:33:24.999Z</time></trkpt><trkpt lat="45.63711555136886" lon="8.705065644430103"><ele>239.0</ele><time>2026-03-28T16:33:25.999Z</time></trkpt><trkpt lat="45.63697097067143" lon="8.705088394058894"><ele>239.0</ele><time>2026-03-28T16:33:26.999Z</time></trkpt><trkpt lat="45.63680864061119" lon="8.70507124882571"><ele>238.66666666666669</ele><time>2026-03-28T16:33:27.999Z</time></trkpt><trkpt lat="45.636625284651494" lon="8.705117897006382"><ele>238.33333333333331</ele><time>2026-03-28T16:33:28.999Z</time></trkpt><trkpt lat="45.63645582957027" lon="8.7051152664243"><ele>238.0</ele><time>2026-03-28T16:33:29.999Z</time></trkpt><trkpt lat="45.63626564903936" lon="8.705138104938959"><ele>236.66666666666666</ele><time>2026-03-28T16:33:30.999Z</time></trkpt><trkpt lat="45.63608740210373" lon="8.70517722103259"><ele>235.33333333333331</ele><time>2026-03-28T16:33:31.999Z</time></trkpt><trkpt lat="45.63589202305384" lon="8.705197151509717"><ele>234.0</ele><time>2026-03-28T16:33:32.999Z</time></trkpt><trkpt lat="45.63570533208679" lon="8.705205299598745"><ele>234.0</ele><time>2026-03-28T16:33:33.999Z</time></trkpt><trkpt lat="45.635512012293894" lon="8.705229827674666"><ele>234.0</ele><time>2026-03-28T16:33:34.999Z</time></trkpt><trkpt lat="45.63532062480246" lon="8.705254877032663"><ele>234.0</ele><time>2026-03-28T16:33:35.999Z</time></trkpt><trkpt lat="45.63513241356739" lon="8.705287094614102"><ele>233.0</ele><time>2026-03-28T16:33:36.999Z</time></trkpt><trkpt lat="45.634944255170936" lon="8.705306546134711"><ele>232.0</ele><time>2026-03-28T16:33:37.999Z</time></trkpt><trkpt lat="45.63475783556994" lon="8.705327107876672"><ele>231.0</ele><time>2026-03-28T16:33:38.999Z</time></trkpt><trkpt lat="45.63456402199768" lon="8.705347778296515"><ele>231.66666666666669</ele><time>2026-03-28T16:33:39.999Z</time></trkpt><trkpt lat="45.63437325578206" lon="8.705363157014217"><ele>232.33333333333334</ele><time>2026-03-28T16:33:40.999Z</time></trkpt><trkpt lat="45.63417908348291" lon="8.705386456127115"><ele>233.0</ele><time>2026-03-28T16:33:41.999Z</time></trkpt><trkpt lat="45.6339865254049" lon="8.705420000683967"><ele>233.0</ele><time>2026-03-28T16:33:42.999Z</time></trkpt><trkpt lat="45.63379707864" lon="8.70543352112172"><ele>233.0</ele><time>2026-03-28T16:33:43.999Z</time></trkpt><trkpt lat="45.63360976870022" lon="8.705449551656097"><ele>233.0</ele><time>2026-03-28T16:33:44.999Z</time></trkpt><trkpt lat="45.63341793475613" lon="8.70547211649549"><ele>233.33333333333334</ele><time>2026-03-28T16:33:45.999Z</time></trkpt><trkpt lat="45.633235165596695" lon="8.705486233936767"><ele>233.66666666666669</ele><time>2026-03-28T16:33:46.999Z</time></trkpt><trkpt lat="45.63304084433854" lon="8.705501337023907"><ele>234.0</ele><time>2026-03-28T16:33:47.999Z</time></trkpt><trkpt lat="45.632869532271336" lon="8.705516578119655"><ele>233.66666666666669</ele><time>2026-03-28T16:33:48.999Z</time></trkpt><trkpt lat="45.63270928792907" lon="8.705542145894926"><ele>233.33333333333334</ele><time>2026-03-28T16:33:50Z</time></trkpt><trkpt lat="45.63255355813128" lon="8.70557812125072"><ele>233.0</ele><time>2026-03-28T16:33:51Z</time></trkpt><trkpt lat="45.632411684202985" lon="8.705594070877009"><ele>233.0</ele><time>2026-03-28T16:33:52Z</time></trkpt><trkpt lat="45.63226763315608" lon="8.705612699882234"><ele>233.0</ele><time>2026-03-28T16:33:53Z</time></trkpt><trkpt lat="45.632120878339244" lon="8.705598495817016"><ele>233.0</ele><time>2026-03-28T16:33:54Z</time></trkpt><trkpt lat="45.63196015040798" lon="8.705572366681938"><ele>232.33333333333334</ele><time>2026-03-28T16:33:55Z</time></trkpt><trkpt lat="45.63180096100988" lon="8.705502118108315"><ele>231.66666666666669</ele><time>2026-03-28T16:33:56Z</time></trkpt><trkpt lat="45.63164057774663" lon="8.705398147467028"><ele>231.0</ele><time>2026-03-28T16:33:57Z</time></trkpt><trkpt lat="45.63147863293641" lon="8.705287590357528"><ele>230.33333333333331</ele><time>2026-03-28T16:33:58Z</time></trkpt><trkpt lat="45.631317660883305" lon="8.705178477558318"><ele>229.66666666666666</ele><time>2026-03-28T16:33:59Z</time></trkpt><trkpt lat="45.63115002261917" lon="8.705074071764308"><ele>229.0</ele><time>2026-03-28T16:34:00Z</time></trkpt><trkpt lat="45.63097358419603" lon="8.704988740444774"><ele>228.66666666666666</ele><time>2026-03-28T16:34:01Z</time></trkpt><trkpt lat="45.6308019910931" lon="8.704909054979023"><ele>228.33333333333331</ele><time>2026-03-28T16:34:02Z</time></trkpt><trkpt lat="45.630598720904516" lon="8.704869249364668"><ele>228.0</ele><time>2026-03-28T16:34:03Z</time></trkpt><trkpt lat="45.63040118526577" lon="8.704835754293171"><ele>228.33333333333331</ele><time>2026-03-28T16:34:04Z</time></trkpt><trkpt lat="45.63021371916161" lon="8.70476711931236"><ele>228.66666666666666</ele><time>2026-03-28T16:34:05Z</time></trkpt><trkpt lat="45.63003435333609" lon="8.704741971120097"><ele>229.0</ele><time>2026-03-28T16:34:06Z</time></trkpt><trkpt lat="45.62984550238997" lon="8.704739761583852"><ele>229.0</ele><time>2026-03-28T16:34:07Z</time></trkpt><trkpt lat="45.62967151731888" lon="8.704819060371017"><ele>229.0</ele><time>2026-03-28T16:34:08Z</time></trkpt><trkpt lat="45.629462523361774" lon="8.704877386835815"><ele>229.0</ele><time>2026-03-28T16:34:09Z</time></trkpt><trkpt lat="45.62928061888839" lon="8.705007633919069"><ele>228.0</ele><time>2026-03-28T16:34:10Z</time></trkpt><trkpt lat="45.62909555863863" lon="8.705074115166944"><ele>227.0</ele><time>2026-03-28T16:34:11Z</time></trkpt><trkpt lat="45.628903792947824" lon="8.70520663525743"><ele>226.0</ele><time>2026-03-28T16:34:12Z</time></trkpt><trkpt lat="45.62869573506563" lon="8.7053301404227"><ele>227.0</ele><time>2026-03-28T16:34:13Z</time></trkpt><trkpt lat="45.62849336536729" lon="8.705443872428102"><ele>228.0</ele><time>2026-03-28T16:34:14Z</time></trkpt><trkpt lat="45.628292708858474" lon="8.705505849655557"><ele>229.0</ele><time>2026-03-28T16:34:15Z</time></trkpt><trkpt lat="45.62810398924069" lon="8.705566788540818"><ele>229.0</ele><time>2026-03-28T16:34:16Z</time></trkpt><trkpt lat="45.6279069220682" lon="8.705626301348893"><ele>229.0</ele><time>2026-03-28T16:34:17Z</time></trkpt><trkpt lat="45.62770982424299" lon="8.705681121647881"><ele>229.0</ele><time>2026-03-28T16:34:18Z</time></trkpt><trkpt lat="45.62751337845239" lon="8.705736028261473"><ele>227.33333333333331</ele><time>2026-03-28T16:34:19Z</time></trkpt><trkpt lat="45.62731646885463" lon="8.705790883182303"><ele>225.66666666666669</ele><time>2026-03-28T16:34:20Z</time></trkpt><trkpt lat="45.627077303395055" lon="8.70585826930377"><ele>224.0</ele><time>2026-03-28T16:34:21Z</time></trkpt><trkpt lat="45.62686598482445" lon="8.70591895279496"><ele>224.33333333333334</ele><time>2026-03-28T16:34:22Z</time></trkpt><trkpt lat="45.62665714205855" lon="8.705978925290209"><ele>224.66666666666669</ele><time>2026-03-28T16:34:23Z</time></trkpt><trkpt lat="45.626438117474784" lon="8.706041781599334"><ele>225.0</ele><time>2026-03-28T16:34:24Z</time></trkpt><trkpt lat="45.626223156608006" lon="8.706103427926223"><ele>224.66666666666669</ele><time>2026-03-28T16:34:25Z</time></trkpt><trkpt lat="45.626016054899466" lon="8.706164063292968"><ele>224.33333333333334</ele><time>2026-03-28T16:34:26Z</time></trkpt><trkpt lat="45.625788072459116" lon="8.706231741892525"><ele>224.0</ele><time>2026-03-28T16:34:27Z</time></trkpt><trkpt lat="45.62557548906294" lon="8.706290257384014"><ele>224.0</ele><time>2026-03-28T16:34:28Z</time></trkpt><trkpt lat="45.62537205605877" lon="8.706345327509053"><ele>224.0</ele><time>2026-03-28T16:34:29Z</time></trkpt><trkpt lat="45.62517133944328" lon="8.70639507480574"><ele>224.0</ele><time>2026-03-28T16:34:30Z</time></trkpt><trkpt lat="45.62496723974612" lon="8.706434857762847"><ele>223.66666666666669</ele><time>2026-03-28T16:34:31Z</time></trkpt><trkpt lat="45.62475752139775" lon="8.706460739538082"><ele>223.33333333333331</ele><time>2026-03-28T16:34:32Z</time></trkpt><trkpt lat="45.62454031375613" lon="8.70647793139104"><ele>223.0</ele><time>2026-03-28T16:34:33Z</time></trkpt><trkpt lat="45.624321041439394" lon="8.706496128070008"><ele>222.66666666666666</ele><time>2026-03-28T16:34:34Z</time></trkpt><trkpt lat="45.6240956206282" lon="8.706515391790257"><ele>222.33333333333331</ele><time>2026-03-28T16:34:35Z</time></trkpt><trkpt lat="45.62388099533645" lon="8.706532651080895"><ele>222.0</ele><time>2026-03-28T16:34:36Z</time></trkpt><trkpt lat="45.62366643308162" lon="8.706549905408922"><ele>220.66666666666669</ele><time>2026-03-28T16:34:37Z</time></trkpt><trkpt lat="45.62345353785279" lon="8.706567025604656"><ele>219.33333333333334</ele><time>2026-03-28T16:34:38Z</time></trkpt><trkpt lat="45.623247289902864" lon="8.706583364695966"><ele>218.0</ele><time>2026-03-28T16:34:39Z</time></trkpt><trkpt lat="45.62304274480507" lon="8.706598583485473"><ele>217.66666666666669</ele><time>2026-03-28T16:34:40Z</time></trkpt><trkpt lat="45.622811605337226" lon="8.706617126054496"><ele>217.33333333333331</ele><time>2026-03-28T16:34:41Z</time></trkpt><trkpt lat="45.62261763109339" lon="8.706636913805555"><ele>217.0</ele><time>2026-03-28T16:34:42Z</time></trkpt><trkpt lat="45.62239495754209" lon="8.70666641676289"><ele>217.0</ele><time>2026-03-28T16:34:43Z</time></trkpt><trkpt lat="45.622180652073574" lon="8.706718328399374"><ele>217.0</ele><time>2026-03-28T16:34:44Z</time></trkpt><trkpt lat="45.6219735073517" lon="8.706784700262839"><ele>217.0</ele><time>2026-03-28T16:34:45Z</time></trkpt><trkpt lat="45.6217485694283" lon="8.706871327086464"><ele>218.0</ele><time>2026-03-28T16:34:46Z</time></trkpt><trkpt lat="45.621510855853714" lon="8.70698147404065"><ele>219.0</ele><time>2026-03-28T16:34:47Z</time></trkpt><trkpt lat="45.62129775864905" lon="8.707099366797896"><ele>218.66666666666669</ele><time>2026-03-28T16:34:48Z</time></trkpt><trkpt lat="45.621092680837556" lon="8.707219370586397"><ele>218.33333333333334</ele><time>2026-03-28T16:34:49Z</time></trkpt><trkpt lat="45.62090587344917" lon="8.70732921638858"><ele>218.0</ele><time>2026-03-28T16:34:50Z</time></trkpt><trkpt lat="45.62069208910658" lon="8.707457204026191"><ele>218.0</ele><time>2026-03-28T16:34:51Z</time></trkpt><trkpt lat="45.620502009200514" lon="8.70757032010873"><ele>218.0</ele><time>2026-03-28T16:34:52Z</time></trkpt><trkpt lat="45.620314625485356" lon="8.707674268352697"><ele>218.0</ele><time>2026-03-28T16:34:53Z</time></trkpt><trkpt lat="45.62012273535418" lon="8.707772659621066"><ele>218.33333333333334</ele><time>2026-03-28T16:34:54Z</time></trkpt><trkpt lat="45.619928438268424" lon="8.707862909978596"><ele>218.66666666666669</ele><time>2026-03-28T16:34:55Z</time></trkpt><trkpt lat="45.61972766488596" lon="8.707950663917085"><ele>219.0</ele><time>2026-03-28T16:34:56Z</time></trkpt><trkpt lat="45.619521262160575" lon="8.708046956823205"><ele>218.66666666666669</ele><time>2026-03-28T16:34:57Z</time></trkpt><trkpt lat="45.61931376796329" lon="8.708126945831781"><ele>218.33333333333334</ele><time>2026-03-28T16:34:57.999Z</time></trkpt><trkpt lat="45.61910487714554" lon="8.708187192907157"><ele>218.0</ele><time>2026-03-28T16:34:58.999Z</time></trkpt><trkpt lat="45.618896144643415" lon="8.708241450770052"><ele>218.0</ele><time>2026-03-28T16:34:59.999Z</time></trkpt><trkpt lat="45.61868191648204" lon="8.708292477538567"><ele>218.0</ele><time>2026-03-28T16:35:00.999Z</time></trkpt><trkpt lat="45.61846084614024" lon="8.708344202135692"><ele>218.0</ele><time>2026-03-28T16:35:01.999Z</time></trkpt><trkpt lat="45.61824417834217" lon="8.708401895698126"><ele>217.0</ele><time>2026-03-28T16:35:02.999Z</time></trkpt><trkpt lat="45.61802825821102" lon="8.7084584932157"><ele>216.0</ele><time>2026-03-28T16:35:03.999Z</time></trkpt><trkpt lat="45.61781078408605" lon="8.708512362396245"><ele>215.0</ele><time>2026-03-28T16:35:04.999Z</time></trkpt><trkpt lat="45.617591524639955" lon="8.708556479439984"><ele>215.0</ele><time>2026-03-28T16:35:05.999Z</time></trkpt><trkpt lat="45.61738031636766" lon="8.708600836552685"><ele>215.0</ele><time>2026-03-28T16:35:06.999Z</time></trkpt><trkpt lat="45.617170712492104" lon="8.708652720784437"><ele>215.0</ele><time>2026-03-28T16:35:07.999Z</time></trkpt><trkpt lat="45.616958525848055" lon="8.708709198416864"><ele>215.0</ele><time>2026-03-28T16:35:08.999Z</time></trkpt><trkpt lat="45.6167477512153" lon="8.708757165002142"><ele>215.0</ele><time>2026-03-28T16:35:09.999Z</time></trkpt><trkpt lat="45.61654001011019" lon="8.708817306869966"><ele>215.0</ele><time>2026-03-28T16:35:10.999Z</time></trkpt><trkpt lat="45.61632798838922" lon="8.708871413054078"><ele>214.66666666666669</ele><time>2026-03-28T16:35:11.999Z</time></trkpt><trkpt lat="45.61611696534433" lon="8.70891426249479"><ele>214.33333333333331</ele><time>2026-03-28T16:35:12.999Z</time></trkpt><trkpt lat="45.61591080405016" lon="8.708972134362769"><ele>214.0</ele><time>2026-03-28T16:35:13.999Z</time></trkpt><trkpt lat="45.61568429335413" lon="8.709025149953973"><ele>214.0</ele><time>2026-03-28T16:35:14.999Z</time></trkpt><trkpt lat="45.61546250693361" lon="8.709074943254132"><ele>214.0</ele><time>2026-03-28T16:35:15.999Z</time></trkpt><trkpt lat="45.615247733129266" lon="8.709122351853274"><ele>214.0</ele><time>2026-03-28T16:35:16.999Z</time></trkpt><trkpt lat="45.61505645671729" lon="8.70918031457648"><ele>214.0</ele><time>2026-03-28T16:35:17.999Z</time></trkpt><trkpt lat="45.61487904522617" lon="8.709228928640824"><ele>214.0</ele><time>2026-03-28T16:35:18.999Z</time></trkpt><trkpt lat="45.61471749842847" lon="8.70926780305812"><ele>214.0</ele><time>2026-03-28T16:35:19.999Z</time></trkpt><trkpt lat="45.614560610906054" lon="8.709302888172708"><ele>213.66666666666666</ele><time>2026-03-28T16:35:20.999Z</time></trkpt><trkpt lat="45.6144004853755" lon="8.709339582486038"><ele>213.33333333333331</ele><time>2026-03-28T16:35:21.999Z</time></trkpt><trkpt lat="45.61423883843068" lon="8.70936588476631"><ele>213.0</ele><time>2026-03-28T16:35:22.999Z</time></trkpt><trkpt lat="45.614069136911866" lon="8.709351934325356"><ele>213.0</ele><time>2026-03-28T16:35:23.999Z</time></trkpt><trkpt lat="45.61389811379207" lon="8.709288132705646"><ele>213.0</ele><time>2026-03-28T16:35:24.999Z</time></trkpt><trkpt lat="45.613729782119066" lon="8.709182806938813"><ele>213.0</ele><time>2026-03-28T16:35:25.999Z</time></trkpt><trkpt lat="45.61355721997635" lon="8.709063564329218"><ele>213.33333333333331</ele><time>2026-03-28T16:35:26.999Z</time></trkpt><trkpt lat="45.61337929835366" lon="8.70895910806636"><ele>213.66666666666666</ele><time>2026-03-28T16:35:27.999Z</time></trkpt><trkpt lat="45.61319411550765" lon="8.708883855289312"><ele>214.0</ele><time>2026-03-28T16:35:28.999Z</time></trkpt><trkpt lat="45.613010310381085" lon="8.708834901104927"><ele>213.0</ele><time>2026-03-28T16:35:29.999Z</time></trkpt><trkpt lat="45.61281433858586" lon="8.708834433913301"><ele>212.0</ele><time>2026-03-28T16:35:30.999Z</time></trkpt><trkpt lat="45.61261912719293" lon="8.70888003302615"><ele>211.0</ele><time>2026-03-28T16:35:31.999Z</time></trkpt><trkpt lat="45.61242518066569" lon="8.708926611741001"><ele>211.0</ele><time>2026-03-28T16:35:32.999Z</time></trkpt><trkpt lat="45.612240824676945" lon="8.708967990608501"><ele>211.0</ele><time>2026-03-28T16:35:33.999Z</time></trkpt><trkpt lat="45.612069502894" lon="8.708983747524435"><ele>211.0</ele><time>2026-03-28T16:35:34.999Z</time></trkpt><trkpt lat="45.61190779487747" lon="8.70896951819527"><ele>211.5</ele><time>2026-03-28T16:35:35.999Z</time></trkpt><trkpt lat="45.611765256762844" lon="8.708941977561738"><ele>212.0</ele><time>2026-03-28T16:35:36.999Z</time></trkpt><trkpt lat="45.611627476862594" lon="8.708901422423882"><ele>212.5</ele><time>2026-03-28T16:35:37.999Z</time></trkpt><trkpt lat="45.61148805177969" lon="8.708827798097756"><ele>213.0</ele><time>2026-03-28T16:35:38.999Z</time></trkpt><trkpt lat="45.611347241722704" lon="8.70874449158793"><ele>213.0</ele><time>2026-03-28T16:35:39.999Z</time></trkpt><trkpt lat="45.6111950228271" lon="8.708701731670343"><ele>213.0</ele><time>2026-03-28T16:35:40.999Z</time></trkpt><trkpt lat="45.611043078850024" lon="8.708664699814708"><ele>213.0</ele><time>2026-03-28T16:35:41.999Z</time></trkpt><trkpt lat="45.61089185826184" lon="8.708677148584739"><ele>212.66666666666669</ele><time>2026-03-28T16:35:42.999Z</time></trkpt><trkpt lat="45.61074217602545" lon="8.708730639662786"><ele>212.33333333333334</ele><time>2026-03-28T16:35:43.999Z</time></trkpt><trkpt lat="45.6105640843355" lon="8.708791942495573"><ele>212.0</ele><time>2026-03-28T16:35:44.999Z</time></trkpt><trkpt lat="45.61038557612137" lon="8.708878592325465"><ele>212.33333333333334</ele><time>2026-03-28T16:35:45.999Z</time></trkpt><trkpt lat="45.61021960303151" lon="8.709001853377416"><ele>212.66666666666669</ele><time>2026-03-28T16:35:46.999Z</time></trkpt><trkpt lat="45.61006945787191" lon="8.709168930732258"><ele>213.0</ele><time>2026-03-28T16:35:47.999Z</time></trkpt><trkpt lat="45.6099276791779" lon="8.709345440151372"><ele>212.0</ele><time>2026-03-28T16:35:48.999Z</time></trkpt><trkpt lat="45.609756478430285" lon="8.709490669762186"><ele>211.0</ele><time>2026-03-28T16:35:49.999Z</time></trkpt><trkpt lat="45.60957305234081" lon="8.709606723647832"><ele>210.0</ele><time>2026-03-28T16:35:50.999Z</time></trkpt><trkpt lat="45.6093689070494" lon="8.70968038905478"><ele>209.66666666666669</ele><time>2026-03-28T16:35:51.999Z</time></trkpt><trkpt lat="45.60916164224618" lon="8.7097446182802"><ele>209.33333333333334</ele><time>2026-03-28T16:35:52.999Z</time></trkpt><trkpt lat="45.608954366473796" lon="8.709808876603054"><ele>209.0</ele><time>2026-03-28T16:35:53.999Z</time></trkpt><trkpt lat="45.60873322505391" lon="8.709876581295765"><ele>210.5</ele><time>2026-03-28T16:35:54.999Z</time></trkpt><trkpt lat="45.60850508039345" lon="8.709946430088403"><ele>212.0</ele><time>2026-03-28T16:35:56Z</time></trkpt><trkpt lat="45.60826773908621" lon="8.710019573238265"><ele>212.0</ele><time>2026-03-28T16:35:57Z</time></trkpt><trkpt lat="45.60802520159935" lon="8.710096374193755"><ele>212.0</ele><time>2026-03-28T16:35:58Z</time></trkpt><trkpt lat="45.60776650358977" lon="8.710178292525951"><ele>210.5</ele><time>2026-03-28T16:35:59Z</time></trkpt><trkpt lat="45.60750428639541" lon="8.710276887505566"><ele>209.0</ele><time>2026-03-28T16:36:00Z</time></trkpt><trkpt lat="45.60723944016683" lon="8.7103616331461"><ele>208.5</ele><time>2026-03-28T16:36:01Z</time></trkpt><trkpt lat="45.60697956944768" lon="8.710425739378497"><ele>208.0</ele><time>2026-03-28T16:36:02Z</time></trkpt><trkpt lat="45.60672584849029" lon="8.710488048340745"><ele>208.0</ele><time>2026-03-28T16:36:03Z</time></trkpt><trkpt lat="45.606480478489516" lon="8.71055386105581"><ele>208.0</ele><time>2026-03-28T16:36:04Z</time></trkpt><trkpt lat="45.60625743850404" lon="8.710616517051777"><ele>208.0</ele><time>2026-03-28T16:36:05Z</time></trkpt><trkpt lat="45.606052406672866" lon="8.71067053932182"><ele>208.0</ele><time>2026-03-28T16:36:06Z</time></trkpt><trkpt lat="45.60584935407629" lon="8.71070458347901"><ele>208.0</ele><time>2026-03-28T16:36:07Z</time></trkpt><trkpt lat="45.60564718193061" lon="8.710776002799129"><ele>208.0</ele><time>2026-03-28T16:36:08Z</time></trkpt><trkpt lat="45.605430704429246" lon="8.71080714578666"><ele>208.0</ele><time>2026-03-28T16:36:09Z</time></trkpt><trkpt lat="45.60524103499336" lon="8.710875552291965"><ele>208.0</ele><time>2026-03-28T16:36:10Z</time></trkpt><trkpt lat="45.605059145969506" lon="8.710902523410935"><ele>208.33333333333331</ele><time>2026-03-28T16:36:11Z</time></trkpt><trkpt lat="45.604888329239834" lon="8.710914020758551"><ele>208.66666666666669</ele><time>2026-03-28T16:36:12Z</time></trkpt><trkpt lat="45.604728113755726" lon="8.710912729687522"><ele>209.0</ele><time>2026-03-28T16:36:13Z</time></trkpt><trkpt lat="45.60457690296174" lon="8.710906495617232"><ele>209.0</ele><time>2026-03-28T16:36:14Z</time></trkpt><trkpt lat="45.6044386249292" lon="8.710885786717625"><ele>209.0</ele><time>2026-03-28T16:36:15Z</time></trkpt><trkpt lat="45.60431284457074" lon="8.710920724585403"><ele>209.0</ele><time>2026-03-28T16:36:16Z</time></trkpt><trkpt lat="45.60418842491806" lon="8.710911772892832"><ele>209.0</ele><time>2026-03-28T16:36:17Z</time></trkpt><trkpt lat="45.604076602804795" lon="8.71093360591597"><ele>209.0</ele><time>2026-03-28T16:36:18Z</time></trkpt><trkpt lat="45.603963942449695" lon="8.71088979102858"><ele>209.0</ele><time>2026-03-28T16:36:19Z</time></trkpt><trkpt lat="45.60387671790158" lon="8.710785633451986"><ele>209.0</ele><time>2026-03-28T16:36:20Z</time></trkpt><trkpt lat="45.60375552626182" lon="8.710773613269142"><ele>209.0</ele><time>2026-03-28T16:36:21Z</time></trkpt><trkpt lat="45.603651700869484" lon="8.710890544981032"><ele>209.5</ele><time>2026-03-28T16:36:22Z</time></trkpt><trkpt lat="45.60356628873966" lon="8.711008346894435"><ele>210.0</ele><time>2026-03-28T16:36:23Z</time></trkpt><trkpt lat="45.60347144641742" lon="8.711137374473243"><ele>210.5</ele><time>2026-03-28T16:36:24Z</time></trkpt><trkpt lat="45.60333629718613" lon="8.711234661345253"><ele>211.0</ele><time>2026-03-28T16:36:25Z</time></trkpt><trkpt lat="45.603196249022815" lon="8.711336864179259"><ele>209.66666666666666</ele><time>2026-03-28T16:36:26Z</time></trkpt><trkpt lat="45.603033313648126" lon="8.711400657044024"><ele>208.33333333333331</ele><time>2026-03-28T16:36:27Z</time></trkpt><trkpt lat="45.60286040351279" lon="8.711477284667806"><ele>207.0</ele><time>2026-03-28T16:36:28Z</time></trkpt><trkpt lat="45.60267772570474" lon="8.71155467371062"><ele>207.0</ele><time>2026-03-28T16:36:29Z</time></trkpt><trkpt lat="45.602484960810756" lon="8.711634251812724"><ele>207.0</ele><time>2026-03-28T16:36:30Z</time></trkpt><trkpt lat="45.602292224192304" lon="8.711710783836214"><ele>207.0</ele><time>2026-03-28T16:36:31Z</time></trkpt><trkpt lat="45.60209427315348" lon="8.711789386463398"><ele>205.66666666666669</ele><time>2026-03-28T16:36:32Z</time></trkpt><trkpt lat="45.60189965118038" lon="8.711866667172341"><ele>204.33333333333334</ele><time>2026-03-28T16:36:33Z</time></trkpt><trkpt lat="45.60170401610597" lon="8.711942737224653"><ele>203.0</ele><time>2026-03-28T16:36:34Z</time></trkpt><trkpt lat="45.60149841729204" lon="8.712019378081132"><ele>203.0</ele><time>2026-03-28T16:36:35Z</time></trkpt><trkpt lat="45.60129896863292" lon="8.712091464736151"><ele>203.0</ele><time>2026-03-28T16:36:36Z</time></trkpt><trkpt lat="45.60108904735005" lon="8.712163877964999"><ele>203.0</ele><time>2026-03-28T16:36:37Z</time></trkpt><trkpt lat="45.600877910305236" lon="8.712236969044838"><ele>202.66666666666669</ele><time>2026-03-28T16:36:38Z</time></trkpt><trkpt lat="45.600669007286086" lon="8.71230310628003"><ele>202.33333333333331</ele><time>2026-03-28T16:36:39Z</time></trkpt><trkpt lat="45.60045961571019" lon="8.712370023400629"><ele>202.0</ele><time>2026-03-28T16:36:40Z</time></trkpt><trkpt lat="45.60025200858195" lon="8.712435556994972"><ele>202.66666666666666</ele><time>2026-03-28T16:36:41Z</time></trkpt><trkpt lat="45.60003709512675" lon="8.71250023186972"><ele>203.33333333333331</ele><time>2026-03-28T16:36:42Z</time></trkpt><trkpt lat="45.59982645198369" lon="8.712562466795891"><ele>204.0</ele><time>2026-03-28T16:36:43Z</time></trkpt><trkpt lat="45.599618562684185" lon="8.712618756658626"><ele>204.0</ele><time>2026-03-28T16:36:44Z</time></trkpt><trkpt lat="45.59940775689756" lon="8.712670093536257"><ele>204.0</ele><time>2026-03-28T16:36:45Z</time></trkpt><trkpt lat="45.59920102159492" lon="8.712719964287158"><ele>204.0</ele><time>2026-03-28T16:36:46Z</time></trkpt><trkpt lat="45.59900076248654" lon="8.71276658466489"><ele>204.0</ele><time>2026-03-28T16:36:47Z</time></trkpt><trkpt lat="45.598803777165706" lon="8.712811151286685"><ele>204.0</ele><time>2026-03-28T16:36:48Z</time></trkpt><trkpt lat="45.59859963060002" lon="8.712857417587507"><ele>204.0</ele><time>2026-03-28T16:36:49Z</time></trkpt><trkpt lat="45.59839831349705" lon="8.712916193840586"><ele>204.0</ele><time>2026-03-28T16:36:50Z</time></trkpt><trkpt lat="45.59819457027143" lon="8.712965077580888"><ele>204.0</ele><time>2026-03-28T16:36:51Z</time></trkpt><trkpt lat="45.5979867892307" lon="8.713016089117298"><ele>204.0</ele><time>2026-03-28T16:36:52Z</time></trkpt><trkpt lat="45.597780569130876" lon="8.713045245129134"><ele>204.0</ele><time>2026-03-28T16:36:53Z</time></trkpt><trkpt lat="45.597582113082304" lon="8.713113587238244"><ele>204.0</ele><time>2026-03-28T16:36:54Z</time></trkpt><trkpt lat="45.597375425373535" lon="8.713166997778952"><ele>204.0</ele><time>2026-03-28T16:36:55Z</time></trkpt><trkpt lat="45.59717227153003" lon="8.713214965879459"><ele>204.33333333333331</ele><time>2026-03-28T16:36:56Z</time></trkpt><trkpt lat="45.5969741386696" lon="8.71326256860491"><ele>204.66666666666666</ele><time>2026-03-28T16:36:57Z</time></trkpt><trkpt lat="45.59677528583178" lon="8.713308071803933"><ele>205.0</ele><time>2026-03-28T16:36:58Z</time></trkpt><trkpt lat="45.596576671506206" lon="8.713308781448903"><ele>205.0</ele><time>2026-03-28T16:36:59Z</time></trkpt><trkpt lat="45.596378216181975" lon="8.713350208579419"><ele>205.0</ele><time>2026-03-28T16:37:00Z</time></trkpt><trkpt lat="45.59617336756343" lon="8.713397299427688"><ele>205.0</ele><time>2026-03-28T16:37:01Z</time></trkpt><trkpt lat="45.59596887014913" lon="8.713443322246576"><ele>205.33333333333331</ele><time>2026-03-28T16:37:02Z</time></trkpt><trkpt lat="45.59576586459051" lon="8.713489601056077"><ele>205.66666666666669</ele><time>2026-03-28T16:37:03Z</time></trkpt><trkpt lat="45.59557715127475" lon="8.713532344510549"><ele>206.0</ele><time>2026-03-28T16:37:04Z</time></trkpt><trkpt lat="45.595402007450495" lon="8.713572014454478"><ele>204.33333333333334</ele><time>2026-03-28T16:37:05Z</time></trkpt><trkpt lat="45.59523151906975" lon="8.713610630016756"><ele>202.66666666666669</ele><time>2026-03-28T16:37:06Z</time></trkpt><trkpt lat="45.595076504205764" lon="8.713645991036735"><ele>201.0</ele><time>2026-03-28T16:37:06.999Z</time></trkpt><trkpt lat="45.5949395844649" lon="8.713678059572091"><ele>201.0</ele><time>2026-03-28T16:37:07.999Z</time></trkpt><trkpt lat="45.59481872747425" lon="8.713692023165402"><ele>201.0</ele><time>2026-03-28T16:37:08.999Z</time></trkpt><trkpt lat="45.5947064355356" lon="8.713657555851459"><ele>201.0</ele><time>2026-03-28T16:37:09.999Z</time></trkpt><trkpt lat="45.59460521078614" lon="8.713607418521441"><ele>201.0</ele><time>2026-03-28T16:37:10.999Z</time></trkpt><trkpt lat="45.59453444948747" lon="8.713480172323667"><ele>201.20000000000002</ele><time>2026-03-28T16:37:11.999Z</time></trkpt><trkpt lat="45.594454873336986" lon="8.713395864847815"><ele>201.4</ele><time>2026-03-28T16:37:12.999Z</time></trkpt><trkpt lat="45.59434793227198" lon="8.713380082247859"><ele>201.6</ele><time>2026-03-28T16:37:13.999Z</time></trkpt><trkpt lat="45.594264150199095" lon="8.713367578060485"><ele>201.8</ele><time>2026-03-28T16:37:14.999Z</time></trkpt><trkpt lat="45.594214495376264" lon="8.713546829823947"><ele>202.0</ele><time>2026-03-28T16:37:15.999Z</time></trkpt><trkpt lat="45.594183802267295" lon="8.713710411700442"><ele>202.0</ele><time>2026-03-28T16:37:16.999Z</time></trkpt><trkpt lat="45.594116181150646" lon="8.713851012560424"><ele>202.0</ele><time>2026-03-28T16:37:17.999Z</time></trkpt><trkpt lat="45.59399789811616" lon="8.713935742563542"><ele>202.0</ele><time>2026-03-28T16:37:18.999Z</time></trkpt><trkpt lat="45.59385392986305" lon="8.713943725007729"><ele>202.0</ele><time>2026-03-28T16:37:19.999Z</time></trkpt><trkpt lat="45.59370612979127" lon="8.713992146115926"><ele>201.66666666666666</ele><time>2026-03-28T16:37:20.999Z</time></trkpt><trkpt lat="45.59354919957061" lon="8.714015308228714"><ele>201.33333333333331</ele><time>2026-03-28T16:37:21.999Z</time></trkpt><trkpt lat="45.59337270605687" lon="8.714065271832368"><ele>201.0</ele><time>2026-03-28T16:37:22.999Z</time></trkpt><trkpt lat="45.593186718929246" lon="8.714118897048387"><ele>201.0</ele><time>2026-03-28T16:37:23.999Z</time></trkpt><trkpt lat="45.59298422524023" lon="8.714145086575842"><ele>201.0</ele><time>2026-03-28T16:37:24.999Z</time></trkpt><trkpt lat="45.59278993731548" lon="8.714190313722348"><ele>201.0</ele><time>2026-03-28T16:37:25.999Z</time></trkpt><trkpt lat="45.59257937782611" lon="8.714239328575726"><ele>201.66666666666669</ele><time>2026-03-28T16:37:26.999Z</time></trkpt><trkpt lat="45.59236749610334" lon="8.714288594292412"><ele>202.33333333333334</ele><time>2026-03-28T16:37:27.999Z</time></trkpt><trkpt lat="45.59214703100561" lon="8.714339542832112"><ele>203.0</ele><time>2026-03-28T16:37:28.999Z</time></trkpt><trkpt lat="45.591926596128104" lon="8.714390460251854"><ele>202.0</ele><time>2026-03-28T16:37:29.999Z</time></trkpt><trkpt lat="45.591699955730746" lon="8.714442473309344"><ele>201.0</ele><time>2026-03-28T16:37:31.017Z</time></trkpt><trkpt lat="45.591473810850715" lon="8.714493862817532"><ele>201.0</ele><time>2026-03-28T16:37:32.017Z</time></trkpt><trkpt lat="45.591245458846785" lon="8.714546124262903"><ele>201.0</ele><time>2026-03-28T16:37:33.017Z</time></trkpt><trkpt lat="45.59101965454661" lon="8.71459798752265"><ele>200.0</ele><time>2026-03-28T16:37:34.017Z</time></trkpt><trkpt lat="45.59001662307008" lon="8.71484049596704"><ele>200.0</ele><time>2026-03-28T16:37:38.999Z</time></trkpt><trkpt lat="45.5898015399236" lon="8.714887860429151"><ele>200.0</ele><time>2026-03-28T16:37:39.999Z</time></trkpt><trkpt lat="45.58955975502373" lon="8.714935992632439"><ele>199.33333333333334</ele><time>2026-03-28T16:37:40.999Z</time></trkpt><trkpt lat="45.58934098894119" lon="8.714987412411299"><ele>198.66666666666669</ele><time>2026-03-28T16:37:41.999Z</time></trkpt><trkpt lat="45.58912688439869" lon="8.715035194049351"><ele>198.0</ele><time>2026-03-28T16:37:42.999Z</time></trkpt><trkpt lat="45.58890662138164" lon="8.715084349961064"><ele>198.0</ele><time>2026-03-28T16:37:43.999Z</time></trkpt><trkpt lat="45.58871432782132" lon="8.715127265761788"><ele>198.0</ele><time>2026-03-28T16:37:44.999Z</time></trkpt><trkpt lat="45.58850042700058" lon="8.715175014310455"><ele>198.0</ele><time>2026-03-28T16:37:45.999Z</time></trkpt><trkpt lat="45.58829378451478" lon="8.715221152404682"><ele>197.66666666666669</ele><time>2026-03-28T16:37:46.999Z</time></trkpt><trkpt lat="45.588075641654925" lon="8.7152698582672"><ele>197.33333333333334</ele><time>2026-03-28T16:37:47.999Z</time></trkpt><trkpt lat="45.5878654775895" lon="8.715316782653488"><ele>197.0</ele><time>2026-03-28T16:37:48.999Z</time></trkpt><trkpt lat="45.587622899627135" lon="8.715372063829914"><ele>199.0</ele><time>2026-03-28T16:37:49.999Z</time></trkpt><trkpt lat="45.58740908998317" lon="8.715421188364616"><ele>201.0</ele><time>2026-03-28T16:37:50.999Z</time></trkpt><trkpt lat="45.587196475851165" lon="8.715469706980313"><ele>203.0</ele><time>2026-03-28T16:37:51.999Z</time></trkpt><trkpt lat="45.586982375546725" lon="8.715518488327062"><ele>203.0</ele><time>2026-03-28T16:37:52.999Z</time></trkpt><trkpt lat="45.58677749485469" lon="8.71556530424223"><ele>203.0</ele><time>2026-03-28T16:37:53.999Z</time></trkpt><trkpt lat="45.586565992134105" lon="8.715614061514495"><ele>203.0</ele><time>2026-03-28T16:37:54.999Z</time></trkpt><trkpt lat="45.586358529156826" lon="8.715661887511171"><ele>203.33333333333334</ele><time>2026-03-28T16:37:55.999Z</time></trkpt><trkpt lat="45.58614705517916" lon="8.715710638167906"><ele>203.66666666666669</ele><time>2026-03-28T16:37:56.999Z</time></trkpt><trkpt lat="45.58594045807794" lon="8.715757775111042"><ele>204.0</ele><time>2026-03-28T16:37:57.999Z</time></trkpt><trkpt lat="45.58573955294597" lon="8.715803452062593"><ele>204.0</ele><time>2026-03-28T16:37:58.999Z</time></trkpt><trkpt lat="45.585544416895566" lon="8.715847817375735"><ele>204.0</ele><time>2026-03-28T16:37:59.999Z</time></trkpt><trkpt lat="45.585368873179924" lon="8.715891835197588"><ele>204.0</ele><time>2026-03-28T16:38:00.999Z</time></trkpt><trkpt lat="45.58517295450827" lon="8.71594286643747"><ele>202.33333333333331</ele><time>2026-03-28T16:38:02Z</time></trkpt><trkpt lat="45.58500848219133" lon="8.71598164959777"><ele>200.66666666666666</ele><time>2026-03-28T16:38:03Z</time></trkpt><trkpt lat="45.58485029797698" lon="8.716017672455306"><ele>199.0</ele><time>2026-03-28T16:38:04Z</time></trkpt><trkpt lat="45.58470597961386" lon="8.716050537714878"><ele>198.75</ele><time>2026-03-28T16:38:05Z</time></trkpt><trkpt lat="45.584566626543534" lon="8.716080442546557"><ele>198.5</ele><time>2026-03-28T16:38:06Z</time></trkpt><trkpt lat="45.58444273383334" lon="8.71610699095743"><ele>198.25</ele><time>2026-03-28T16:38:07Z</time></trkpt><trkpt lat="45.58431554387892" lon="8.71613424595988"><ele>198.0</ele><time>2026-03-28T16:38:08Z</time></trkpt><trkpt lat="45.58418136704718" lon="8.716150505764945"><ele>198.0</ele><time>2026-03-28T16:38:09Z</time></trkpt><trkpt lat="45.584055642271395" lon="8.716141510191633"><ele>198.0</ele><time>2026-03-28T16:38:10Z</time></trkpt><trkpt lat="45.58393753474925" lon="8.716132273902637"><ele>198.0</ele><time>2026-03-28T16:38:11Z</time></trkpt><trkpt lat="45.58382785740625" lon="8.716132363214204"><ele>198.0</ele><time>2026-03-28T16:38:12Z</time></trkpt><trkpt lat="45.583728818634555" lon="8.716074148156352"><ele>197.8</ele><time>2026-03-28T16:38:13Z</time></trkpt><trkpt lat="45.583648270711535" lon="8.71602031613172"><ele>197.60000000000002</ele><time>2026-03-28T16:38:14Z</time></trkpt><trkpt lat="45.583560550072264" lon="8.716042479570815"><ele>197.39999999999998</ele><time>2026-03-28T16:38:15Z</time></trkpt><trkpt lat="45.58348972989286" lon="8.716134924204496"><ele>197.2</ele><time>2026-03-28T16:38:16Z</time></trkpt><trkpt lat="45.583420834053015" lon="8.716264559737871"><ele>197.0</ele><time>2026-03-28T16:38:17Z</time></trkpt><trkpt lat="45.583326774689155" lon="8.716350215668726"><ele>197.0</ele><time>2026-03-28T16:38:18Z</time></trkpt><trkpt lat="45.58318325540278" lon="8.716387788807461"><ele>197.0</ele><time>2026-03-28T16:38:19Z</time></trkpt><trkpt lat="45.58303647707445" lon="8.71641934399164"><ele>197.0</ele><time>2026-03-28T16:38:20Z</time></trkpt><trkpt lat="45.58287032078057" lon="8.716456755658987"><ele>196.66666666666669</ele><time>2026-03-28T16:38:21Z</time></trkpt><trkpt lat="45.582705694196115" lon="8.716495454180702"><ele>196.33333333333331</ele><time>2026-03-28T16:38:22Z</time></trkpt><trkpt lat="45.582537066793805" lon="8.716543429832473"><ele>196.0</ele><time>2026-03-28T16:38:23Z</time></trkpt><trkpt lat="45.58235634898236" lon="8.716580765517104"><ele>196.0</ele><time>2026-03-28T16:38:24Z</time></trkpt><trkpt lat="45.582174272483144" lon="8.716632169694915"><ele>196.0</ele><time>2026-03-28T16:38:25Z</time></trkpt><trkpt lat="45.581991348738924" lon="8.716676934447563"><ele>196.0</ele><time>2026-03-28T16:38:26Z</time></trkpt><trkpt lat="45.58181242284302" lon="8.716716595564224"><ele>196.66666666666666</ele><time>2026-03-28T16:38:27Z</time></trkpt><trkpt lat="45.58164357385704" lon="8.716741354910875"><ele>197.33333333333331</ele><time>2026-03-28T16:38:28Z</time></trkpt><trkpt lat="45.581473785598625" lon="8.716771507288001"><ele>198.0</ele><time>2026-03-28T16:38:29Z</time></trkpt><trkpt lat="45.58129636261783" lon="8.716820183304447"><ele>198.0</ele><time>2026-03-28T16:38:30Z</time></trkpt><trkpt lat="45.581114799099566" lon="8.716854252163888"><ele>198.0</ele><time>2026-03-28T16:38:31Z</time></trkpt><trkpt lat="45.580918906138116" lon="8.716892711009173"><ele>198.0</ele><time>2026-03-28T16:38:32Z</time></trkpt><trkpt lat="45.58074658030465" lon="8.71693623098206"><ele>198.0</ele><time>2026-03-28T16:38:33Z</time></trkpt><trkpt lat="45.58058687501654" lon="8.716966843340447"><ele>198.0</ele><time>2026-03-28T16:38:34Z</time></trkpt><trkpt lat="45.58042473279795" lon="8.717000239572622"><ele>198.0</ele><time>2026-03-28T16:38:35Z</time></trkpt><trkpt lat="45.58027639745813" lon="8.717023206190554"><ele>198.0</ele><time>2026-03-28T16:38:36Z</time></trkpt><trkpt lat="45.58014244323349" lon="8.717032164253101"><ele>198.0</ele><time>2026-03-28T16:38:37Z</time></trkpt><trkpt lat="45.58001890407671" lon="8.717016853947353"><ele>198.0</ele><time>2026-03-28T16:38:38Z</time></trkpt><trkpt lat="45.57989536682178" lon="8.71699086317468"><ele>198.0</ele><time>2026-03-28T16:38:39Z</time></trkpt><trkpt lat="45.579764872647445" lon="8.716955803920298"><ele>198.0</ele><time>2026-03-28T16:38:40Z</time></trkpt><trkpt lat="45.579653819999" lon="8.716904820496868"><ele>198.0</ele><time>2026-03-28T16:38:41Z</time></trkpt><trkpt lat="45.57955510602445" lon="8.716891338092239"><ele>198.0</ele><time>2026-03-28T16:38:42Z</time></trkpt><trkpt lat="45.579450499335984" lon="8.71691204127785"><ele>198.0</ele><time>2026-03-28T16:38:43Z</time></trkpt><trkpt lat="45.57935682563487" lon="8.716968356983282"><ele>198.0</ele><time>2026-03-28T16:38:44Z</time></trkpt><trkpt lat="45.57924988467573" lon="8.717005307887838"><ele>197.60000000000002</ele><time>2026-03-28T16:38:45Z</time></trkpt><trkpt lat="45.57914357543601" lon="8.717002328862826"><ele>197.20000000000002</ele><time>2026-03-28T16:38:46Z</time></trkpt><trkpt lat="45.5790395624489" lon="8.71702846455724"><ele>196.8</ele><time>2026-03-28T16:38:47Z</time></trkpt><trkpt lat="45.578955439009086" lon="8.717109753033162"><ele>196.4</ele><time>2026-03-28T16:38:48Z</time></trkpt><trkpt lat="45.57890293280726" lon="8.717230256708282"><ele>196.0</ele><time>2026-03-28T16:38:49Z</time></trkpt><trkpt lat="45.57887633710819" lon="8.717367996037392"><ele>196.0</ele><time>2026-03-28T16:38:50Z</time></trkpt><trkpt lat="45.57884159448629" lon="8.717501248658639"><ele>196.0</ele><time>2026-03-28T16:38:51Z</time></trkpt><trkpt lat="45.57877284170896" lon="8.71760964771753"><ele>196.0</ele><time>2026-03-28T16:38:52Z</time></trkpt><trkpt lat="45.578683937847124" lon="8.717662839551544"><ele>196.0</ele><time>2026-03-28T16:38:53Z</time></trkpt><trkpt lat="45.578581951893064" lon="8.717649303805626"><ele>196.0</ele><time>2026-03-28T16:38:54Z</time></trkpt><trkpt lat="45.578472352689616" lon="8.71759595327494"><ele>195.25</ele><time>2026-03-28T16:38:55Z</time></trkpt><trkpt lat="45.57835243575525" lon="8.71751606965057"><ele>194.5</ele><time>2026-03-28T16:38:56Z</time></trkpt><trkpt lat="45.578211840037284" lon="8.717466814438833"><ele>193.75</ele><time>2026-03-28T16:38:57Z</time></trkpt><trkpt lat="45.57807036100935" lon="8.717442459301035"><ele>193.0</ele><time>2026-03-28T16:38:58Z</time></trkpt><trkpt lat="45.57792305773201" lon="8.717443456466368"><ele>191.0</ele><time>2026-03-28T16:38:59Z</time></trkpt><trkpt lat="45.57776749539982" lon="8.717436914736107"><ele>189.0</ele><time>2026-03-28T16:39:00Z</time></trkpt><trkpt lat="45.577610562585" lon="8.71746812762516"><ele>187.0</ele><time>2026-03-28T16:39:01Z</time></trkpt><trkpt lat="45.57745926669134" lon="8.717511810595648"><ele>187.0</ele><time>2026-03-28T16:39:02Z</time></trkpt><trkpt lat="45.57729797230131" lon="8.7175489024929"><ele>187.0</ele><time>2026-03-28T16:39:03Z</time></trkpt><trkpt lat="45.57712410276967" lon="8.717561147524298"><ele>187.0</ele><time>2026-03-28T16:39:04Z</time></trkpt><trkpt lat="45.57695223044718" lon="8.717593340106601"><ele>186.33333333333334</ele><time>2026-03-28T16:39:05Z</time></trkpt><trkpt lat="45.5767786904312" lon="8.717649841848777"><ele>185.66666666666666</ele><time>2026-03-28T16:39:06Z</time></trkpt><trkpt lat="45.576597437951165" lon="8.71768482253378"><ele>185.0</ele><time>2026-03-28T16:39:07Z</time></trkpt><trkpt lat="45.57642153387865" lon="8.717721532873073"><ele>184.33333333333331</ele><time>2026-03-28T16:39:08Z</time></trkpt><trkpt lat="45.576239915674314" lon="8.717743491515678"><ele>183.66666666666666</ele><time>2026-03-28T16:39:09Z</time></trkpt><trkpt lat="45.57604915148739" lon="8.717785913680514"><ele>183.0</ele><time>2026-03-28T16:39:10Z</time></trkpt><trkpt lat="45.575851892577646" lon="8.717802534674545"><ele>183.0</ele><time>2026-03-28T16:39:11Z</time></trkpt><trkpt lat="45.57568762210649" lon="8.717855454689579"><ele>183.0</ele><time>2026-03-28T16:39:12Z</time></trkpt><trkpt lat="45.57549943515019" lon="8.717873971939879"><ele>183.0</ele><time>2026-03-28T16:39:13Z</time></trkpt><trkpt lat="45.57530917543914" lon="8.717910196577568"><ele>185.0</ele><time>2026-03-28T16:39:13.999Z</time></trkpt><trkpt lat="45.57512954741878" lon="8.717975406101395"><ele>187.0</ele><time>2026-03-28T16:39:14.999Z</time></trkpt><trkpt lat="45.57493033903635" lon="8.717997895933808"><ele>189.0</ele><time>2026-03-28T16:39:15.999Z</time></trkpt><trkpt lat="45.574741157032946" lon="8.718063982317844"><ele>189.0</ele><time>2026-03-28T16:39:16.999Z</time></trkpt><trkpt lat="45.57455243891335" lon="8.718109645458368"><ele>189.0</ele><time>2026-03-28T16:39:17.999Z</time></trkpt><trkpt lat="45.57435409836852" lon="8.718163423829617"><ele>189.0</ele><time>2026-03-28T16:39:18.999Z</time></trkpt><trkpt lat="45.57414829456827" lon="8.718223185333256"><ele>191.0</ele><time>2026-03-28T16:39:19.999Z</time></trkpt><trkpt lat="45.57395133173043" lon="8.718311304638108"><ele>193.0</ele><time>2026-03-28T16:39:20.999Z</time></trkpt><trkpt lat="45.5737585393763" lon="8.718405496413832"><ele>195.0</ele><time>2026-03-28T16:39:21.999Z</time></trkpt><trkpt lat="45.5735603008854" lon="8.718490086314729"><ele>195.66666666666669</ele><time>2026-03-28T16:39:22.999Z</time></trkpt><trkpt lat="45.57335130348486" lon="8.718548213358433"><ele>196.33333333333334</ele><time>2026-03-28T16:39:23.999Z</time></trkpt><trkpt lat="45.57315013242972" lon="8.718597035194275"><ele>197.0</ele><time>2026-03-28T16:39:24.999Z</time></trkpt><trkpt lat="45.572937150100586" lon="8.718647894926415"><ele>195.33333333333334</ele><time>2026-03-28T16:39:25.999Z</time></trkpt><trkpt lat="45.57274463445959" lon="8.718702144843114"><ele>193.66666666666669</ele><time>2026-03-28T16:39:26.999Z</time></trkpt><trkpt lat="45.57254676122297" lon="8.718749464278721"><ele>192.0</ele><time>2026-03-28T16:39:27.999Z</time></trkpt><trkpt lat="45.57236587201268" lon="8.718817248990018"><ele>192.0</ele><time>2026-03-28T16:39:28.999Z</time></trkpt><trkpt lat="45.57217486418296" lon="8.718855796395978"><ele>192.0</ele><time>2026-03-28T16:39:29.999Z</time></trkpt><trkpt lat="45.57198070734225" lon="8.718911445060513"><ele>192.0</ele><time>2026-03-28T16:39:30.999Z</time></trkpt><trkpt lat="45.5717894429029" lon="8.71896172872221"><ele>192.33333333333331</ele><time>2026-03-28T16:39:31.999Z</time></trkpt><trkpt lat="45.57159802559514" lon="8.719012198105428"><ele>192.66666666666666</ele><time>2026-03-28T16:39:32.999Z</time></trkpt><trkpt lat="45.571402110600985" lon="8.719063075214823"><ele>193.0</ele><time>2026-03-28T16:39:33.999Z</time></trkpt><trkpt lat="45.571211540626294" lon="8.719116862984258"><ele>192.0</ele><time>2026-03-28T16:39:34.999Z</time></trkpt><trkpt lat="45.57101572419828" lon="8.719195570230085"><ele>191.0</ele><time>2026-03-28T16:39:35.999Z</time></trkpt><trkpt lat="45.5708338356662" lon="8.719241872726027"><ele>190.0</ele><time>2026-03-28T16:39:36.999Z</time></trkpt><trkpt lat="45.570666866015756" lon="8.71928779882507"><ele>190.0</ele><time>2026-03-28T16:39:37.999Z</time></trkpt><trkpt lat="45.570492858059445" lon="8.719330772943202"><ele>190.0</ele><time>2026-03-28T16:39:38.999Z</time></trkpt><trkpt lat="45.57029955005352" lon="8.71936295194091"><ele>190.0</ele><time>2026-03-28T16:39:39.999Z</time></trkpt><trkpt lat="45.57009470194701" lon="8.719398719795077"><ele>189.66666666666669</ele><time>2026-03-28T16:39:40.999Z</time></trkpt><trkpt lat="45.569908678857274" lon="8.719421321096641"><ele>189.33333333333334</ele><time>2026-03-28T16:39:41.999Z</time></trkpt><trkpt lat="45.56972291374039" lon="8.719441827824603"><ele>189.0</ele><time>2026-03-28T16:39:42.999Z</time></trkpt><trkpt lat="45.569556800659726" lon="8.719455669269484"><ele>188.66666666666666</ele><time>2026-03-28T16:39:43.999Z</time></trkpt><trkpt lat="45.569390172272556" lon="8.719478941893803"><ele>188.33333333333331</ele><time>2026-03-28T16:39:44.999Z</time></trkpt><trkpt lat="45.569208255996855" lon="8.719469722128824"><ele>188.0</ele><time>2026-03-28T16:39:45.999Z</time></trkpt><trkpt lat="45.569014845069766" lon="8.719463514693999"><ele>188.0</ele><time>2026-03-28T16:39:46.999Z</time></trkpt><trkpt lat="45.568835678549746" lon="8.71944802949019"><ele>188.0</ele><time>2026-03-28T16:39:47.999Z</time></trkpt><trkpt lat="45.56863965027267" lon="8.719429057342131"><ele>188.0</ele><time>2026-03-28T16:39:48.999Z</time></trkpt><trkpt lat="45.56845061198869" lon="8.719408295462689"><ele>187.66666666666666</ele><time>2026-03-28T16:39:49.999Z</time></trkpt><trkpt lat="45.568282350196164" lon="8.719406435162844"><ele>187.33333333333334</ele><time>2026-03-28T16:39:50.999Z</time></trkpt><trkpt lat="45.568123151476335" lon="8.719373969702783"><ele>187.0</ele><time>2026-03-28T16:39:51.999Z</time></trkpt><trkpt lat="45.567971483678605" lon="8.719339626760126"><ele>186.25</ele><time>2026-03-28T16:39:52.999Z</time></trkpt><trkpt lat="45.567827236522845" lon="8.719319932458545"><ele>185.5</ele><time>2026-03-28T16:39:53.999Z</time></trkpt><trkpt lat="45.567690098668834" lon="8.719307430542523"><ele>184.75</ele><time>2026-03-28T16:39:54.999Z</time></trkpt><trkpt lat="45.56755810801113" lon="8.7193118302177"><ele>184.0</ele><time>2026-03-28T16:39:55.999Z</time></trkpt><trkpt lat="45.56742573610756" lon="8.71932247058892"><ele>184.0</ele><time>2026-03-28T16:39:56.999Z</time></trkpt><trkpt lat="45.56728160869886" lon="8.719355948490831"><ele>184.0</ele><time>2026-03-28T16:39:57.999Z</time></trkpt><trkpt lat="45.56717451063454" lon="8.719384635907856"><ele>184.0</ele><time>2026-03-28T16:39:58.999Z</time></trkpt><trkpt lat="45.56705461890482" lon="8.719417986246018"><ele>184.0</ele><time>2026-03-28T16:39:59.999Z</time></trkpt><trkpt lat="45.56695439683197" lon="8.719456562353889"><ele>184.0</ele><time>2026-03-28T16:40:00.999Z</time></trkpt><trkpt lat="45.56689010015686" lon="8.71944073123509"><ele>184.0</ele><time>2026-03-28T16:40:01.999Z</time></trkpt><trkpt lat="45.566836808773616" lon="8.719372366605777"><ele>184.0</ele><time>2026-03-28T16:40:03.999Z</time></trkpt><trkpt lat="45.56683356202188" lon="8.719229560078908"><ele>184.0</ele><time>2026-03-28T16:40:05.999Z</time></trkpt><trkpt lat="45.566802483956934" lon="8.719068206436656"><ele>184.0</ele><time>2026-03-28T16:40:08Z</time></trkpt><trkpt lat="45.56671120954455" lon="8.718948057769603"><ele>183.6</ele><time>2026-03-28T16:40:10Z</time></trkpt><trkpt lat="45.56662868580623" lon="8.718936639206927"><ele>183.2</ele><time>2026-03-28T16:40:11Z</time></trkpt><trkpt lat="45.56654679521805" lon="8.718967963251307"><ele>182.79999999999998</ele><time>2026-03-28T16:40:12Z</time></trkpt><trkpt lat="45.56646396873607" lon="8.719008198317544"><ele>182.39999999999998</ele><time>2026-03-28T16:40:13Z</time></trkpt><trkpt lat="45.56636503489309" lon="8.719050634930138"><ele>182.0</ele><time>2026-03-28T16:40:14Z</time></trkpt><trkpt lat="45.56626220073356" lon="8.719079110429222"><ele>183.25</ele><time>2026-03-28T16:40:15Z</time></trkpt><trkpt lat="45.56615545210072" lon="8.719118692322112"><ele>184.5</ele><time>2026-03-28T16:40:16Z</time></trkpt><trkpt lat="45.5660395238656" lon="8.71915957975098"><ele>185.75</ele><time>2026-03-28T16:40:17Z</time></trkpt><trkpt lat="45.56591694947167" lon="8.719203534158861"><ele>187.0</ele><time>2026-03-28T16:40:18Z</time></trkpt><trkpt lat="45.56577803404825" lon="8.719258603793776"><ele>187.0</ele><time>2026-03-28T16:40:19Z</time></trkpt><trkpt lat="45.56562870353394" lon="8.719283698117293"><ele>187.0</ele><time>2026-03-28T16:40:20Z</time></trkpt><trkpt lat="45.56548415137492" lon="8.719293625472154"><ele>187.0</ele><time>2026-03-28T16:40:21Z</time></trkpt><trkpt lat="45.565336399190365" lon="8.719302661607012"><ele>187.0</ele><time>2026-03-28T16:40:22Z</time></trkpt><trkpt lat="45.56518358248687" lon="8.719307671777004"><ele>185.33333333333334</ele><time>2026-03-28T16:40:23Z</time></trkpt><trkpt lat="45.56502006825624" lon="8.719308404039873"><ele>183.66666666666666</ele><time>2026-03-28T16:40:24Z</time></trkpt><trkpt lat="45.5648536967095" lon="8.719289234257332"><ele>182.0</ele><time>2026-03-28T16:40:25Z</time></trkpt><trkpt lat="45.564699191564" lon="8.71929010883764"><ele>181.33333333333331</ele><time>2026-03-28T16:40:26Z</time></trkpt><trkpt lat="45.56452568117267" lon="8.719273852478242"><ele>180.66666666666666</ele><time>2026-03-28T16:40:27Z</time></trkpt><trkpt lat="45.56436645327217" lon="8.719301855829906"><ele>180.0</ele><time>2026-03-28T16:40:28Z</time></trkpt><trkpt lat="45.56419192054582" lon="8.71928710334273"><ele>180.0</ele><time>2026-03-28T16:40:29Z</time></trkpt><trkpt lat="45.56402362457503" lon="8.719290377064507"><ele>180.0</ele><time>2026-03-28T16:40:30Z</time></trkpt><trkpt lat="45.56384543617616" lon="8.719299300545243"><ele>180.0</ele><time>2026-03-28T16:40:31Z</time></trkpt><trkpt lat="45.56368012725137" lon="8.719314876750786"><ele>179.0</ele><time>2026-03-28T16:40:32Z</time></trkpt><trkpt lat="45.56349250748943" lon="8.719317737587204"><ele>178.0</ele><time>2026-03-28T16:40:33Z</time></trkpt><trkpt lat="45.56329551438086" lon="8.719308872400175"><ele>177.0</ele><time>2026-03-28T16:40:34Z</time></trkpt><trkpt lat="45.56310495943077" lon="8.719324338890358"><ele>177.0</ele><time>2026-03-28T16:40:35Z</time></trkpt><trkpt lat="45.56291453898571" lon="8.719314917230825"><ele>177.0</ele><time>2026-03-28T16:40:36Z</time></trkpt><trkpt lat="45.562703241392846" lon="8.719364276493211"><ele>177.0</ele><time>2026-03-28T16:40:37Z</time></trkpt><trkpt lat="45.562533174712605" lon="8.719368792817493"><ele>176.33333333333334</ele><time>2026-03-28T16:40:38Z</time></trkpt><trkpt lat="45.56234356092522" lon="8.719389832003188"><ele>175.66666666666669</ele><time>2026-03-28T16:40:39Z</time></trkpt><trkpt lat="45.562162072163986" lon="8.719394931506299"><ele>175.0</ele><time>2026-03-28T16:40:40Z</time></trkpt><trkpt lat="45.56202043892879" lon="8.719371094647036"><ele>177.0</ele><time>2026-03-28T16:40:41Z</time></trkpt><trkpt lat="45.561835334084066" lon="8.719387531117585"><ele>179.0</ele><time>2026-03-28T16:40:42Z</time></trkpt><trkpt lat="45.56166850316775" lon="8.71938580445727"><ele>181.0</ele><time>2026-03-28T16:40:43Z</time></trkpt><trkpt lat="45.561470049156526" lon="8.719390671718463"><ele>181.0</ele><time>2026-03-28T16:40:44Z</time></trkpt><trkpt lat="45.56129442507729" lon="8.719359175066707"><ele>181.0</ele><time>2026-03-28T16:40:45Z</time></trkpt><trkpt lat="45.56111791011725" lon="8.719385444262485"><ele>181.0</ele><time>2026-03-28T16:40:46Z</time></trkpt><trkpt lat="45.56094804867447" lon="8.719389050288326"><ele>180.33333333333334</ele><time>2026-03-28T16:40:47Z</time></trkpt><trkpt lat="45.56077888060599" lon="8.719391294631434"><ele>179.66666666666666</ele><time>2026-03-28T16:40:48Z</time></trkpt><trkpt lat="45.56059277818267" lon="8.71937826784953"><ele>179.0</ele><time>2026-03-28T16:40:49Z</time></trkpt><trkpt lat="45.56043109297806" lon="8.71939594770577"><ele>180.33333333333331</ele><time>2026-03-28T16:40:50Z</time></trkpt><trkpt lat="45.56026416062763" lon="8.719406847011294"><ele>181.66666666666666</ele><time>2026-03-28T16:40:51Z</time></trkpt><trkpt lat="45.560104861987384" lon="8.719411307597017"><ele>183.0</ele><time>2026-03-28T16:40:52Z</time></trkpt><trkpt lat="45.55992120101266" lon="8.719436955870457"><ele>183.0</ele><time>2026-03-28T16:40:53Z</time></trkpt><trkpt lat="45.55975146954299" lon="8.719474347440588"><ele>183.0</ele><time>2026-03-28T16:40:54Z</time></trkpt><trkpt lat="45.5595634477485" lon="8.719541371155202"><ele>183.0</ele><time>2026-03-28T16:40:55Z</time></trkpt><trkpt lat="45.55938426039538" lon="8.719625348449226"><ele>182.33333333333334</ele><time>2026-03-28T16:40:56Z</time></trkpt><trkpt lat="45.55920543106364" lon="8.719731110602085"><ele>181.66666666666669</ele><time>2026-03-28T16:40:57Z</time></trkpt><trkpt lat="45.559044750062675" lon="8.71983935586013"><ele>181.0</ele><time>2026-03-28T16:40:58Z</time></trkpt><trkpt lat="45.558891438648466" lon="8.719944854675918"><ele>181.0</ele><time>2026-03-28T16:40:59Z</time></trkpt><trkpt lat="45.55873073041765" lon="8.720057228837897"><ele>181.0</ele><time>2026-03-28T16:41:00Z</time></trkpt><trkpt lat="45.558568493699" lon="8.720194293009728"><ele>181.0</ele><time>2026-03-28T16:41:01Z</time></trkpt><trkpt lat="45.558403765482836" lon="8.72032357668226"><ele>181.0</ele><time>2026-03-28T16:41:02Z</time></trkpt><trkpt lat="45.55825393872826" lon="8.720451952746716"><ele>181.0</ele><time>2026-03-28T16:41:03Z</time></trkpt><trkpt lat="45.55810400120483" lon="8.720577345556983"><ele>181.0</ele><time>2026-03-28T16:41:04Z</time></trkpt><trkpt lat="45.55794688999741" lon="8.720704537055159"><ele>179.66666666666669</ele><time>2026-03-28T16:41:05Z</time></trkpt><trkpt lat="45.557795265523275" lon="8.720819922658633"><ele>178.33333333333334</ele><time>2026-03-28T16:41:06Z</time></trkpt><trkpt lat="45.557658618627634" lon="8.720939281706983"><ele>177.0</ele><time>2026-03-28T16:41:07Z</time></trkpt><trkpt lat="45.55752676541912" lon="8.721057685820426"><ele>178.0</ele><time>2026-03-28T16:41:08Z</time></trkpt><trkpt lat="45.55740024020943" lon="8.721164130016218"><ele>179.0</ele><time>2026-03-28T16:41:09Z</time></trkpt><trkpt lat="45.55728187816052" lon="8.721252164640765"><ele>180.0</ele><time>2026-03-28T16:41:10Z</time></trkpt><trkpt lat="45.557169364337454" lon="8.721338926017124"><ele>181.0</ele><time>2026-03-28T16:41:11Z</time></trkpt><trkpt lat="45.557054782072925" lon="8.721447010631875"><ele>180.75</ele><time>2026-03-28T16:41:12Z</time></trkpt><trkpt lat="45.55694010159731" lon="8.721550325439644"><ele>180.5</ele><time>2026-03-28T16:41:12.999Z</time></trkpt><trkpt lat="45.556823566531484" lon="8.721639424163206"><ele>180.25</ele><time>2026-03-28T16:41:13.999Z</time></trkpt><trkpt lat="45.55670619258268" lon="8.721736626213723"><ele>180.0</ele><time>2026-03-28T16:41:14.999Z</time></trkpt><trkpt lat="45.55659452868605" lon="8.721827231708897"><ele>179.75</ele><time>2026-03-28T16:41:15.999Z</time></trkpt><trkpt lat="45.55648565169802" lon="8.721909637668132"><ele>179.5</ele><time>2026-03-28T16:41:16.999Z</time></trkpt><trkpt lat="45.55638115191673" lon="8.72199649861247"><ele>179.25</ele><time>2026-03-28T16:41:17.999Z</time></trkpt><trkpt lat="45.556269499578036" lon="8.722079276700994"><ele>179.0</ele><time>2026-03-28T16:41:18.999Z</time></trkpt><trkpt lat="45.556157044982605" lon="8.722166337725827"><ele>178.25</ele><time>2026-03-28T16:41:19.999Z</time></trkpt><trkpt lat="45.556051118361836" lon="8.722243256796242"><ele>177.5</ele><time>2026-03-28T16:41:20.999Z</time></trkpt><trkpt lat="45.555944638249976" lon="8.722346663123082"><ele>176.75</ele><time>2026-03-28T16:41:21.999Z</time></trkpt><trkpt lat="45.55583418548199" lon="8.722433743409788"><ele>176.0</ele><time>2026-03-28T16:41:22.999Z</time></trkpt><trkpt lat="45.55572348702183" lon="8.722522884599487"><ele>176.0</ele><time>2026-03-28T16:41:23.999Z</time></trkpt><trkpt lat="45.55561232274099" lon="8.722601197002641"><ele>176.0</ele><time>2026-03-28T16:41:24.999Z</time></trkpt><trkpt lat="45.555513945753404" lon="8.72268373676545"><ele>176.0</ele><time>2026-03-28T16:41:25.999Z</time></trkpt><trkpt lat="45.555392748497674" lon="8.722734309696891"><ele>176.0</ele><time>2026-03-28T16:41:26.999Z</time></trkpt><trkpt lat="45.55528829213057" lon="8.722842581783553"><ele>176.5</ele><time>2026-03-28T16:41:27.999Z</time></trkpt><trkpt lat="45.55517122263198" lon="8.722959873435096"><ele>177.0</ele><time>2026-03-28T16:41:28.999Z</time></trkpt><trkpt lat="45.55507119947798" lon="8.723041588851412"><ele>177.5</ele><time>2026-03-28T16:41:29.999Z</time></trkpt><trkpt lat="45.55498323746593" lon="8.723112072760665"><ele>178.0</ele><time>2026-03-28T16:41:30.999Z</time></trkpt><trkpt lat="45.554896671383496" lon="8.723174296281838"><ele>178.0</ele><time>2026-03-28T16:41:31.999Z</time></trkpt><trkpt lat="45.55482590027581" lon="8.723237610078527"><ele>178.0</ele><time>2026-03-28T16:41:32.999Z</time></trkpt><trkpt lat="45.55476985460848" lon="8.723287428730693"><ele>178.0</ele><time>2026-03-28T16:41:33.999Z</time></trkpt><trkpt lat="45.55471306657468" lon="8.723335297699284"><ele>178.0</ele><time>2026-03-28T16:41:34.999Z</time></trkpt><trkpt lat="45.554612202914356" lon="8.723398607224775"><ele>178.0</ele><time>2026-03-28T16:41:36.999Z</time></trkpt><trkpt lat="45.554546525655724" lon="8.723437576478384"><ele>178.0</ele><time>2026-03-28T16:41:37.999Z</time></trkpt><trkpt lat="45.55447705482471" lon="8.723475099309109"><ele>178.0</ele><time>2026-03-28T16:41:38.999Z</time></trkpt><trkpt lat="45.554407991440335" lon="8.723504994611956"><ele>178.0</ele><time>2026-03-28T16:41:39.999Z</time></trkpt><trkpt lat="45.554329428492615" lon="8.723542071922754"><ele>178.0</ele><time>2026-03-28T16:41:40.999Z</time></trkpt><trkpt lat="45.55424628555399" lon="8.723589658623613"><ele>178.0</ele><time>2026-03-28T16:41:41.999Z</time></trkpt><trkpt lat="45.55415023894009" lon="8.723611533597108"><ele>178.0</ele><time>2026-03-28T16:41:42.999Z</time></trkpt><trkpt lat="45.55405167284815" lon="8.723647580588306"><ele>178.0</ele><time>2026-03-28T16:41:43.999Z</time></trkpt><trkpt lat="45.553962379675355" lon="8.723680229024996"><ele>178.2</ele><time>2026-03-28T16:41:44.999Z</time></trkpt><trkpt lat="45.553871698223624" lon="8.723716754440424"><ele>178.4</ele><time>2026-03-28T16:41:45.999Z</time></trkpt><trkpt lat="45.55377084631945" lon="8.72375128325746"><ele>178.6</ele><time>2026-03-28T16:41:46.999Z</time></trkpt><trkpt lat="45.55368193572035" lon="8.723754850254023"><ele>178.79999999999998</ele><time>2026-03-28T16:41:47.999Z</time></trkpt><trkpt lat="45.55359206794204" lon="8.723785869750474"><ele>179.0</ele><time>2026-03-28T16:41:48.999Z</time></trkpt><trkpt lat="45.553510129870986" lon="8.723824707670387"><ele>179.0</ele><time>2026-03-28T16:41:49.999Z</time></trkpt><trkpt lat="45.55342985789942" lon="8.723858966113578"><ele>179.0</ele><time>2026-03-28T16:41:50.999Z</time></trkpt><trkpt lat="45.55334847816366" lon="8.723896529799585"><ele>179.0</ele><time>2026-03-28T16:41:51.999Z</time></trkpt><trkpt lat="45.553258534567746" lon="8.72393375672821"><ele>179.0</ele><time>2026-03-28T16:41:52.999Z</time></trkpt><trkpt lat="45.55317175174112" lon="8.723965233645092"><ele>179.0</ele><time>2026-03-28T16:41:53.999Z</time></trkpt><trkpt lat="45.553076401112214" lon="8.723979362579598"><ele>179.0</ele><time>2026-03-28T16:41:54.999Z</time></trkpt><trkpt lat="45.55299270681747" lon="8.724012288457184"><ele>179.0</ele><time>2026-03-28T16:41:55.999Z</time></trkpt><trkpt lat="45.55291470395363" lon="8.724044161534653"><ele>179.0</ele><time>2026-03-28T16:41:56.999Z</time></trkpt><trkpt lat="45.55283049294799" lon="8.72406766741836"><ele>179.0</ele><time>2026-03-28T16:41:57.999Z</time></trkpt><trkpt lat="45.552756010378054" lon="8.724091088323483"><ele>179.0</ele><time>2026-03-28T16:41:58.999Z</time></trkpt><trkpt lat="45.55266274462044" lon="8.724119771703819"><ele>179.0</ele><time>2026-03-28T16:41:59.999Z</time></trkpt><trkpt lat="45.552588715295" lon="8.724142423202904"><ele>179.0</ele><time>2026-03-28T16:42:00.999Z</time></trkpt><trkpt lat="45.55251745705181" lon="8.724163612376785"><ele>179.16666666666666</ele><time>2026-03-28T16:42:01.999Z</time></trkpt><trkpt lat="45.552450919773506" lon="8.724184683987842"><ele>179.33333333333331</ele><time>2026-03-28T16:42:02.999Z</time></trkpt><trkpt lat="45.5523852129661" lon="8.724205491554406"><ele>179.5</ele><time>2026-03-28T16:42:03.999Z</time></trkpt><trkpt lat="45.55231634378298" lon="8.724227304314933"><ele>179.66666666666666</ele><time>2026-03-28T16:42:04.999Z</time></trkpt><trkpt lat="45.55224673570292" lon="8.72429567673491"><ele>179.83333333333334</ele><time>2026-03-28T16:42:07.999Z</time></trkpt><trkpt lat="45.55219682817797" lon="8.724358624189982"><ele>180.0</ele><time>2026-03-28T16:42:09.999Z</time></trkpt><trkpt lat="45.552202545669545" lon="8.724524954048277"><ele>180.0</ele><time>2026-03-28T16:42:11.999Z</time></trkpt><trkpt lat="45.55222634682489" lon="8.72466351572178"><ele>180.0</ele><time>2026-03-28T16:42:15Z</time></trkpt><trkpt lat="45.552235165998745" lon="8.724793032335592"><ele>180.0</ele><time>2026-03-28T16:42:17Z</time></trkpt><trkpt lat="45.55227877296153" lon="8.724938550506812"><ele>180.0</ele><time>2026-03-28T16:42:19Z</time></trkpt><trkpt lat="45.55230422029745" lon="8.725060663994222"><ele>180.0</ele><time>2026-03-28T16:42:21Z</time></trkpt><trkpt lat="45.55232989784602" lon="8.725162044074759"><ele>179.83333333333334</ele><time>2026-03-28T16:42:23Z</time></trkpt><trkpt lat="45.55234876836074" lon="8.72527190992656"><ele>179.66666666666666</ele><time>2026-03-28T16:42:25Z</time></trkpt><trkpt lat="45.55235036799595" lon="8.725396613664413"><ele>179.5</ele><time>2026-03-28T16:42:28Z</time></trkpt><trkpt lat="45.55236895522781" lon="8.725525942472123"><ele>179.33333333333331</ele><time>2026-03-28T16:42:31Z</time></trkpt><trkpt lat="45.552385444363054" lon="8.725645704173582"><ele>179.16666666666666</ele><time>2026-03-28T16:42:33Z</time></trkpt><trkpt lat="45.55240466069192" lon="8.725784495855942"><ele>179.0</ele><time>2026-03-28T16:42:35Z</time></trkpt><trkpt lat="45.55241836393715" lon="8.725881233273352"><ele>179.0</ele><time>2026-03-28T16:42:36Z</time></trkpt><trkpt lat="45.552434215989045" lon="8.725992470785616"><ele>179.0</ele><time>2026-03-28T16:42:37Z</time></trkpt><trkpt lat="45.552469160484314" lon="8.726117586445366"><ele>179.0</ele><time>2026-03-28T16:42:38Z</time></trkpt><trkpt lat="45.5524682762968" lon="8.726237263707961"><ele>179.0</ele><time>2026-03-28T16:42:39Z</time></trkpt><trkpt lat="45.55247838490271" lon="8.726345868838361"><ele>179.0</ele><time>2026-03-28T16:42:40Z</time></trkpt><trkpt lat="45.55246938080779" lon="8.726443794790978"><ele>179.0</ele><time>2026-03-28T16:42:41Z</time></trkpt><trkpt lat="45.5524394555018" lon="8.726530470401988"><ele>178.39999999999998</ele><time>2026-03-28T16:42:42Z</time></trkpt><trkpt lat="45.55234843969692" lon="8.726457956418587"><ele>177.8</ele><time>2026-03-28T16:42:44Z</time></trkpt><trkpt lat="45.55226507231124" lon="8.726426063960526"><ele>177.2</ele><time>2026-03-28T16:42:45Z</time></trkpt><trkpt lat="45.552199555412344" lon="8.726306080310668"><ele>176.60000000000002</ele><time>2026-03-28T16:42:46Z</time></trkpt><trkpt lat="45.55208451620189" lon="8.72620689536261"><ele>176.0</ele><time>2026-03-28T16:42:47Z</time></trkpt><trkpt lat="45.55203755684827" lon="8.726019538626783"><ele>175.0</ele><time>2026-03-28T16:42:48Z</time></trkpt><trkpt lat="45.55194495616869" lon="8.725942677878352"><ele>174.0</ele><time>2026-03-28T16:42:49Z</time></trkpt><trkpt lat="45.551881466415274" lon="8.725836351198712"><ele>173.0</ele><time>2026-03-28T16:42:50Z</time></trkpt><trkpt lat="45.551794117816" lon="8.725788630444493"><ele>172.0</ele><time>2026-03-28T16:42:51Z</time></trkpt><trkpt lat="45.551706990106354" lon="8.725786677306616"><ele>171.0</ele><time>2026-03-28T16:42:52Z</time></trkpt><trkpt lat="45.5516241051932" lon="8.725827134445758"><ele>171.0</ele><time>2026-03-28T16:42:53Z</time></trkpt><trkpt lat="45.55153619666473" lon="8.725875405513204"><ele>171.0</ele><time>2026-03-28T16:42:54Z</time></trkpt><trkpt lat="45.55143879739546" lon="8.725932266835075"><ele>171.0</ele><time>2026-03-28T16:42:55Z</time></trkpt><trkpt lat="45.55135239601859" lon="8.726009711169821"><ele>171.0</ele><time>2026-03-28T16:42:56Z</time></trkpt><trkpt lat="45.55125083051474" lon="8.726060371983552"><ele>171.0</ele><time>2026-03-28T16:42:57Z</time></trkpt><trkpt lat="45.551154050117376" lon="8.726115135677965"><ele>169.5</ele><time>2026-03-28T16:42:58Z</time></trkpt><trkpt lat="45.551026082727525" lon="8.726128853993982"><ele>168.0</ele><time>2026-03-28T16:42:59Z</time></trkpt><trkpt lat="45.55091447412762" lon="8.726148772425844"><ele>166.5</ele><time>2026-03-28T16:43:00Z</time></trkpt><trkpt lat="45.550789983524325" lon="8.72618963356886"><ele>165.0</ele><time>2026-03-28T16:43:01Z</time></trkpt><trkpt lat="45.550669943960585" lon="8.726203268150917"><ele>165.0</ele><time>2026-03-28T16:43:02Z</time></trkpt><trkpt lat="45.5505456863187" lon="8.726222804404825"><ele>165.0</ele><time>2026-03-28T16:43:03Z</time></trkpt><trkpt lat="45.550436654197135" lon="8.72623993897363"><ele>165.0</ele><time>2026-03-28T16:43:04Z</time></trkpt><trkpt lat="45.55033513077088" lon="8.726254946902117"><ele>165.0</ele><time>2026-03-28T16:43:05Z</time></trkpt><trkpt lat="45.550238217804036" lon="8.726266323754434"><ele>165.0</ele><time>2026-03-28T16:43:06Z</time></trkpt><trkpt lat="45.5501577835267" lon="8.726283113839546"><ele>165.0</ele><time>2026-03-28T16:43:07Z</time></trkpt><trkpt lat="45.550067356329045" lon="8.72628330482548"><ele>165.0</ele><time>2026-03-28T16:43:08Z</time></trkpt><trkpt lat="45.54996759274561" lon="8.726291266361667"><ele>165.0</ele><time>2026-03-28T16:43:09Z</time></trkpt><trkpt lat="45.54987611352681" lon="8.726250986522851"><ele>165.0</ele><time>2026-03-28T16:43:10Z</time></trkpt><trkpt lat="45.549778642316404" lon="8.726222079184472"><ele>165.0</ele><time>2026-03-28T16:43:11Z</time></trkpt><trkpt lat="45.549678369452565" lon="8.72618834093773"><ele>165.0</ele><time>2026-03-28T16:43:12Z</time></trkpt><trkpt lat="45.54957694450641" lon="8.726140179858307"><ele>165.0</ele><time>2026-03-28T16:43:13Z</time></trkpt><trkpt lat="45.549471300243255" lon="8.726105967013469"><ele>165.0</ele><time>2026-03-28T16:43:14Z</time></trkpt><trkpt lat="45.54936904346915" lon="8.726071336416556"><ele>165.0</ele><time>2026-03-28T16:43:15Z</time></trkpt><trkpt lat="45.549283274209884" lon="8.726034392876674"><ele>165.0</ele><time>2026-03-28T16:43:16Z</time></trkpt><trkpt lat="45.54919593138064" lon="8.725985035722827"><ele>164.5</ele><time>2026-03-28T16:43:16.999Z</time></trkpt><trkpt lat="45.5491181765311" lon="8.725937450645485"><ele>164.0</ele><time>2026-03-28T16:43:17.999Z</time></trkpt><trkpt lat="45.54904394314628" lon="8.72590028645361"><ele>163.5</ele><time>2026-03-28T16:43:18.999Z</time></trkpt><trkpt lat="45.54896030752407" lon="8.72588114749922"><ele>163.0</ele><time>2026-03-28T16:43:19.999Z</time></trkpt><trkpt lat="45.54886124573138" lon="8.72583709306228"><ele>162.5</ele><time>2026-03-28T16:43:21.999Z</time></trkpt><trkpt lat="45.54879422432902" lon="8.725788071451035"><ele>162.0</ele><time>2026-03-28T16:43:23.999Z</time></trkpt><trkpt lat="45.54873487948155" lon="8.725754865684536"><ele>161.83333333333334</ele><time>2026-03-28T16:43:25.999Z</time></trkpt><trkpt lat="45.548658538331374" lon="8.725731173898142"><ele>161.66666666666666</ele><time>2026-03-28T16:43:27.999Z</time></trkpt><trkpt lat="45.54855468619968" lon="8.725692819157423"><ele>161.5</ele><time>2026-03-28T16:43:29.999Z</time></trkpt><trkpt lat="45.548492438288605" lon="8.725670122549074"><ele>161.33333333333331</ele><time>2026-03-28T16:43:30.999Z</time></trkpt><trkpt lat="45.54842228748159" lon="8.725638157163845"><ele>161.16666666666666</ele><time>2026-03-28T16:43:31.999Z</time></trkpt><trkpt lat="45.54834897988682" lon="8.725614041563626"><ele>161.0</ele><time>2026-03-28T16:43:32.999Z</time></trkpt><trkpt lat="45.54825227072288" lon="8.7255956415325"><ele>161.0</ele><time>2026-03-28T16:43:33.999Z</time></trkpt><trkpt lat="45.54817261285726" lon="8.725558157706573"><ele>161.0</ele><time>2026-03-28T16:43:34.999Z</time></trkpt><trkpt lat="45.548086165908835" lon="8.725500767889084"><ele>161.0</ele><time>2026-03-28T16:43:35.999Z</time></trkpt><trkpt lat="45.54798952532097" lon="8.725448617766798"><ele>161.0</ele><time>2026-03-28T16:43:36.999Z</time></trkpt><trkpt lat="45.54788951895783" lon="8.725394504259958"><ele>161.0</ele><time>2026-03-28T16:43:37.999Z</time></trkpt><trkpt lat="45.5477789408818" lon="8.725337716146914"><ele>160.5</ele><time>2026-03-28T16:43:38.999Z</time></trkpt><trkpt lat="45.54766776741454" lon="8.72528685911472"><ele>160.0</ele><time>2026-03-28T16:43:39.999Z</time></trkpt><trkpt lat="45.547551303808916" lon="8.725239637740007"><ele>159.5</ele><time>2026-03-28T16:43:40.999Z</time></trkpt><trkpt lat="45.54744137272033" lon="8.725183330527047"><ele>159.0</ele><time>2026-03-28T16:43:41.999Z</time></trkpt><trkpt lat="45.547313924749496" lon="8.725137032588604"><ele>158.0</ele><time>2026-03-28T16:43:42.999Z</time></trkpt><trkpt lat="45.54719628368087" lon="8.725058958759579"><ele>157.0</ele><time>2026-03-28T16:43:43.999Z</time></trkpt><trkpt lat="45.5470803378813" lon="8.725000831738196"><ele>156.0</ele><time>2026-03-28T16:43:44.999Z</time></trkpt><trkpt lat="45.546968019569675" lon="8.724941231612101"><ele>155.0</ele><time>2026-03-28T16:43:45.999Z</time></trkpt><trkpt lat="45.54685467463412" lon="8.724881983300685"><ele>154.6</ele><time>2026-03-28T16:43:46.999Z</time></trkpt><trkpt lat="45.54675156443498" lon="8.724818622958741"><ele>154.2</ele><time>2026-03-28T16:43:47.999Z</time></trkpt><trkpt lat="45.54665222170344" lon="8.724758916527144"><ele>153.8</ele><time>2026-03-28T16:43:48.999Z</time></trkpt><trkpt lat="45.54656016089361" lon="8.724705418264262"><ele>153.4</ele><time>2026-03-28T16:43:49.999Z</time></trkpt><trkpt lat="45.546473566612406" lon="8.724664422691093"><ele>153.0</ele><time>2026-03-28T16:43:50.999Z</time></trkpt><trkpt lat="45.5464166791208" lon="8.72458307380188"><ele>153.0</ele><time>2026-03-28T16:43:51.999Z</time></trkpt><trkpt lat="45.54633779122764" lon="8.724536510775552"><ele>153.0</ele><time>2026-03-28T16:43:52.999Z</time></trkpt><trkpt lat="45.54626488739313" lon="8.724498742352644"><ele>153.0</ele><time>2026-03-28T16:43:53.999Z</time></trkpt><trkpt lat="45.54619305537695" lon="8.7244709873909"><ele>153.0</ele><time>2026-03-28T16:43:54.999Z</time></trkpt><trkpt lat="45.54612787004333" lon="8.724446392259319"><ele>153.0</ele><time>2026-03-28T16:43:55.999Z</time></trkpt><trkpt lat="45.546063945406836" lon="8.724411476101073"><ele>153.0</ele><time>2026-03-28T16:43:56.999Z</time></trkpt><trkpt lat="45.54599678283467" lon="8.724373517791403"><ele>153.0</ele><time>2026-03-28T16:43:57.999Z</time></trkpt><trkpt lat="45.54593205853653" lon="8.724333296743316"><ele>152.4</ele><time>2026-03-28T16:43:58.999Z</time></trkpt><trkpt lat="45.54587011795436" lon="8.724301653644293"><ele>151.8</ele><time>2026-03-28T16:43:59.999Z</time></trkpt><trkpt lat="45.54576311589746" lon="8.72421556697149"><ele>151.2</ele><time>2026-03-28T16:44:01.999Z</time></trkpt><trkpt lat="45.54568310526122" lon="8.724081734058496"><ele>150.6</ele><time>2026-03-28T16:44:03.999Z</time></trkpt><trkpt lat="45.5456189923044" lon="8.724029188730313"><ele>150.0</ele><time>2026-03-28T16:44:04.999Z</time></trkpt><trkpt lat="45.5455556163697" lon="8.724006179881684"><ele>150.0</ele><time>2026-03-28T16:44:05.999Z</time></trkpt><trkpt lat="45.54548631188672" lon="8.724037041205866"><ele>150.0</ele><time>2026-03-28T16:44:06.999Z</time></trkpt><trkpt lat="45.54543695646097" lon="8.724108569396126"><ele>150.0</ele><time>2026-03-28T16:44:07.999Z</time></trkpt><trkpt lat="45.54535322833365" lon="8.724126735381695"><ele>150.0</ele><time>2026-03-28T16:44:08.999Z</time></trkpt><trkpt lat="45.54528077788074" lon="8.724153240073052"><ele>150.0</ele><time>2026-03-28T16:44:09.999Z</time></trkpt><trkpt lat="45.54520235434415" lon="8.724182710888524"><ele>150.0</ele><time>2026-03-28T16:44:10.999Z</time></trkpt><trkpt lat="45.54512163994322" lon="8.724221901431074"><ele>150.2</ele><time>2026-03-28T16:44:11.999Z</time></trkpt><trkpt lat="45.545037941254996" lon="8.724266611850602"><ele>150.4</ele><time>2026-03-28T16:44:12.999Z</time></trkpt><trkpt lat="45.544947580853425" lon="8.72430796340315"><ele>150.6</ele><time>2026-03-28T16:44:13.999Z</time></trkpt><trkpt lat="45.544858249394075" lon="8.724357042361166"><ele>150.8</ele><time>2026-03-28T16:44:14.999Z</time></trkpt><trkpt lat="45.54477019585986" lon="8.724411005369326"><ele>151.0</ele><time>2026-03-28T16:44:15.999Z</time></trkpt><trkpt lat="45.54469146528167" lon="8.724441427137052"><ele>151.0</ele><time>2026-03-28T16:44:16.999Z</time></trkpt><trkpt lat="45.54461289751041" lon="8.724484396170741"><ele>151.0</ele><time>2026-03-28T16:44:17.999Z</time></trkpt><trkpt lat="45.54452935237387" lon="8.724541884474228"><ele>151.0</ele><time>2026-03-28T16:44:18.999Z</time></trkpt><trkpt lat="45.54446300692449" lon="8.724621356623109"><ele>151.0</ele><time>2026-03-28T16:44:20Z</time></trkpt><trkpt lat="45.54438294334504" lon="8.724663427234157"><ele>151.0</ele><time>2026-03-28T16:44:21Z</time></trkpt><trkpt lat="45.54430007062173" lon="8.724718745486332"><ele>151.0</ele><time>2026-03-28T16:44:22Z</time></trkpt><trkpt lat="45.54424084773202" lon="8.724758668158161"><ele>151.0</ele><time>2026-03-28T16:44:23Z</time></trkpt><trkpt lat="45.54416676237475" lon="8.724808609883548"><ele>151.0</ele><time>2026-03-28T16:44:24Z</time></trkpt><trkpt lat="45.54407809327122" lon="8.724893835024039"><ele>151.0</ele><time>2026-03-28T16:44:25Z</time></trkpt><trkpt lat="45.54397113930098" lon="8.72493494347206"><ele>151.0</ele><time>2026-03-28T16:44:26Z</time></trkpt><trkpt lat="45.54388165466267" lon="8.724983852202723"><ele>151.0</ele><time>2026-03-28T16:44:27Z</time></trkpt><trkpt lat="45.54378411102766" lon="8.725039280056297"><ele>150.6</ele><time>2026-03-28T16:44:28Z</time></trkpt><trkpt lat="45.54370299576746" lon="8.72508304754748"><ele>150.2</ele><time>2026-03-28T16:44:29Z</time></trkpt><trkpt lat="45.54360844500013" lon="8.725133531161946"><ele>149.8</ele><time>2026-03-28T16:44:30Z</time></trkpt><trkpt lat="45.54351685932018" lon="8.725187416192512"><ele>149.4</ele><time>2026-03-28T16:44:31Z</time></trkpt><trkpt lat="45.54343583311911" lon="8.725229620986081"><ele>149.0</ele><time>2026-03-28T16:44:32Z</time></trkpt><trkpt lat="45.54334467380747" lon="8.725289049938281"><ele>149.8</ele><time>2026-03-28T16:44:33Z</time></trkpt><trkpt lat="45.54325160883531" lon="8.725352416074823"><ele>150.60000000000002</ele><time>2026-03-28T16:44:34Z</time></trkpt><trkpt lat="45.54316735641585" lon="8.72540984379587"><ele>151.4</ele><time>2026-03-28T16:44:35Z</time></trkpt><trkpt lat="45.54307927441483" lon="8.72546922705434"><ele>152.20000000000002</ele><time>2026-03-28T16:44:36Z</time></trkpt><trkpt lat="45.54298712046512" lon="8.725531389349504"><ele>153.0</ele><time>2026-03-28T16:44:37Z</time></trkpt><trkpt lat="45.54290866217922" lon="8.725581169346928"><ele>152.66666666666666</ele><time>2026-03-28T16:44:38Z</time></trkpt><trkpt lat="45.542833550207405" lon="8.725568409173041"><ele>152.33333333333334</ele><time>2026-03-28T16:44:39Z</time></trkpt><trkpt lat="45.54275047064888" lon="8.725606599287644"><ele>152.0</ele><time>2026-03-28T16:44:40Z</time></trkpt><trkpt lat="45.54267059777867" lon="8.725642985837098"><ele>151.66666666666669</ele><time>2026-03-28T16:44:41Z</time></trkpt><trkpt lat="45.542589015647124" lon="8.725681555869869"><ele>151.33333333333334</ele><time>2026-03-28T16:44:42Z</time></trkpt><trkpt lat="45.54252670622644" lon="8.725712151545794"><ele>151.0</ele><time>2026-03-28T16:44:43Z</time></trkpt><trkpt lat="45.54245397563533" lon="8.725745153623405"><ele>151.0</ele><time>2026-03-28T16:44:44Z</time></trkpt><trkpt lat="45.5423913148682" lon="8.725785676110663"><ele>151.0</ele><time>2026-03-28T16:44:45Z</time></trkpt><trkpt lat="45.54227212462978" lon="8.725849344707594"><ele>151.0</ele><time>2026-03-28T16:44:47Z</time></trkpt><trkpt lat="45.5421963692821" lon="8.725898143214216"><ele>151.0</ele><time>2026-03-28T16:44:49Z</time></trkpt><trkpt lat="45.54212552831963" lon="8.725925336298301"><ele>151.0</ele><time>2026-03-28T16:44:52Z</time></trkpt><trkpt lat="45.542062619714685" lon="8.725975494410156"><ele>151.0</ele><time>2026-03-28T16:44:54Z</time></trkpt><trkpt lat="45.54194704171732" lon="8.726030535957824"><ele>151.6</ele><time>2026-03-28T16:44:56Z</time></trkpt><trkpt lat="45.5418858974688" lon="8.726140337099942"><ele>152.2</ele><time>2026-03-28T16:44:57Z</time></trkpt><trkpt lat="45.541851925234006" lon="8.726236957664474"><ele>152.8</ele><time>2026-03-28T16:44:58Z</time></trkpt><trkpt lat="45.54181196378852" lon="8.726358578926604"><ele>153.4</ele><time>2026-03-28T16:44:59Z</time></trkpt><trkpt lat="45.54175731396744" lon="8.726509336717307"><ele>154.0</ele><time>2026-03-28T16:45:00Z</time></trkpt><trkpt lat="45.541722848255404" lon="8.726657117063008"><ele>154.0</ele><time>2026-03-28T16:45:01Z</time></trkpt><trkpt lat="45.54168059246281" lon="8.726804316961422"><ele>154.0</ele><time>2026-03-28T16:45:02Z</time></trkpt><trkpt lat="45.54164102096842" lon="8.726961202800236"><ele>154.0</ele><time>2026-03-28T16:45:03Z</time></trkpt><trkpt lat="45.54160147630322" lon="8.72713307637512"><ele>154.0</ele><time>2026-03-28T16:45:04Z</time></trkpt><trkpt lat="45.54155186332655" lon="8.72729776317483"><ele>153.5</ele><time>2026-03-28T16:45:05Z</time></trkpt><trkpt lat="45.5414788343918" lon="8.727441727395352"><ele>153.0</ele><time>2026-03-28T16:45:06Z</time></trkpt><trkpt lat="45.541405128295516" lon="8.72757845699486"><ele>152.5</ele><time>2026-03-28T16:45:07Z</time></trkpt><trkpt lat="45.54132773784702" lon="8.727711111941542"><ele>152.0</ele><time>2026-03-28T16:45:08Z</time></trkpt><trkpt lat="45.541226295436516" lon="8.727811531892879"><ele>152.4</ele><time>2026-03-28T16:45:09Z</time></trkpt><trkpt lat="45.54113526868487" lon="8.72787743405261"><ele>152.79999999999998</ele><time>2026-03-28T16:45:10Z</time></trkpt><trkpt lat="45.54102868950386" lon="8.727952751582102"><ele>153.2</ele><time>2026-03-28T16:45:11Z</time></trkpt><trkpt lat="45.54094869610239" lon="8.728035563812183"><ele>153.6</ele><time>2026-03-28T16:45:12Z</time></trkpt><trkpt lat="45.54084618816962" lon="8.728081468219834"><ele>154.0</ele><time>2026-03-28T16:45:13Z</time></trkpt><trkpt lat="45.54076388387998" lon="8.728135652456688"><ele>154.0</ele><time>2026-03-28T16:45:14Z</time></trkpt><trkpt lat="45.54065439576145" lon="8.728214428738362"><ele>154.0</ele><time>2026-03-28T16:45:15Z</time></trkpt><trkpt lat="45.54055506065437" lon="8.728280440870693"><ele>154.0</ele><time>2026-03-28T16:45:16Z</time></trkpt><trkpt lat="45.54044889813145" lon="8.728358306829827"><ele>154.0</ele><time>2026-03-28T16:45:17Z</time></trkpt><trkpt lat="45.54033663492634" lon="8.728435614040759"><ele>154.0</ele><time>2026-03-28T16:45:18Z</time></trkpt><trkpt lat="45.54023751211888" lon="8.72850485808166"><ele>154.0</ele><time>2026-03-28T16:45:19Z</time></trkpt><trkpt lat="45.54013108145821" lon="8.728613130026947"><ele>154.0</ele><time>2026-03-28T16:45:20Z</time></trkpt><trkpt lat="45.54003217062444" lon="8.72869705961219"><ele>154.0</ele><time>2026-03-28T16:45:20.999Z</time></trkpt><trkpt lat="45.53992275260634" lon="8.728737550274344"><ele>154.0</ele><time>2026-03-28T16:45:21.999Z</time></trkpt><trkpt lat="45.53979899686168" lon="8.728823208361904"><ele>154.0</ele><time>2026-03-28T16:45:22.999Z</time></trkpt><trkpt lat="45.539671476136746" lon="8.728919025877383"><ele>154.0</ele><time>2026-03-28T16:45:23.999Z</time></trkpt><trkpt lat="45.53955467517144" lon="8.729026431878522"><ele>154.0</ele><time>2026-03-28T16:45:24.999Z</time></trkpt><trkpt lat="45.53945840372346" lon="8.729147948716724"><ele>153.75</ele><time>2026-03-28T16:45:25.999Z</time></trkpt><trkpt lat="45.539353946627564" lon="8.729283841418624"><ele>153.5</ele><time>2026-03-28T16:45:26.999Z</time></trkpt><trkpt lat="45.53925111244079" lon="8.72943569488009"><ele>153.25</ele><time>2026-03-28T16:45:27.999Z</time></trkpt><trkpt lat="45.53914771414676" lon="8.729580735942383"><ele>153.0</ele><time>2026-03-28T16:45:28.999Z</time></trkpt><trkpt lat="45.53904545490203" lon="8.729719555980912"><ele>153.0</ele><time>2026-03-28T16:45:29.999Z</time></trkpt><trkpt lat="45.538945553247416" lon="8.729862157466128"><ele>153.0</ele><time>2026-03-28T16:45:30.999Z</time></trkpt><trkpt lat="45.53884340486556" lon="8.730006456677845"><ele>153.0</ele><time>2026-03-28T16:45:31.999Z</time></trkpt><trkpt lat="45.53874201598169" lon="8.730157510903613"><ele>153.0</ele><time>2026-03-28T16:45:32.999Z</time></trkpt><trkpt lat="45.53863210956516" lon="8.730306869328642"><ele>153.0</ele><time>2026-03-28T16:45:33.999Z</time></trkpt><trkpt lat="45.53853130507813" lon="8.730477097728924"><ele>153.0</ele><time>2026-03-28T16:45:34.999Z</time></trkpt><trkpt lat="45.53842375256471" lon="8.730625398477905"><ele>153.0</ele><time>2026-03-28T16:45:35.999Z</time></trkpt><trkpt lat="45.53832710937479" lon="8.730762968388332"><ele>153.0</ele><time>2026-03-28T16:45:36.999Z</time></trkpt><trkpt lat="45.538240409503196" lon="8.730890305987252"><ele>153.0</ele><time>2026-03-28T16:45:37.999Z</time></trkpt><trkpt lat="45.538153065356624" lon="8.731017706159475"><ele>153.0</ele><time>2026-03-28T16:45:38.999Z</time></trkpt><trkpt lat="45.538066029726906" lon="8.73114439466638"><ele>153.0</ele><time>2026-03-28T16:45:39.999Z</time></trkpt><trkpt lat="45.5379754466563" lon="8.731277330908961"><ele>153.0</ele><time>2026-03-28T16:45:40.999Z</time></trkpt><trkpt lat="45.53791177003171" lon="8.731405826077255"><ele>153.0</ele><time>2026-03-28T16:45:41.999Z</time></trkpt><trkpt lat="45.53785735444936" lon="8.731511083634878"><ele>153.0</ele><time>2026-03-28T16:45:42.999Z</time></trkpt><trkpt lat="45.53779383977332" lon="8.73163732052419"><ele>153.0</ele><time>2026-03-28T16:45:43.999Z</time></trkpt><trkpt lat="45.53772228808648" lon="8.73177418004443"><ele>153.0</ele><time>2026-03-28T16:45:44.999Z</time></trkpt><trkpt lat="45.53766510908167" lon="8.731927036729232"><ele>153.0</ele><time>2026-03-28T16:45:45.999Z</time></trkpt><trkpt lat="45.53759849881976" lon="8.73206837127186"><ele>152.5</ele><time>2026-03-28T16:45:46.999Z</time></trkpt><trkpt lat="45.53754363314083" lon="8.732211602782352"><ele>152.0</ele><time>2026-03-28T16:45:47.999Z</time></trkpt><trkpt lat="45.53748340631713" lon="8.732337591854483"><ele>151.5</ele><time>2026-03-28T16:45:48.999Z</time></trkpt><trkpt lat="45.53741508409697" lon="8.732466708648685"><ele>151.0</ele><time>2026-03-28T16:45:49.999Z</time></trkpt><trkpt lat="45.537354103337904" lon="8.732616517601961"><ele>151.0</ele><time>2026-03-28T16:45:50.999Z</time></trkpt><trkpt lat="45.53729362660932" lon="8.732762742918744"><ele>151.0</ele><time>2026-03-28T16:45:51.999Z</time></trkpt><trkpt lat="45.53723488909145" lon="8.732928704573299"><ele>151.0</ele><time>2026-03-28T16:45:52.999Z</time></trkpt><trkpt lat="45.537178711219994" lon="8.733062923742605"><ele>151.0</ele><time>2026-03-28T16:45:53.999Z</time></trkpt><trkpt lat="45.537118016598676" lon="8.733223051364773"><ele>151.0</ele><time>2026-03-28T16:45:54.999Z</time></trkpt><trkpt lat="45.5370570186502" lon="8.733354980235589"><ele>151.0</ele><time>2026-03-28T16:45:55.999Z</time></trkpt><trkpt lat="45.53700625306524" lon="8.73347982428412"><ele>151.0</ele><time>2026-03-28T16:45:56.999Z</time></trkpt><trkpt lat="45.53696397914092" lon="8.73361394919033"><ele>151.0</ele><time>2026-03-28T16:45:57.999Z</time></trkpt><trkpt lat="45.53692587045411" lon="8.733727707963839"><ele>151.0</ele><time>2026-03-28T16:45:58.999Z</time></trkpt><trkpt lat="45.53688593124588" lon="8.73385710833409"><ele>151.16666666666669</ele><time>2026-03-28T16:45:59.999Z</time></trkpt><trkpt lat="45.536848751034206" lon="8.733968166965937"><ele>151.33333333333334</ele><time>2026-03-28T16:46:00.999Z</time></trkpt><trkpt lat="45.53682423354317" lon="8.73406829219529"><ele>151.5</ele><time>2026-03-28T16:46:01.999Z</time></trkpt><trkpt lat="45.536799346953735" lon="8.734158731473928"><ele>151.66666666666666</ele><time>2026-03-28T16:46:02.999Z</time></trkpt><trkpt lat="45.53676928361854" lon="8.73424045570484"><ele>151.83333333333331</ele><time>2026-03-28T16:46:03.999Z</time></trkpt><trkpt lat="45.536689603752414" lon="8.734389794439512"><ele>152.0</ele><time>2026-03-28T16:46:05.999Z</time></trkpt><trkpt lat="45.53663174079316" lon="8.73448673567248"><ele>152.4</ele><time>2026-03-28T16:46:06.999Z</time></trkpt><trkpt lat="45.53656622362305" lon="8.734583592665423"><ele>152.79999999999998</ele><time>2026-03-28T16:46:07.999Z</time></trkpt><trkpt lat="45.536498894779015" lon="8.734679198163883"><ele>153.2</ele><time>2026-03-28T16:46:08.999Z</time></trkpt><trkpt lat="45.536439546854304" lon="8.73479012098737"><ele>153.6</ele><time>2026-03-28T16:46:09.999Z</time></trkpt><trkpt lat="45.536381301667106" lon="8.734841366253713"><ele>154.0</ele><time>2026-03-28T16:46:10.999Z</time></trkpt><trkpt lat="45.53631108868885" lon="8.73493424006727"><ele>154.0</ele><time>2026-03-28T16:46:11.999Z</time></trkpt><trkpt lat="45.536262603764456" lon="8.734997102557116"><ele>154.0</ele><time>2026-03-28T16:46:12.999Z</time></trkpt><trkpt lat="45.53620031536842" lon="8.735068688565553"><ele>154.0</ele><time>2026-03-28T16:46:14.999Z</time></trkpt><trkpt lat="45.536122736523396" lon="8.735228593776535"><ele>154.0</ele><time>2026-03-28T16:46:29Z</time></trkpt><trkpt lat="45.53606923459024" lon="8.735282964671635"><ele>154.0</ele><time>2026-03-28T16:46:30Z</time></trkpt><trkpt lat="45.53613360893306" lon="8.735557112452316"><ele>154.0</ele><time>2026-03-28T16:46:32Z</time></trkpt><trkpt lat="45.53617618766521" lon="8.735678207560893"><ele>154.0</ele><time>2026-03-28T16:46:33Z</time></trkpt><trkpt lat="45.536227168246114" lon="8.735825125360305"><ele>154.0</ele><time>2026-03-28T16:46:34Z</time></trkpt><trkpt lat="45.53629213641769" lon="8.735959387544542"><ele>154.0</ele><time>2026-03-28T16:46:35Z</time></trkpt><trkpt lat="45.536346742395" lon="8.73612173205403"><ele>154.5</ele><time>2026-03-28T16:46:36Z</time></trkpt><trkpt lat="45.53640660508496" lon="8.736300546218642"><ele>155.0</ele><time>2026-03-28T16:46:37Z</time></trkpt><trkpt lat="45.53647718400937" lon="8.73646760063257"><ele>155.5</ele><time>2026-03-28T16:46:38Z</time></trkpt><trkpt lat="45.53655632295456" lon="8.736650541338443"><ele>156.0</ele><time>2026-03-28T16:46:39Z</time></trkpt><trkpt lat="45.5366385231192" lon="8.736822515272484"><ele>156.5</ele><time>2026-03-28T16:46:40Z</time></trkpt><trkpt lat="45.536716527781046" lon="8.736983154506925"><ele>157.0</ele><time>2026-03-28T16:46:41Z</time></trkpt><trkpt lat="45.53678897700164" lon="8.737117793842629"><ele>157.5</ele><time>2026-03-28T16:46:42Z</time></trkpt><trkpt lat="45.536856749675344" lon="8.737258019710735"><ele>158.0</ele><time>2026-03-28T16:46:43Z</time></trkpt><trkpt lat="45.536935389826574" lon="8.737423379666142"><ele>158.0</ele><time>2026-03-28T16:46:44Z</time></trkpt><trkpt lat="45.537000312357" lon="8.737594455729674"><ele>158.0</ele><time>2026-03-28T16:46:45Z</time></trkpt><trkpt lat="45.537060284002074" lon="8.737764926615919"><ele>158.0</ele><time>2026-03-28T16:46:46Z</time></trkpt><trkpt lat="45.53711664432435" lon="8.737937215340999"><ele>158.0</ele><time>2026-03-28T16:46:47Z</time></trkpt><trkpt lat="45.5371733319" lon="8.738113205935727"><ele>159.5</ele><time>2026-03-28T16:46:48Z</time></trkpt><trkpt lat="45.537209301644104" lon="8.738291856731403"><ele>161.0</ele><time>2026-03-28T16:46:49Z</time></trkpt><trkpt lat="45.53725833359398" lon="8.738469144263458"><ele>162.5</ele><time>2026-03-28T16:46:50Z</time></trkpt><trkpt lat="45.537306167910096" lon="8.738657292451744"><ele>164.0</ele><time>2026-03-28T16:46:51Z</time></trkpt><trkpt lat="45.53736447820337" lon="8.73885794315324"><ele>165.66666666666666</ele><time>2026-03-28T16:46:52Z</time></trkpt><trkpt lat="45.53743901444305" lon="8.73907232686433"><ele>167.33333333333334</ele><time>2026-03-28T16:46:53Z</time></trkpt><trkpt lat="45.53748504287794" lon="8.739323314537767"><ele>169.0</ele><time>2026-03-28T16:46:54Z</time></trkpt><trkpt lat="45.537546073598946" lon="8.739563879421308"><ele>169.66666666666669</ele><time>2026-03-28T16:46:55Z</time></trkpt><trkpt lat="45.53760741902497" lon="8.739805930346323"><ele>170.33333333333334</ele><time>2026-03-28T16:46:56Z</time></trkpt><trkpt lat="45.537675885972725" lon="8.74007875037355"><ele>171.0</ele><time>2026-03-28T16:46:57Z</time></trkpt><trkpt lat="45.5377482894743" lon="8.740367256229803"><ele>171.0</ele><time>2026-03-28T16:46:58Z</time></trkpt><trkpt lat="45.537825735816476" lon="8.740675856614457"><ele>171.0</ele><time>2026-03-28T16:46:59Z</time></trkpt><trkpt lat="45.53789814661792" lon="8.74096431330201"><ele>171.0</ele><time>2026-03-28T16:47:00Z</time></trkpt><trkpt lat="45.53796897443371" lon="8.741246216271092"><ele>171.0</ele><time>2026-03-28T16:47:01Z</time></trkpt><trkpt lat="45.538043062934584" lon="8.741541097620509"><ele>171.0</ele><time>2026-03-28T16:47:02Z</time></trkpt><trkpt lat="45.538112516940814" lon="8.74181753304643"><ele>171.0</ele><time>2026-03-28T16:47:03Z</time></trkpt><trkpt lat="45.53818053821744" lon="8.742088265789095"><ele>172.33333333333334</ele><time>2026-03-28T16:47:04Z</time></trkpt><trkpt lat="45.53824886058689" lon="8.742360196930989"><ele>173.66666666666669</ele><time>2026-03-28T16:47:05Z</time></trkpt><trkpt lat="45.53831136336971" lon="8.7426089655632"><ele>175.0</ele><time>2026-03-28T16:47:06Z</time></trkpt><trkpt lat="45.5383772412449" lon="8.742870886911488"><ele>174.66666666666669</ele><time>2026-03-28T16:47:07Z</time></trkpt><trkpt lat="45.53844802539745" lon="8.743151453764973"><ele>174.33333333333334</ele><time>2026-03-28T16:47:08Z</time></trkpt><trkpt lat="45.53851408170163" lon="8.743415410423433"><ele>174.0</ele><time>2026-03-28T16:47:09Z</time></trkpt><trkpt lat="45.538593143978076" lon="8.743731216788301"><ele>174.0</ele><time>2026-03-28T16:47:10Z</time></trkpt><trkpt lat="45.53865385074143" lon="8.743973144099781"><ele>174.0</ele><time>2026-03-28T16:47:11Z</time></trkpt><trkpt lat="45.53873681891932" lon="8.744252612834421"><ele>174.0</ele><time>2026-03-28T16:47:12Z</time></trkpt><trkpt lat="45.538800185887524" lon="8.744554912375582"><ele>174.0</ele><time>2026-03-28T16:47:13Z</time></trkpt><trkpt lat="45.538874248647176" lon="8.744849355674175"><ele>174.0</ele><time>2026-03-28T16:47:14Z</time></trkpt><trkpt lat="45.538957790749215" lon="8.745146211757536"><ele>174.0</ele><time>2026-03-28T16:47:15Z</time></trkpt><trkpt lat="45.539021365987104" lon="8.745434391496733"><ele>174.0</ele><time>2026-03-28T16:47:16Z</time></trkpt><trkpt lat="45.53909320352907" lon="8.7457201339519"><ele>174.0</ele><time>2026-03-28T16:47:17Z</time></trkpt><trkpt lat="45.539165760626176" lon="8.745947844628597"><ele>174.0</ele><time>2026-03-28T16:47:18Z</time></trkpt><trkpt lat="45.539239554475465" lon="8.746239039510995"><ele>175.0</ele><time>2026-03-28T16:47:19Z</time></trkpt><trkpt lat="45.53929882584831" lon="8.746538022068776"><ele>176.0</ele><time>2026-03-28T16:47:20Z</time></trkpt><trkpt lat="45.53937300424756" lon="8.746833075799637"><ele>177.0</ele><time>2026-03-28T16:47:21Z</time></trkpt><trkpt lat="45.53944374000677" lon="8.747113545873965"><ele>177.0</ele><time>2026-03-28T16:47:22Z</time></trkpt><trkpt lat="45.539517229408894" lon="8.747404726298376"><ele>177.0</ele><time>2026-03-28T16:47:23Z</time></trkpt><trkpt lat="45.539615138226836" lon="8.747731202376922"><ele>175.5</ele><time>2026-03-28T16:47:24Z</time></trkpt><trkpt lat="45.53967796495547" lon="8.748039048492883"><ele>174.0</ele><time>2026-03-28T16:47:25Z</time></trkpt><trkpt lat="45.53976216121941" lon="8.748369178949503"><ele>175.0</ele><time>2026-03-28T16:47:26Z</time></trkpt><trkpt lat="45.539842049704234" lon="8.748682419084293"><ele>176.0</ele><time>2026-03-28T16:47:27Z</time></trkpt><trkpt lat="45.5399106330909" lon="8.74895556439123"><ele>177.0</ele><time>2026-03-28T16:47:28Z</time></trkpt><trkpt lat="45.53998022620261" lon="8.74923478401824"><ele>175.66666666666666</ele><time>2026-03-28T16:47:29Z</time></trkpt><trkpt lat="45.540044757789666" lon="8.74949369595882"><ele>174.33333333333331</ele><time>2026-03-28T16:47:30Z</time></trkpt><trkpt lat="45.54011316228982" lon="8.749768146725597"><ele>173.0</ele><time>2026-03-28T16:47:31Z</time></trkpt><trkpt lat="45.54018556505994" lon="8.750058055534593"><ele>172.33333333333331</ele><time>2026-03-28T16:47:32Z</time></trkpt><trkpt lat="45.540259195119184" lon="8.75035221505968"><ele>171.66666666666666</ele><time>2026-03-28T16:47:33Z</time></trkpt><trkpt lat="45.5403287856216" lon="8.750629284425509"><ele>171.0</ele><time>2026-03-28T16:47:34Z</time></trkpt><trkpt lat="45.54039402162692" lon="8.750887832774682"><ele>171.0</ele><time>2026-03-28T16:47:34.999Z</time></trkpt><trkpt lat="45.54047512111372" lon="8.751139426175055"><ele>171.0</ele><time>2026-03-28T16:47:35.999Z</time></trkpt><trkpt lat="45.540525690934295" lon="8.751376122472704"><ele>171.0</ele><time>2026-03-28T16:47:36.999Z</time></trkpt><trkpt lat="45.54057994013337" lon="8.751593642880014"><ele>171.0</ele><time>2026-03-28T16:47:37.999Z</time></trkpt><trkpt lat="45.54063374785762" lon="8.751821165579754"><ele>171.0</ele><time>2026-03-28T16:47:38.999Z</time></trkpt><trkpt lat="45.540677874440746" lon="8.752043132890277"><ele>171.0</ele><time>2026-03-28T16:47:39.999Z</time></trkpt><trkpt lat="45.54072283593883" lon="8.752280333690134"><ele>171.0</ele><time>2026-03-28T16:47:40.999Z</time></trkpt><trkpt lat="45.54075582687737" lon="8.752515650544366"><ele>171.0</ele><time>2026-03-28T16:47:41.999Z</time></trkpt><trkpt lat="45.54077733165795" lon="8.752748184894926"><ele>171.0</ele><time>2026-03-28T16:47:42.999Z</time></trkpt><trkpt lat="45.54079287010734" lon="8.752981828566348"><ele>171.33333333333334</ele><time>2026-03-28T16:47:43.999Z</time></trkpt><trkpt lat="45.54081502920414" lon="8.753221110702174"><ele>171.66666666666669</ele><time>2026-03-28T16:47:44.999Z</time></trkpt><trkpt lat="45.54083142091737" lon="8.753458528976067"><ele>172.0</ele><time>2026-03-28T16:47:45.999Z</time></trkpt><trkpt lat="45.5408445942646" lon="8.75366578336834"><ele>173.0</ele><time>2026-03-28T16:47:46.999Z</time></trkpt><trkpt lat="45.54088049260486" lon="8.753870292011669"><ele>174.0</ele><time>2026-03-28T16:47:47.999Z</time></trkpt><trkpt lat="45.54091817646315" lon="8.754064664432951"><ele>175.0</ele><time>2026-03-28T16:47:48.999Z</time></trkpt><trkpt lat="45.540949954630726" lon="8.754212418513937"><ele>176.0</ele><time>2026-03-28T16:47:49.999Z</time></trkpt><trkpt lat="45.540990022709785" lon="8.754349943709329"><ele>176.60000000000002</ele><time>2026-03-28T16:47:50.999Z</time></trkpt><trkpt lat="45.54102427262156" lon="8.754474325325976"><ele>177.2</ele><time>2026-03-28T16:47:51.999Z</time></trkpt><trkpt lat="45.541015723675805" lon="8.754607462776557"><ele>177.8</ele><time>2026-03-28T16:47:52.999Z</time></trkpt><trkpt lat="45.54107250937619" lon="8.754742757834878"><ele>178.39999999999998</ele><time>2026-03-28T16:47:54.999Z</time></trkpt><trkpt lat="45.54114357975563" lon="8.75492709386972"><ele>179.0</ele><time>2026-03-28T16:47:56.999Z</time></trkpt><trkpt lat="45.54119536780019" lon="8.75502656077295"><ele>178.79999999999998</ele><time>2026-03-28T16:47:57.999Z</time></trkpt><trkpt lat="45.54129309243615" lon="8.755055643718519"><ele>178.6</ele><time>2026-03-28T16:47:58.999Z</time></trkpt><trkpt lat="45.541380739255075" lon="8.755097135945313"><ele>178.4</ele><time>2026-03-28T16:47:59.999Z</time></trkpt><trkpt lat="45.54145027437899" lon="8.755189169686123"><ele>178.2</ele><time>2026-03-28T16:48:00.999Z</time></trkpt><trkpt lat="45.54150294253884" lon="8.755343480894902"><ele>178.0</ele><time>2026-03-28T16:48:01.999Z</time></trkpt><trkpt lat="45.54154370235015" lon="8.755488947503371"><ele>177.5</ele><time>2026-03-28T16:48:02.999Z</time></trkpt><trkpt lat="45.54159499632885" lon="8.755639848530738"><ele>177.0</ele><time>2026-03-28T16:48:03.999Z</time></trkpt><trkpt lat="45.54164356275206" lon="8.755805986828904"><ele>176.5</ele><time>2026-03-28T16:48:04.999Z</time></trkpt><trkpt lat="45.54169161743676" lon="8.755979663274926"><ele>176.0</ele><time>2026-03-28T16:48:05.999Z</time></trkpt><trkpt lat="45.541743835036264" lon="8.756144539112995"><ele>175.75</ele><time>2026-03-28T16:48:06.999Z</time></trkpt><trkpt lat="45.541795588944474" lon="8.75630643519248"><ele>175.5</ele><time>2026-03-28T16:48:07.999Z</time></trkpt><trkpt lat="45.54186710185861" lon="8.75648908751177"><ele>175.25</ele><time>2026-03-28T16:48:08.999Z</time></trkpt><trkpt lat="45.541946716249306" lon="8.756672192260975"><ele>175.0</ele><time>2026-03-28T16:48:09.999Z</time></trkpt><trkpt lat="45.54201254965485" lon="8.756864640799515"><ele>175.5</ele><time>2026-03-28T16:48:10.999Z</time></trkpt><trkpt lat="45.54206581088809" lon="8.757053738102988"><ele>176.0</ele><time>2026-03-28T16:48:11.999Z</time></trkpt><trkpt lat="45.54212790177645" lon="8.75723849805019"><ele>176.5</ele><time>2026-03-28T16:48:12.999Z</time></trkpt><trkpt lat="45.542204864759086" lon="8.757433364406962"><ele>177.0</ele><time>2026-03-28T16:48:13.999Z</time></trkpt><trkpt lat="45.542275701690436" lon="8.757621388544928"><ele>177.0</ele><time>2026-03-28T16:48:14.999Z</time></trkpt><trkpt lat="45.54235546202347" lon="8.757820049126181"><ele>177.0</ele><time>2026-03-28T16:48:15.999Z</time></trkpt><trkpt lat="45.542429667081244" lon="8.758016907766713"><ele>177.0</ele><time>2026-03-28T16:48:16.999Z</time></trkpt><trkpt lat="45.54252808379573" lon="8.75820926636933"><ele>177.0</ele><time>2026-03-28T16:48:17.999Z</time></trkpt><trkpt lat="45.54259081184424" lon="8.758405542367457"><ele>177.0</ele><time>2026-03-28T16:48:18.999Z</time></trkpt><trkpt lat="45.54265675474769" lon="8.758599415332634"><ele>177.0</ele><time>2026-03-28T16:48:19.999Z</time></trkpt><trkpt lat="45.54271531791266" lon="8.75880486814249"><ele>177.0</ele><time>2026-03-28T16:48:20.999Z</time></trkpt><trkpt lat="45.542774394429166" lon="8.759006329168123"><ele>177.0</ele><time>2026-03-28T16:48:21.999Z</time></trkpt><trkpt lat="45.54283177168041" lon="8.759210424531437"><ele>177.0</ele><time>2026-03-28T16:48:22.999Z</time></trkpt><trkpt lat="45.54288251878944" lon="8.759415015409624"><ele>177.0</ele><time>2026-03-28T16:48:23.999Z</time></trkpt><trkpt lat="45.54294271267738" lon="8.75962960636222"><ele>177.0</ele><time>2026-03-28T16:48:24.999Z</time></trkpt><trkpt lat="45.542988804564466" lon="8.759840219094947"><ele>177.0</ele><time>2026-03-28T16:48:25.999Z</time></trkpt><trkpt lat="45.54303432079397" lon="8.760049227053582"><ele>177.0</ele><time>2026-03-28T16:48:26.999Z</time></trkpt><trkpt lat="45.543074160369585" lon="8.760259446788961"><ele>177.0</ele><time>2026-03-28T16:48:27.999Z</time></trkpt><trkpt lat="45.54310312379331" lon="8.760471229948903"><ele>177.0</ele><time>2026-03-28T16:48:28.999Z</time></trkpt><trkpt lat="45.543117773932615" lon="8.76069568434785"><ele>177.0</ele><time>2026-03-28T16:48:29.999Z</time></trkpt><trkpt lat="45.54314909296656" lon="8.760917545066796"><ele>177.0</ele><time>2026-03-28T16:48:30.999Z</time></trkpt><trkpt lat="45.54317120185579" lon="8.761139607356503"><ele>177.0</ele><time>2026-03-28T16:48:32Z</time></trkpt><trkpt lat="45.54319614382059" lon="8.761366398684158"><ele>177.0</ele><time>2026-03-28T16:48:33Z</time></trkpt><trkpt lat="45.54320688425283" lon="8.76159785073987"><ele>177.0</ele><time>2026-03-28T16:48:34Z</time></trkpt><trkpt lat="45.5432150928447" lon="8.761832290049899"><ele>177.0</ele><time>2026-03-28T16:48:35Z</time></trkpt><trkpt lat="45.5432122018204" lon="8.762086357103415"><ele>177.0</ele><time>2026-03-28T16:48:36Z</time></trkpt><trkpt lat="45.5432046050231" lon="8.762348939486268"><ele>177.0</ele><time>2026-03-28T16:48:37Z</time></trkpt><trkpt lat="45.54319718181181" lon="8.762610432522939"><ele>177.0</ele><time>2026-03-28T16:48:38Z</time></trkpt><trkpt lat="45.543191204756866" lon="8.76287716024751"><ele>177.0</ele><time>2026-03-28T16:48:39Z</time></trkpt><trkpt lat="45.54317237324322" lon="8.763135311639935"><ele>177.0</ele><time>2026-03-28T16:48:40Z</time></trkpt><trkpt lat="45.54314656667248" lon="8.763391016019854"><ele>177.0</ele><time>2026-03-28T16:48:41Z</time></trkpt><trkpt lat="45.543125838944476" lon="8.76365905801228"><ele>177.66666666666666</ele><time>2026-03-28T16:48:42Z</time></trkpt><trkpt lat="45.54311481263665" lon="8.763925115975397"><ele>178.33333333333331</ele><time>2026-03-28T16:48:43Z</time></trkpt><trkpt lat="45.54310085122947" lon="8.764184643226503"><ele>179.0</ele><time>2026-03-28T16:48:44Z</time></trkpt><trkpt lat="45.54309424436807" lon="8.764435513263807"><ele>179.0</ele><time>2026-03-28T16:48:45Z</time></trkpt><trkpt lat="45.54307263208841" lon="8.764676621958413"><ele>179.0</ele><time>2026-03-28T16:48:46Z</time></trkpt><trkpt lat="45.54305673089101" lon="8.764920281761865"><ele>179.0</ele><time>2026-03-28T16:48:47Z</time></trkpt><trkpt lat="45.543041993544584" lon="8.765151718810511"><ele>178.0</ele><time>2026-03-28T16:48:48Z</time></trkpt><trkpt lat="45.54303489191218" lon="8.765385827420866"><ele>177.0</ele><time>2026-03-28T16:48:49Z</time></trkpt><trkpt lat="45.543012891385565" lon="8.765625007645161"><ele>176.0</ele><time>2026-03-28T16:48:50Z</time></trkpt><trkpt lat="45.54300358569228" lon="8.76586076770177"><ele>176.33333333333331</ele><time>2026-03-28T16:48:51Z</time></trkpt><trkpt lat="45.54297139194636" lon="8.76611089049651"><ele>176.66666666666666</ele><time>2026-03-28T16:48:52Z</time></trkpt><trkpt lat="45.5429473985247" lon="8.766350875740496"><ele>177.0</ele><time>2026-03-28T16:48:53Z</time></trkpt><trkpt lat="45.54293481055572" lon="8.766594820233548"><ele>177.0</ele><time>2026-03-28T16:48:54Z</time></trkpt><trkpt lat="45.542919874644824" lon="8.766847703150948"><ele>177.0</ele><time>2026-03-28T16:48:55Z</time></trkpt><trkpt lat="45.54289575954665" lon="8.767104680929597"><ele>177.0</ele><time>2026-03-28T16:48:56Z</time></trkpt><trkpt lat="45.54287463260391" lon="8.7673530253746"><ele>177.0</ele><time>2026-03-28T16:48:57Z</time></trkpt><trkpt lat="45.542857940567075" lon="8.767606516365525"><ele>177.0</ele><time>2026-03-28T16:48:58Z</time></trkpt><trkpt lat="45.54284343579396" lon="8.767854874145637"><ele>177.0</ele><time>2026-03-28T16:48:59Z</time></trkpt><trkpt lat="45.542835566227545" lon="8.76812226554394"><ele>176.33333333333334</ele><time>2026-03-28T16:49:00Z</time></trkpt><trkpt lat="45.54282118416533" lon="8.768389009703872"><ele>175.66666666666669</ele><time>2026-03-28T16:49:01Z</time></trkpt><trkpt lat="45.54280566055021" lon="8.768632425075118"><ele>175.0</ele><time>2026-03-28T16:49:02Z</time></trkpt><trkpt lat="45.5427891839843" lon="8.768879844610753"><ele>175.0</ele><time>2026-03-28T16:49:03Z</time></trkpt><trkpt lat="45.54277425607896" lon="8.76913779427863"><ele>175.0</ele><time>2026-03-28T16:49:04Z</time></trkpt><trkpt lat="45.542769241313835" lon="8.76937923416385"><ele>175.0</ele><time>2026-03-28T16:49:05Z</time></trkpt><trkpt lat="45.54274740469554" lon="8.769628124028966"><ele>175.0</ele><time>2026-03-28T16:49:06Z</time></trkpt><trkpt lat="45.54272829829117" lon="8.769878780467883"><ele>175.0</ele><time>2026-03-28T16:49:07Z</time></trkpt><trkpt lat="45.54270712420097" lon="8.770118181552931"><ele>175.0</ele><time>2026-03-28T16:49:08Z</time></trkpt><trkpt lat="45.54268542567267" lon="8.770351225382276"><ele>175.33333333333334</ele><time>2026-03-28T16:49:09Z</time></trkpt><trkpt lat="45.542675835916334" lon="8.770577815434828"><ele>175.66666666666666</ele><time>2026-03-28T16:49:10Z</time></trkpt><trkpt lat="45.54267151306298" lon="8.770818071144825"><ele>176.0</ele><time>2026-03-28T16:49:11Z</time></trkpt><trkpt lat="45.54265640000872" lon="8.771053685641204"><ele>176.66666666666666</ele><time>2026-03-28T16:49:12Z</time></trkpt><trkpt lat="45.5426514920871" lon="8.771280846878131"><ele>177.33333333333334</ele><time>2026-03-28T16:49:13Z</time></trkpt><trkpt lat="45.542637648142254" lon="8.771511662414962"><ele>178.0</ele><time>2026-03-28T16:49:14Z</time></trkpt><trkpt lat="45.54262391047598" lon="8.771737271214542"><ele>177.33333333333334</ele><time>2026-03-28T16:49:15Z</time></trkpt><trkpt lat="45.54261289530298" lon="8.77196515998395"><ele>176.66666666666666</ele><time>2026-03-28T16:49:16Z</time></trkpt><trkpt lat="45.54260933332393" lon="8.772190281319244"><ele>176.0</ele><time>2026-03-28T16:49:17Z</time></trkpt><trkpt lat="45.54260686212076" lon="8.772426062748783"><ele>176.0</ele><time>2026-03-28T16:49:18Z</time></trkpt><trkpt lat="45.542610099331135" lon="8.77265512593207"><ele>176.0</ele><time>2026-03-28T16:49:19Z</time></trkpt><trkpt lat="45.54260538181142" lon="8.772885608815114"><ele>176.0</ele><time>2026-03-28T16:49:20Z</time></trkpt><trkpt lat="45.54260697122698" lon="8.773115219716617"><ele>175.66666666666666</ele><time>2026-03-28T16:49:21Z</time></trkpt><trkpt lat="45.542610925447484" lon="8.773341503641928"><ele>175.33333333333334</ele><time>2026-03-28T16:49:22Z</time></trkpt><trkpt lat="45.542626930035475" lon="8.773558838543254"><ele>175.0</ele><time>2026-03-28T16:49:23Z</time></trkpt><trkpt lat="45.54265058904204" lon="8.773771563509765"><ele>174.66666666666669</ele><time>2026-03-28T16:49:24Z</time></trkpt><trkpt lat="45.54267415452746" lon="8.77399461966936"><ele>174.33333333333334</ele><time>2026-03-28T16:49:25Z</time></trkpt><trkpt lat="45.54268530163603" lon="8.774230426712958"><ele>174.0</ele><time>2026-03-28T16:49:26Z</time></trkpt><trkpt lat="45.54270887053628" lon="8.774452467987105"><ele>174.0</ele><time>2026-03-28T16:49:27Z</time></trkpt><trkpt lat="45.54274633489928" lon="8.77467433799641"><ele>174.0</ele><time>2026-03-28T16:49:28Z</time></trkpt><trkpt lat="45.542777162086914" lon="8.77490618331956"><ele>174.0</ele><time>2026-03-28T16:49:29Z</time></trkpt><trkpt lat="45.542787658585596" lon="8.775123047691435"><ele>174.0</ele><time>2026-03-28T16:49:30Z</time></trkpt><trkpt lat="45.542810939165754" lon="8.77535056027224"><ele>174.0</ele><time>2026-03-28T16:49:31Z</time></trkpt><trkpt lat="45.5428302300788" lon="8.775570323342082"><ele>174.0</ele><time>2026-03-28T16:49:32Z</time></trkpt><trkpt lat="45.54285095178034" lon="8.775769682301874"><ele>174.0</ele><time>2026-03-28T16:49:32.999Z</time></trkpt><trkpt lat="45.542859912283966" lon="8.775987420189294"><ele>174.0</ele><time>2026-03-28T16:49:33.999Z</time></trkpt><trkpt lat="45.54289484422557" lon="8.77618516042922"><ele>174.0</ele><time>2026-03-28T16:49:34.999Z</time></trkpt><trkpt lat="45.54291605469677" lon="8.776383666995939"><ele>174.0</ele><time>2026-03-28T16:49:35.999Z</time></trkpt><trkpt lat="45.54292395823075" lon="8.776586976433096"><ele>174.5</ele><time>2026-03-28T16:49:36.999Z</time></trkpt><trkpt lat="45.542941887305695" lon="8.776797370570916"><ele>175.0</ele><time>2026-03-28T16:49:37.999Z</time></trkpt><trkpt lat="45.54295550676018" lon="8.776985944938883"><ele>175.5</ele><time>2026-03-28T16:49:38.999Z</time></trkpt><trkpt lat="45.54297670148363" lon="8.777185062350425"><ele>176.0</ele><time>2026-03-28T16:49:39.999Z</time></trkpt><trkpt lat="45.542997853507465" lon="8.777377742274275"><ele>176.0</ele><time>2026-03-28T16:49:40.999Z</time></trkpt><trkpt lat="45.54301983429366" lon="8.777566462582834"><ele>176.0</ele><time>2026-03-28T16:49:41.999Z</time></trkpt><trkpt lat="45.543042816592205" lon="8.777752605553724"><ele>176.0</ele><time>2026-03-28T16:49:42.999Z</time></trkpt><trkpt lat="45.54305350294861" lon="8.777936210256394"><ele>176.0</ele><time>2026-03-28T16:49:43.999Z</time></trkpt><trkpt lat="45.54306764190522" lon="8.77811897663456"><ele>176.0</ele><time>2026-03-28T16:49:44.999Z</time></trkpt><trkpt lat="45.54307652359461" lon="8.778285436281282"><ele>176.0</ele><time>2026-03-28T16:49:45.999Z</time></trkpt><trkpt lat="45.54309231762241" lon="8.778440623087373"><ele>176.0</ele><time>2026-03-28T16:49:46.999Z</time></trkpt><trkpt lat="45.54310721126401" lon="8.778586932729905"><ele>176.0</ele><time>2026-03-28T16:49:47.999Z</time></trkpt><trkpt lat="45.543115611661925" lon="8.77872656457937"><ele>176.0</ele><time>2026-03-28T16:49:48.999Z</time></trkpt><trkpt lat="45.54312582242898" lon="8.778846315397853"><ele>176.16666666666666</ele><time>2026-03-28T16:49:49.999Z</time></trkpt><trkpt lat="45.54314426272442" lon="8.778945375623685"><ele>176.33333333333331</ele><time>2026-03-28T16:49:50.999Z</time></trkpt><trkpt lat="45.54312570580429" lon="8.779057362334408"><ele>176.5</ele><time>2026-03-28T16:49:51.999Z</time></trkpt><trkpt lat="45.54307559923323" lon="8.779178858908741"><ele>176.66666666666666</ele><time>2026-03-28T16:49:52.999Z</time></trkpt><trkpt lat="45.543036815268415" lon="8.77927445404935"><ele>176.83333333333334</ele><time>2026-03-28T16:49:53.999Z</time></trkpt><trkpt lat="45.543015424439076" lon="8.779361343201098"><ele>177.0</ele><time>2026-03-28T16:49:54.999Z</time></trkpt><trkpt lat="45.5430447262096" lon="8.779480898418498"><ele>176.6</ele><time>2026-03-28T16:49:55.999Z</time></trkpt><trkpt lat="45.54308529550101" lon="8.779562173849678"><ele>176.2</ele><time>2026-03-28T16:49:56.999Z</time></trkpt><trkpt lat="45.54315270477895" lon="8.779669890197843"><ele>175.8</ele><time>2026-03-28T16:49:57.999Z</time></trkpt><trkpt lat="45.54321686188373" lon="8.779793736369559"><ele>175.4</ele><time>2026-03-28T16:49:58.999Z</time></trkpt><trkpt lat="45.54324837409426" lon="8.779953959955273"><ele>175.0</ele><time>2026-03-28T16:49:59.999Z</time></trkpt><trkpt lat="45.543262895940416" lon="8.780123040083351"><ele>174.75</ele><time>2026-03-28T16:50:00.999Z</time></trkpt><trkpt lat="45.54329454590819" lon="8.780321179879353"><ele>174.5</ele><time>2026-03-28T16:50:01.999Z</time></trkpt><trkpt lat="45.543309545135145" lon="8.780531317255912"><ele>174.25</ele><time>2026-03-28T16:50:02.999Z</time></trkpt><trkpt lat="45.5433371642481" lon="8.78073363061035"><ele>174.0</ele><time>2026-03-28T16:50:03.999Z</time></trkpt><trkpt lat="45.54335933797286" lon="8.780948965512875"><ele>174.0</ele><time>2026-03-28T16:50:04.999Z</time></trkpt><trkpt lat="45.5433826998012" lon="8.781170902877012"><ele>174.0</ele><time>2026-03-28T16:50:05.999Z</time></trkpt><trkpt lat="45.543407205906334" lon="8.781408895481876"><ele>174.0</ele><time>2026-03-28T16:50:06.999Z</time></trkpt><trkpt lat="45.54343036666018" lon="8.78163599759153"><ele>174.33333333333334</ele><time>2026-03-28T16:50:07.999Z</time></trkpt><trkpt lat="45.54347551454336" lon="8.78185752086433"><ele>174.66666666666669</ele><time>2026-03-28T16:50:08.999Z</time></trkpt><trkpt lat="45.54349642266622" lon="8.782072064735894"><ele>175.0</ele><time>2026-03-28T16:50:09.999Z</time></trkpt><trkpt lat="45.543517157773195" lon="8.782289083077776"><ele>175.0</ele><time>2026-03-28T16:50:10.999Z</time></trkpt><trkpt lat="45.54353376642925" lon="8.782492452332253"><ele>175.0</ele><time>2026-03-28T16:50:11.999Z</time></trkpt><trkpt lat="45.543551089500255" lon="8.782688023302436"><ele>175.0</ele><time>2026-03-28T16:50:12.999Z</time></trkpt><trkpt lat="45.54356776226281" lon="8.782866715249002"><ele>175.0</ele><time>2026-03-28T16:50:13.999Z</time></trkpt><trkpt lat="45.54358706627065" lon="8.783042480601129"><ele>174.8</ele><time>2026-03-28T16:50:14.999Z</time></trkpt><trkpt lat="45.54358987650341" lon="8.783213246017636"><ele>174.6</ele><time>2026-03-28T16:50:15.999Z</time></trkpt><trkpt lat="45.543600390273255" lon="8.783358988041645"><ele>174.39999999999998</ele><time>2026-03-28T16:50:16.999Z</time></trkpt><trkpt lat="45.54359790256124" lon="8.783485299299914"><ele>174.2</ele><time>2026-03-28T16:50:17.999Z</time></trkpt><trkpt lat="45.543561190462626" lon="8.783594027020387"><ele>174.0</ele><time>2026-03-28T16:50:18.999Z</time></trkpt><trkpt lat="45.543492484099374" lon="8.783696196928886"><ele>174.6</ele><time>2026-03-28T16:50:19.999Z</time></trkpt><trkpt lat="45.54347401765347" lon="8.783818429769584"><ele>175.2</ele><time>2026-03-28T16:50:20.999Z</time></trkpt><trkpt lat="45.543501873783384" lon="8.783961412484095"><ele>175.79999999999998</ele><time>2026-03-28T16:50:21.999Z</time></trkpt><trkpt lat="45.54358638770977" lon="8.784071372306112"><ele>176.39999999999998</ele><time>2026-03-28T16:50:22.999Z</time></trkpt><trkpt lat="45.54365148530416" lon="8.784190133382138"><ele>177.0</ele><time>2026-03-28T16:50:23.999Z</time></trkpt><trkpt lat="45.54371067087323" lon="8.784319717168268"><ele>176.0</ele><time>2026-03-28T16:50:24.999Z</time></trkpt><trkpt lat="45.543733011137604" lon="8.78447509844848"><ele>175.0</ele><time>2026-03-28T16:50:25.999Z</time></trkpt><trkpt lat="45.54373530997157" lon="8.78465442100724"><ele>174.0</ele><time>2026-03-28T16:50:26.999Z</time></trkpt><trkpt lat="45.54375822696183" lon="8.78482514531912"><ele>173.0</ele><time>2026-03-28T16:50:27.999Z</time></trkpt><trkpt lat="45.54377237356493" lon="8.785005914151796"><ele>172.75</ele><time>2026-03-28T16:50:28.999Z</time></trkpt><trkpt lat="45.543796394084964" lon="8.785191092053974"><ele>172.5</ele><time>2026-03-28T16:50:29.999Z</time></trkpt><trkpt lat="45.5438182470062" lon="8.785397949625864"><ele>172.25</ele><time>2026-03-28T16:50:30.999Z</time></trkpt><trkpt lat="45.54384297838994" lon="8.78563259219066"><ele>172.0</ele><time>2026-03-28T16:50:31.999Z</time></trkpt><trkpt lat="45.543864764193664" lon="8.785843751949017"><ele>172.66666666666669</ele><time>2026-03-28T16:50:32.999Z</time></trkpt><trkpt lat="45.54387566958824" lon="8.786053738386151"><ele>173.33333333333334</ele><time>2026-03-28T16:50:33.999Z</time></trkpt><trkpt lat="45.543889197907134" lon="8.786272936604323"><ele>174.0</ele><time>2026-03-28T16:50:34.999Z</time></trkpt><trkpt lat="45.543912463659886" lon="8.786490296883528"><ele>174.0</ele><time>2026-03-28T16:50:35.999Z</time></trkpt><trkpt lat="45.5439385503904" lon="8.786707643586542"><ele>174.0</ele><time>2026-03-28T16:50:36.999Z</time></trkpt><trkpt lat="45.54394296304923" lon="8.786928550116066"><ele>174.0</ele><time>2026-03-28T16:50:38Z</time></trkpt><trkpt lat="45.54396513101868" lon="8.787154243285352"><ele>173.66666666666666</ele><time>2026-03-28T16:50:39Z</time></trkpt><trkpt lat="45.54399458803591" lon="8.787379289200954"><ele>173.33333333333331</ele><time>2026-03-28T16:50:40Z</time></trkpt><trkpt lat="45.544012010797225" lon="8.787599851538985"><ele>173.0</ele><time>2026-03-28T16:50:41Z</time></trkpt><trkpt lat="45.54404061784486" lon="8.78781985290028"><ele>172.66666666666666</ele><time>2026-03-28T16:50:42Z</time></trkpt><trkpt lat="45.5440564787995" lon="8.788044551743631"><ele>172.33333333333334</ele><time>2026-03-28T16:50:43Z</time></trkpt><trkpt lat="45.54407081414126" lon="8.788256420498607"><ele>172.0</ele><time>2026-03-28T16:50:44Z</time></trkpt><trkpt lat="45.544090638160306" lon="8.788472318311651"><ele>172.25</ele><time>2026-03-28T16:50:45Z</time></trkpt><trkpt lat="45.544104103833476" lon="8.78867947995049"><ele>172.5</ele><time>2026-03-28T16:50:46Z</time></trkpt><trkpt lat="45.5441084624672" lon="8.78887638984481"><ele>172.75</ele><time>2026-03-28T16:50:47Z</time></trkpt><trkpt lat="45.54411432484867" lon="8.789046902181868"><ele>173.0</ele><time>2026-03-28T16:50:48Z</time></trkpt><trkpt lat="45.54412664372491" lon="8.789219590319199"><ele>173.0</ele><time>2026-03-28T16:50:49Z</time></trkpt><trkpt lat="45.54414034853886" lon="8.789365523476894"><ele>173.0</ele><time>2026-03-28T16:50:50Z</time></trkpt><trkpt lat="45.54412078144839" lon="8.789481951363566"><ele>173.0</ele><time>2026-03-28T16:50:51Z</time></trkpt><trkpt lat="45.544112054813084" lon="8.789584924237445"><ele>173.0</ele><time>2026-03-28T16:50:52Z</time></trkpt><trkpt lat="45.543980592159606" lon="8.789736035534014"><ele>173.0</ele><time>2026-03-28T16:50:54Z</time></trkpt><trkpt lat="45.543928514834256" lon="8.789817982224072"><ele>173.0</ele><time>2026-03-28T16:50:55Z</time></trkpt><trkpt lat="45.54391510283653" lon="8.78992905897489"><ele>173.0</ele><time>2026-03-28T16:50:56Z</time></trkpt><trkpt lat="45.5439141678612" lon="8.790056354461786"><ele>173.0</ele><time>2026-03-28T16:50:57Z</time></trkpt><trkpt lat="45.543930237969505" lon="8.790197340935759"><ele>173.0</ele><time>2026-03-28T16:50:58Z</time></trkpt><trkpt lat="45.543992606570185" lon="8.790298971966898"><ele>173.0</ele><time>2026-03-28T16:50:59Z</time></trkpt><trkpt lat="45.54407583114501" lon="8.790394788017931"><ele>173.0</ele><time>2026-03-28T16:51:00Z</time></trkpt><trkpt lat="45.54408447532255" lon="8.790589676200229"><ele>173.0</ele><time>2026-03-28T16:51:01Z</time></trkpt><trkpt lat="45.54409596855249" lon="8.790762896835124"><ele>173.0</ele><time>2026-03-28T16:51:02Z</time></trkpt><trkpt lat="45.544091338291835" lon="8.7909347380614"><ele>173.0</ele><time>2026-03-28T16:51:03Z</time></trkpt><trkpt lat="45.54409615158288" lon="8.791119758416718"><ele>173.0</ele><time>2026-03-28T16:51:04Z</time></trkpt><trkpt lat="45.54409073097671" lon="8.791310730263397"><ele>173.0</ele><time>2026-03-28T16:51:05Z</time></trkpt><trkpt lat="45.54409420794293" lon="8.791513162942795"><ele>173.0</ele><time>2026-03-28T16:51:06Z</time></trkpt><trkpt lat="45.544097631637186" lon="8.791711889671495"><ele>173.0</ele><time>2026-03-28T16:51:07Z</time></trkpt><trkpt lat="45.54408337604227" lon="8.791892628254462"><ele>173.25</ele><time>2026-03-28T16:51:08Z</time></trkpt><trkpt lat="45.54407355445198" lon="8.79207870362358"><ele>173.5</ele><time>2026-03-28T16:51:09Z</time></trkpt><trkpt lat="45.54405752409546" lon="8.792279495338443"><ele>173.75</ele><time>2026-03-28T16:51:10Z</time></trkpt><trkpt lat="45.544019131721946" lon="8.792482690666114"><ele>174.0</ele><time>2026-03-28T16:51:11Z</time></trkpt><trkpt lat="45.543991051469554" lon="8.792673991905707"><ele>174.66666666666666</ele><time>2026-03-28T16:51:12Z</time></trkpt><trkpt lat="45.54397032355564" lon="8.792879076193616"><ele>175.33333333333331</ele><time>2026-03-28T16:51:13Z</time></trkpt><trkpt lat="45.543922833604306" lon="8.793108737279674"><ele>176.0</ele><time>2026-03-28T16:51:14Z</time></trkpt><trkpt lat="45.543874811330156" lon="8.793310048845004"><ele>176.0</ele><time>2026-03-28T16:51:15Z</time></trkpt><trkpt lat="45.543833692671896" lon="8.793495939917262"><ele>176.0</ele><time>2026-03-28T16:51:16Z</time></trkpt><trkpt lat="45.54376796160048" lon="8.793671409372399"><ele>176.0</ele><time>2026-03-28T16:51:17Z</time></trkpt><trkpt lat="45.54367399073088" lon="8.793860104471163"><ele>176.0</ele><time>2026-03-28T16:51:18Z</time></trkpt><trkpt lat="45.5435592613101" lon="8.7940056154431"><ele>176.0</ele><time>2026-03-28T16:51:19Z</time></trkpt><trkpt lat="45.543431990469436" lon="8.794127432210814"><ele>176.0</ele><time>2026-03-28T16:51:20Z</time></trkpt><trkpt lat="45.543275662514716" lon="8.794217145818495"><ele>176.0</ele><time>2026-03-28T16:51:21Z</time></trkpt><trkpt lat="45.54312352308786" lon="8.794274932228262"><ele>176.0</ele><time>2026-03-28T16:51:22Z</time></trkpt><trkpt lat="45.54294123989616" lon="8.794300307534916"><ele>176.0</ele><time>2026-03-28T16:51:23Z</time></trkpt><trkpt lat="45.54276279999458" lon="8.794302140580065"><ele>176.0</ele><time>2026-03-28T16:51:24Z</time></trkpt><trkpt lat="45.5425793406411" lon="8.79430064727451"><ele>176.0</ele><time>2026-03-28T16:51:25Z</time></trkpt><trkpt lat="45.542386265429826" lon="8.794333601125755"><ele>176.0</ele><time>2026-03-28T16:51:26Z</time></trkpt><trkpt lat="45.54219908625239" lon="8.794338958885593"><ele>176.0</ele><time>2026-03-28T16:51:27Z</time></trkpt><trkpt lat="45.54200629656093" lon="8.79438248226717"><ele>175.66666666666666</ele><time>2026-03-28T16:51:28Z</time></trkpt><trkpt lat="45.541816641276874" lon="8.794445131544856"><ele>175.33333333333334</ele><time>2026-03-28T16:51:29Z</time></trkpt><trkpt lat="45.541634236392646" lon="8.794508399082568"><ele>175.0</ele><time>2026-03-28T16:51:30Z</time></trkpt><trkpt lat="45.54146584799253" lon="8.794555095544101"><ele>175.0</ele><time>2026-03-28T16:51:31Z</time></trkpt><trkpt lat="45.54129961921022" lon="8.794605764780954"><ele>175.0</ele><time>2026-03-28T16:51:32Z</time></trkpt><trkpt lat="45.54112704862977" lon="8.794667135174153"><ele>175.0</ele><time>2026-03-28T16:51:33Z</time></trkpt><trkpt lat="45.5409574183968" lon="8.794727874324877"><ele>174.33333333333334</ele><time>2026-03-28T16:51:34Z</time></trkpt><trkpt lat="45.54078086092614" lon="8.794790216011501"><ele>173.66666666666666</ele><time>2026-03-28T16:51:35Z</time></trkpt><trkpt lat="45.54059501623488" lon="8.79486453097498"><ele>173.0</ele><time>2026-03-28T16:51:36Z</time></trkpt><trkpt lat="45.54040788552626" lon="8.794945351762161"><ele>173.0</ele><time>2026-03-28T16:51:37Z</time></trkpt><trkpt lat="45.54021311850883" lon="8.795027031394792"><ele>173.0</ele><time>2026-03-28T16:51:38Z</time></trkpt><trkpt lat="45.54002110604831" lon="8.795107479997922"><ele>173.0</ele><time>2026-03-28T16:51:39Z</time></trkpt><trkpt lat="45.53983477498377" lon="8.795196206525508"><ele>173.0</ele><time>2026-03-28T16:51:40Z</time></trkpt><trkpt lat="45.53964201599552" lon="8.795296301898116"><ele>173.0</ele><time>2026-03-28T16:51:41Z</time></trkpt><trkpt lat="45.53944189103382" lon="8.795396049341862"><ele>173.0</ele><time>2026-03-28T16:51:42Z</time></trkpt><trkpt lat="45.53923761208596" lon="8.79550728638602"><ele>173.0</ele><time>2026-03-28T16:51:43Z</time></trkpt><trkpt lat="45.5390391184386" lon="8.795628425333758"><ele>173.0</ele><time>2026-03-28T16:51:44Z</time></trkpt><trkpt lat="45.53884154151746" lon="8.795762033432878"><ele>173.0</ele><time>2026-03-28T16:51:45Z</time></trkpt><trkpt lat="45.53864420459395" lon="8.79589918476426"><ele>172.66666666666666</ele><time>2026-03-28T16:51:46Z</time></trkpt><trkpt lat="45.53844338559548" lon="8.796046555488884"><ele>172.33333333333334</ele><time>2026-03-28T16:51:46.999Z</time></trkpt><trkpt lat="45.538252787743716" lon="8.796185774571162"><ele>172.0</ele><time>2026-03-28T16:51:47.999Z</time></trkpt><trkpt lat="45.538054537313144" lon="8.796345160871256"><ele>171.0</ele><time>2026-03-28T16:51:48.999Z</time></trkpt><trkpt lat="45.5378535734372" lon="8.796494771912757"><ele>170.0</ele><time>2026-03-28T16:51:49.999Z</time></trkpt><trkpt lat="45.53765517797317" lon="8.796648282149665"><ele>170.0</ele><time>2026-03-28T16:51:50.999Z</time></trkpt><trkpt lat="45.53743783374269" lon="8.796806742474892"><ele>170.0</ele><time>2026-03-28T16:51:51.999Z</time></trkpt><trkpt lat="45.53723154144721" lon="8.796962088403559"><ele>170.0</ele><time>2026-03-28T16:51:52.999Z</time></trkpt><trkpt lat="45.53701576016803" lon="8.797118678642452"><ele>170.0</ele><time>2026-03-28T16:51:53.999Z</time></trkpt><trkpt lat="45.536807525302656" lon="8.797267103645437"><ele>170.0</ele><time>2026-03-28T16:51:54.999Z</time></trkpt><trkpt lat="45.53660854582367" lon="8.797428567047548"><ele>170.0</ele><time>2026-03-28T16:51:55.999Z</time></trkpt><trkpt lat="45.536404506622205" lon="8.797591060806672"><ele>169.0</ele><time>2026-03-28T16:51:56.999Z</time></trkpt><trkpt lat="45.53620172118373" lon="8.797789154903068"><ele>168.0</ele><time>2026-03-28T16:51:57.999Z</time></trkpt><trkpt lat="45.53599344924745" lon="8.797942211775224"><ele>168.0</ele><time>2026-03-28T16:51:58.999Z</time></trkpt><trkpt lat="45.53577235306273" lon="8.798072763504829"><ele>168.0</ele><time>2026-03-28T16:51:59.999Z</time></trkpt><trkpt lat="45.535566791423236" lon="8.798249333483302"><ele>168.0</ele><time>2026-03-28T16:52:00.999Z</time></trkpt><trkpt lat="45.5353608489555" lon="8.798392998573853"><ele>168.0</ele><time>2026-03-28T16:52:01.999Z</time></trkpt><trkpt lat="45.535155370557064" lon="8.798556258064918"><ele>169.0</ele><time>2026-03-28T16:52:02.999Z</time></trkpt><trkpt lat="45.5349540256801" lon="8.79872341451268"><ele>170.0</ele><time>2026-03-28T16:52:03.999Z</time></trkpt><trkpt lat="45.53474412964545" lon="8.798858103785431"><ele>169.5</ele><time>2026-03-28T16:52:04.999Z</time></trkpt><trkpt lat="45.53453093652361" lon="8.79902252339327"><ele>169.0</ele><time>2026-03-28T16:52:05.999Z</time></trkpt><trkpt lat="45.53432849874152" lon="8.799182475881553"><ele>168.0</ele><time>2026-03-28T16:52:06.999Z</time></trkpt><trkpt lat="45.5341086479003" lon="8.799352924223424"><ele>167.0</ele><time>2026-03-28T16:52:07.999Z</time></trkpt><trkpt lat="45.53390130419839" lon="8.799511292251895"><ele>167.0</ele><time>2026-03-28T16:52:08.999Z</time></trkpt><trkpt lat="45.53369849286331" lon="8.799685677893773"><ele>167.0</ele><time>2026-03-28T16:52:09.999Z</time></trkpt><trkpt lat="45.53349324749445" lon="8.799860672484844"><ele>167.0</ele><time>2026-03-28T16:52:10.999Z</time></trkpt><trkpt lat="45.53329558823516" lon="8.800045197747737"><ele>167.0</ele><time>2026-03-28T16:52:11.999Z</time></trkpt><trkpt lat="45.53309311812403" lon="8.8002213085758"><ele>167.5</ele><time>2026-03-28T16:52:12.999Z</time></trkpt><trkpt lat="45.53288478257003" lon="8.800412788627556"><ele>168.0</ele><time>2026-03-28T16:52:13.999Z</time></trkpt><trkpt lat="45.5326740331831" lon="8.80062293294375"><ele>168.0</ele><time>2026-03-28T16:52:14.999Z</time></trkpt><trkpt lat="45.53247458225203" lon="8.800835533648907"><ele>168.0</ele><time>2026-03-28T16:52:15.999Z</time></trkpt><trkpt lat="45.532268890161426" lon="8.801044513162228"><ele>168.0</ele><time>2026-03-28T16:52:16.999Z</time></trkpt><trkpt lat="45.53206606690042" lon="8.801278458448209"><ele>168.0</ele><time>2026-03-28T16:52:17.999Z</time></trkpt><trkpt lat="45.53187078797688" lon="8.801506382847084"><ele>168.5</ele><time>2026-03-28T16:52:18.999Z</time></trkpt><trkpt lat="45.53166949290338" lon="8.801751004852338"><ele>169.0</ele><time>2026-03-28T16:52:19.999Z</time></trkpt><trkpt lat="45.53146975598081" lon="8.802014453658451"><ele>169.5</ele><time>2026-03-28T16:52:20.999Z</time></trkpt><trkpt lat="45.53126221263234" lon="8.802295965214377"><ele>170.0</ele><time>2026-03-28T16:52:21.999Z</time></trkpt><trkpt lat="45.53105515159396" lon="8.802572416491582"><ele>169.0</ele><time>2026-03-28T16:52:22.999Z</time></trkpt><trkpt lat="45.53085505559423" lon="8.802856760348018"><ele>168.0</ele><time>2026-03-28T16:52:23.999Z</time></trkpt><trkpt lat="45.5306581233978" lon="8.803177880241927"><ele>168.0</ele><time>2026-03-28T16:52:24.999Z</time></trkpt><trkpt lat="45.53046428336657" lon="8.8034894900614"><ele>168.0</ele><time>2026-03-28T16:52:25.999Z</time></trkpt><trkpt lat="45.53027696773171" lon="8.80378607533969"><ele>168.0</ele><time>2026-03-28T16:52:26.999Z</time></trkpt><trkpt lat="45.53011342485224" lon="8.804097419272036"><ele>168.0</ele><time>2026-03-28T16:52:27.999Z</time></trkpt><trkpt lat="45.52994962535878" lon="8.804390992508447"><ele>168.0</ele><time>2026-03-28T16:52:28.999Z</time></trkpt><trkpt lat="45.52979348038675" lon="8.804683141220874"><ele>168.0</ele><time>2026-03-28T16:52:29.999Z</time></trkpt><trkpt lat="45.52964761601998" lon="8.804983092546466"><ele>167.0</ele><time>2026-03-28T16:52:30.999Z</time></trkpt><trkpt lat="45.52951109301681" lon="8.80528716742028"><ele>166.0</ele><time>2026-03-28T16:52:31.999Z</time></trkpt><trkpt lat="45.52937175105385" lon="8.805577219161977"><ele>166.0</ele><time>2026-03-28T16:52:32.999Z</time></trkpt><trkpt lat="45.529229308718875" lon="8.805862206643036"><ele>166.0</ele><time>2026-03-28T16:52:33.999Z</time></trkpt><trkpt lat="45.52909350463027" lon="8.80616650368807"><ele>166.0</ele><time>2026-03-28T16:52:34.999Z</time></trkpt><trkpt lat="45.528966004243394" lon="8.806470463482029"><ele>166.0</ele><time>2026-03-28T16:52:35.999Z</time></trkpt><trkpt lat="45.52883207266032" lon="8.806753762916744"><ele>165.5</ele><time>2026-03-28T16:52:36.999Z</time></trkpt><trkpt lat="45.52869061105511" lon="8.80703264258106"><ele>165.0</ele><time>2026-03-28T16:52:37.999Z</time></trkpt><trkpt lat="45.52856094891707" lon="8.80732661614104"><ele>165.0</ele><time>2026-03-28T16:52:38.999Z</time></trkpt><trkpt lat="45.52843520645026" lon="8.80760740016089"><ele>165.0</ele><time>2026-03-28T16:52:39.999Z</time></trkpt><trkpt lat="45.52830795097654" lon="8.807897474750217"><ele>166.0</ele><time>2026-03-28T16:52:40.999Z</time></trkpt><trkpt lat="45.528186014389306" lon="8.808184559649128"><ele>167.0</ele><time>2026-03-28T16:52:41.999Z</time></trkpt><trkpt lat="45.528057399158335" lon="8.808467152002866"><ele>167.0</ele><time>2026-03-28T16:52:42.999Z</time></trkpt><trkpt lat="45.52792455484272" lon="8.808748086778271"><ele>167.0</ele><time>2026-03-28T16:52:44Z</time></trkpt><trkpt lat="45.52779394043865" lon="8.8090469748462"><ele>167.0</ele><time>2026-03-28T16:52:45Z</time></trkpt><trkpt lat="45.52766173886699" lon="8.809321547703027"><ele>167.0</ele><time>2026-03-28T16:52:46Z</time></trkpt><trkpt lat="45.52752975119947" lon="8.809612056984863"><ele>167.0</ele><time>2026-03-28T16:52:47Z</time></trkpt><trkpt lat="45.527397058130774" lon="8.809902577171743"><ele>167.0</ele><time>2026-03-28T16:52:48.013Z</time></trkpt><trkpt lat="45.52726733433872" lon="8.810193338203558"><ele>167.0</ele><time>2026-03-28T16:52:49.018Z</time></trkpt><trkpt lat="45.52713894417229" lon="8.81048193533805"><ele>167.0</ele><time>2026-03-28T16:52:50.014Z</time></trkpt><trkpt lat="45.52700610650802" lon="8.81077140061388"><ele>167.0</ele><time>2026-03-28T16:52:51.017Z</time></trkpt><trkpt lat="45.5268788475136" lon="8.811065592776709"><ele>167.0</ele><time>2026-03-28T16:52:52Z</time></trkpt><trkpt lat="45.52679687705412" lon="8.811340558176845"><ele>167.0</ele><time>2026-03-28T16:52:53Z</time></trkpt><trkpt lat="45.5266707554431" lon="8.811600899187107"><ele>167.0</ele><time>2026-03-28T16:52:54Z</time></trkpt><trkpt lat="45.526543444474854" lon="8.811898857986183"><ele>167.5</ele><time>2026-03-28T16:52:55Z</time></trkpt><trkpt lat="45.52640240383029" lon="8.812204260345048"><ele>168.0</ele><time>2026-03-28T16:52:56Z</time></trkpt><trkpt lat="45.526273742819" lon="8.812481137513256"><ele>166.5</ele><time>2026-03-28T16:52:57Z</time></trkpt><trkpt lat="45.52614606819378" lon="8.812754108769829"><ele>165.0</ele><time>2026-03-28T16:52:58Z</time></trkpt><trkpt lat="45.52602011974261" lon="8.813026706917446"><ele>165.0</ele><time>2026-03-28T16:52:59Z</time></trkpt><trkpt lat="45.525891321342726" lon="8.813309062408347"><ele>165.0</ele><time>2026-03-28T16:53:00Z</time></trkpt><trkpt lat="45.52576377624233" lon="8.813572078386112"><ele>165.5</ele><time>2026-03-28T16:53:01Z</time></trkpt><trkpt lat="45.525622479357146" lon="8.81382900802571"><ele>166.0</ele><time>2026-03-28T16:53:02Z</time></trkpt><trkpt lat="45.52549473597523" lon="8.814115141023187"><ele>165.5</ele><time>2026-03-28T16:53:03Z</time></trkpt><trkpt lat="45.52535191457047" lon="8.814383617880281"><ele>165.0</ele><time>2026-03-28T16:53:04Z</time></trkpt><trkpt lat="45.52520712474975" lon="8.814648495703219"><ele>165.0</ele><time>2026-03-28T16:53:05Z</time></trkpt><trkpt lat="45.52505246403981" lon="8.814921533075536"><ele>165.0</ele><time>2026-03-28T16:53:06Z</time></trkpt><trkpt lat="45.52489975680955" lon="8.815177573234095"><ele>165.0</ele><time>2026-03-28T16:53:07Z</time></trkpt><trkpt lat="45.52474563451207" lon="8.81543144538314"><ele>165.0</ele><time>2026-03-28T16:53:08Z</time></trkpt><trkpt lat="45.52458990198234" lon="8.815688295503373"><ele>164.5</ele><time>2026-03-28T16:53:09Z</time></trkpt><trkpt lat="45.52443477603828" lon="8.815951336580616"><ele>164.0</ele><time>2026-03-28T16:53:10Z</time></trkpt><trkpt lat="45.52427004997071" lon="8.816192304978944"><ele>164.0</ele><time>2026-03-28T16:53:11Z</time></trkpt><trkpt lat="45.52410989658483" lon="8.816448594013048"><ele>164.0</ele><time>2026-03-28T16:53:12Z</time></trkpt><trkpt lat="45.523937840951085" lon="8.816689097561053"><ele>164.5</ele><time>2026-03-28T16:53:13Z</time></trkpt><trkpt lat="45.52376639102246" lon="8.81692631871267"><ele>165.0</ele><time>2026-03-28T16:53:14Z</time></trkpt><trkpt lat="45.52359465874964" lon="8.81715838034786"><ele>166.0</ele><time>2026-03-28T16:53:15Z</time></trkpt><trkpt lat="45.5234189450278" lon="8.817380679976335"><ele>167.0</ele><time>2026-03-28T16:53:16Z</time></trkpt><trkpt lat="45.52323405072444" lon="8.81760588017667"><ele>166.5</ele><time>2026-03-28T16:53:17Z</time></trkpt><trkpt lat="45.523043599166705" lon="8.817812039878033"><ele>166.0</ele><time>2026-03-28T16:53:18Z</time></trkpt><trkpt lat="45.522862658540355" lon="8.818021321265066"><ele>165.0</ele><time>2026-03-28T16:53:19Z</time></trkpt><trkpt lat="45.522668003232305" lon="8.81821844712622"><ele>164.0</ele><time>2026-03-28T16:53:20Z</time></trkpt><trkpt lat="45.522475252214456" lon="8.818416239485039"><ele>163.5</ele><time>2026-03-28T16:53:21Z</time></trkpt><trkpt lat="45.522282194213446" lon="8.818622284401624"><ele>163.0</ele><time>2026-03-28T16:53:22Z</time></trkpt><trkpt lat="45.52209011825692" lon="8.818826159791268"><ele>163.0</ele><time>2026-03-28T16:53:23Z</time></trkpt><trkpt lat="45.521894999315535" lon="8.819017511033131"><ele>163.0</ele><time>2026-03-28T16:53:24Z</time></trkpt><trkpt lat="45.5216941455885" lon="8.819196386394667"><ele>163.5</ele><time>2026-03-28T16:53:25Z</time></trkpt><trkpt lat="45.52149684140536" lon="8.81937803556962"><ele>164.0</ele><time>2026-03-28T16:53:26Z</time></trkpt><trkpt lat="45.52129216072128" lon="8.819549406347797"><ele>165.0</ele><time>2026-03-28T16:53:27Z</time></trkpt><trkpt lat="45.52108034341999" lon="8.819706635907398"><ele>166.0</ele><time>2026-03-28T16:53:28Z</time></trkpt><trkpt lat="45.520863509611566" lon="8.819868784947795"><ele>166.0</ele><time>2026-03-28T16:53:29Z</time></trkpt><trkpt lat="45.52065803724536" lon="8.820037632610823"><ele>166.0</ele><time>2026-03-28T16:53:30Z</time></trkpt><trkpt lat="45.52045092193816" lon="8.820177338019748"><ele>164.5</ele><time>2026-03-28T16:53:31Z</time></trkpt><trkpt lat="45.52023910801864" lon="8.820316979945893"><ele>163.0</ele><time>2026-03-28T16:53:32Z</time></trkpt><trkpt lat="45.52002022145513" lon="8.820443591101446"><ele>163.0</ele><time>2026-03-28T16:53:33Z</time></trkpt><trkpt lat="45.51980536770276" lon="8.820572607455908"><ele>163.0</ele><time>2026-03-28T16:53:34Z</time></trkpt><trkpt lat="45.51958388098295" lon="8.820697525981986"><ele>163.0</ele><time>2026-03-28T16:53:35Z</time></trkpt><trkpt lat="45.51936456335302" lon="8.820822291612775"><ele>163.0</ele><time>2026-03-28T16:53:36Z</time></trkpt><trkpt lat="45.51913583235204" lon="8.820938435387566"><ele>163.0</ele><time>2026-03-28T16:53:37Z</time></trkpt><trkpt lat="45.518913475484695" lon="8.821048865343"><ele>163.0</ele><time>2026-03-28T16:53:38Z</time></trkpt><trkpt lat="45.518690694201744" lon="8.821151013642812"><ele>163.0</ele><time>2026-03-28T16:53:39Z</time></trkpt><trkpt lat="45.51846263026455" lon="8.82123693906232"><ele>163.0</ele><time>2026-03-28T16:53:40Z</time></trkpt><trkpt lat="45.518243233741885" lon="8.821334533673411"><ele>163.0</ele><time>2026-03-28T16:53:41Z</time></trkpt><trkpt lat="45.518026349519914" lon="8.821422194106082"><ele>163.0</ele><time>2026-03-28T16:53:42Z</time></trkpt><trkpt lat="45.51780834348162" lon="8.821511556186552"><ele>163.0</ele><time>2026-03-28T16:53:43Z</time></trkpt><trkpt lat="45.51758410080736" lon="8.821581786649336"><ele>163.0</ele><time>2026-03-28T16:53:44Z</time></trkpt><trkpt lat="45.51737609267729" lon="8.82168155537888"><ele>163.0</ele><time>2026-03-28T16:53:45Z</time></trkpt><trkpt lat="45.51714645062292" lon="8.82180046213609"><ele>162.5</ele><time>2026-03-28T16:53:46Z</time></trkpt><trkpt lat="45.516917760032825" lon="8.82189849947001"><ele>162.0</ele><time>2026-03-28T16:53:47Z</time></trkpt><trkpt lat="45.51669566452068" lon="8.821997456486804"><ele>162.0</ele><time>2026-03-28T16:53:48Z</time></trkpt><trkpt lat="45.51647075200696" lon="8.822094052058493"><ele>162.0</ele><time>2026-03-28T16:53:49Z</time></trkpt><trkpt lat="45.51625136923714" lon="8.822195753423586"><ele>161.0</ele><time>2026-03-28T16:53:50Z</time></trkpt><trkpt lat="45.5160340280738" lon="8.822292604017381"><ele>160.0</ele><time>2026-03-28T16:53:50.999Z</time></trkpt><trkpt lat="45.51581277766222" lon="8.82239362535518"><ele>160.0</ele><time>2026-03-28T16:53:51.999Z</time></trkpt><trkpt lat="45.51558595350263" lon="8.822499551480453"><ele>160.0</ele><time>2026-03-28T16:53:52.999Z</time></trkpt><trkpt lat="45.51537003094285" lon="8.822601276870554"><ele>161.5</ele><time>2026-03-28T16:53:53.999Z</time></trkpt><trkpt lat="45.51515785380892" lon="8.822713061187082"><ele>163.0</ele><time>2026-03-28T16:53:54.999Z</time></trkpt><trkpt lat="45.51492880109526" lon="8.8228416030476"><ele>163.0</ele><time>2026-03-28T16:53:55.999Z</time></trkpt><trkpt lat="45.514712060408755" lon="8.822958410764908"><ele>163.0</ele><time>2026-03-28T16:53:56.999Z</time></trkpt><trkpt lat="45.51450169473498" lon="8.823092826474166"><ele>161.0</ele><time>2026-03-28T16:53:57.999Z</time></trkpt><trkpt lat="45.51429401286827" lon="8.823220227290022"><ele>159.0</ele><time>2026-03-28T16:53:58.999Z</time></trkpt><trkpt lat="45.51408687019327" lon="8.823357256783229"><ele>159.5</ele><time>2026-03-28T16:53:59.999Z</time></trkpt><trkpt lat="45.513877745101894" lon="8.823504241306024"><ele>160.0</ele><time>2026-03-28T16:54:00.999Z</time></trkpt><trkpt lat="45.51367532620554" lon="8.823644394823946"><ele>159.0</ele><time>2026-03-28T16:54:01.999Z</time></trkpt><trkpt lat="45.51347848146118" lon="8.823791666662135"><ele>158.0</ele><time>2026-03-28T16:54:02.999Z</time></trkpt><trkpt lat="45.51327617462632" lon="8.82394653636234"><ele>158.0</ele><time>2026-03-28T16:54:03.999Z</time></trkpt><trkpt lat="45.51307862438168" lon="8.824112307445526"><ele>158.0</ele><time>2026-03-28T16:54:04.999Z</time></trkpt><trkpt lat="45.512884999567774" lon="8.824292391052316"><ele>158.5</ele><time>2026-03-28T16:54:05.999Z</time></trkpt><trkpt lat="45.51269549042279" lon="8.824466172206051"><ele>159.0</ele><time>2026-03-28T16:54:06.999Z</time></trkpt><trkpt lat="45.512506490618506" lon="8.8246423977619"><ele>159.0</ele><time>2026-03-28T16:54:07.999Z</time></trkpt><trkpt lat="45.51231738415135" lon="8.824830314233798"><ele>159.0</ele><time>2026-03-28T16:54:09.012Z</time></trkpt><trkpt lat="45.51213134612913" lon="8.825021241140417"><ele>158.0</ele><time>2026-03-28T16:54:10.018Z</time></trkpt><trkpt lat="45.51195049313145" lon="8.825216000704753"><ele>157.0</ele><time>2026-03-28T16:54:11.015Z</time></trkpt><trkpt lat="45.51177344032731" lon="8.82541495810625"><ele>157.0</ele><time>2026-03-28T16:54:12.015Z</time></trkpt><trkpt lat="45.51021465822177" lon="8.827250776912617"><ele>159.0</ele><time>2026-03-28T16:54:15.757Z</time></trkpt><trkpt lat="45.50947512057358" lon="8.828183843814294"><ele>156.0</ele><time>2026-03-28T16:54:16.756Z</time></trkpt><trkpt lat="45.5087039805587" lon="8.829065712555352"><ele>156.0</ele><time>2026-03-28T16:54:17.756Z</time></trkpt><trkpt lat="45.50788956259002" lon="8.829864874100632"><ele>155.0</ele><time>2026-03-28T16:54:18.756Z</time></trkpt><trkpt lat="45.50619878980393" lon="8.83108920601902"><ele>155.0</ele><time>2026-03-28T16:54:40.999Z</time></trkpt><trkpt lat="45.50604257621067" lon="8.831335365395498"><ele>155.0</ele><time>2026-03-28T16:54:41.999Z</time></trkpt><trkpt lat="45.505827794742764" lon="8.831431979559676"><ele>155.0</ele><time>2026-03-28T16:54:42.999Z</time></trkpt><trkpt lat="45.50561261018264" lon="8.831556157829121"><ele>155.0</ele><time>2026-03-28T16:54:43.999Z</time></trkpt><trkpt lat="45.50541295838463" lon="8.831671563127463"><ele>155.0</ele><time>2026-03-28T16:54:44.999Z</time></trkpt><trkpt lat="45.50520496233986" lon="8.831799157811528"><ele>154.66666666666666</ele><time>2026-03-28T16:54:45.999Z</time></trkpt><trkpt lat="45.504994718702775" lon="8.83191072443273"><ele>154.33333333333334</ele><time>2026-03-28T16:54:46.999Z</time></trkpt><trkpt lat="45.50478867380992" lon="8.831996805257152"><ele>154.0</ele><time>2026-03-28T16:54:47.999Z</time></trkpt><trkpt lat="45.50458187888575" lon="8.832118456723206"><ele>154.33333333333334</ele><time>2026-03-28T16:54:49Z</time></trkpt><trkpt lat="45.504372267912785" lon="8.83221106867861"><ele>154.66666666666666</ele><time>2026-03-28T16:54:50Z</time></trkpt><trkpt lat="45.504164567234064" lon="8.832335186421561"><ele>155.0</ele><time>2026-03-28T16:54:51Z</time></trkpt><trkpt lat="45.50395871631355" lon="8.832448901863298"><ele>155.0</ele><time>2026-03-28T16:54:52Z</time></trkpt><trkpt lat="45.50375444175315" lon="8.832562070286087"><ele>155.0</ele><time>2026-03-28T16:54:53Z</time></trkpt><trkpt lat="45.50355061351672" lon="8.832692557708882"><ele>155.0</ele><time>2026-03-28T16:54:54Z</time></trkpt><trkpt lat="45.50334023180269" lon="8.83282472179826"><ele>155.0</ele><time>2026-03-28T16:54:55Z</time></trkpt><trkpt lat="45.50314277876093" lon="8.832951158117233"><ele>155.0</ele><time>2026-03-28T16:54:56Z</time></trkpt><trkpt lat="45.50294266215288" lon="8.833092557434107"><ele>155.0</ele><time>2026-03-28T16:54:57Z</time></trkpt><trkpt lat="45.502746562638535" lon="8.83323024965206"><ele>155.0</ele><time>2026-03-28T16:54:58Z</time></trkpt><trkpt lat="45.5025514941236" lon="8.833384170414526"><ele>155.0</ele><time>2026-03-28T16:54:59Z</time></trkpt><trkpt lat="45.50235327681101" lon="8.833542938031142"><ele>155.0</ele><time>2026-03-28T16:55:00.017Z</time></trkpt><trkpt lat="45.50215917213854" lon="8.833705752643588"><ele>155.0</ele><time>2026-03-28T16:55:01.017Z</time></trkpt><trkpt lat="45.50196659478455" lon="8.833872218946498"><ele>155.0</ele><time>2026-03-28T16:55:02.014Z</time></trkpt><trkpt lat="45.501773970653204" lon="8.834042750191438"><ele>155.0</ele><time>2026-03-28T16:55:03.017Z</time></trkpt><trkpt lat="45.50158843918214" lon="8.834224322974523"><ele>154.66666666666666</ele><time>2026-03-28T16:55:04Z</time></trkpt><trkpt lat="45.501415381672906" lon="8.834389870642049"><ele>154.33333333333334</ele><time>2026-03-28T16:55:05Z</time></trkpt><trkpt lat="45.5012260723904" lon="8.834561575041446"><ele>154.0</ele><time>2026-03-28T16:55:06Z</time></trkpt><trkpt lat="45.50103293062565" lon="8.834737670208868"><ele>153.0</ele><time>2026-03-28T16:55:07Z</time></trkpt><trkpt lat="45.500852027880484" lon="8.834928444240497"><ele>152.0</ele><time>2026-03-28T16:55:08Z</time></trkpt><trkpt lat="45.500666289048326" lon="8.83511488345587"><ele>152.0</ele><time>2026-03-28T16:55:09Z</time></trkpt><trkpt lat="45.500481714542474" lon="8.83530574155587"><ele>152.0</ele><time>2026-03-28T16:55:10Z</time></trkpt><trkpt lat="45.50030086579182" lon="8.835480843253743"><ele>152.0</ele><time>2026-03-28T16:55:11Z</time></trkpt><trkpt lat="45.50011884816921" lon="8.835671139344178"><ele>151.66666666666666</ele><time>2026-03-28T16:55:12Z</time></trkpt><trkpt lat="45.49993642640563" lon="8.835877229092704"><ele>151.33333333333334</ele><time>2026-03-28T16:55:13Z</time></trkpt><trkpt lat="45.49976105875225" lon="8.836036521898473"><ele>151.0</ele><time>2026-03-28T16:55:14Z</time></trkpt><trkpt lat="45.49958727240719" lon="8.836226530496162"><ele>151.66666666666669</ele><time>2026-03-28T16:55:15Z</time></trkpt><trkpt lat="45.49940921137776" lon="8.836404563701434"><ele>152.33333333333334</ele><time>2026-03-28T16:55:16Z</time></trkpt><trkpt lat="45.49923913591074" lon="8.836598729467259"><ele>153.0</ele><time>2026-03-28T16:55:17Z</time></trkpt><trkpt lat="45.49905667536526" lon="8.836771748942851"><ele>153.0</ele><time>2026-03-28T16:55:18Z</time></trkpt><trkpt lat="45.49888467896346" lon="8.83696088536564"><ele>153.0</ele><time>2026-03-28T16:55:19Z</time></trkpt><trkpt lat="45.498715245389334" lon="8.837132403608507"><ele>153.0</ele><time>2026-03-28T16:55:20Z</time></trkpt><trkpt lat="45.498557212148455" lon="8.837321018644348"><ele>153.0</ele><time>2026-03-28T16:55:21Z</time></trkpt><trkpt lat="45.49839580378608" lon="8.83749625483978"><ele>153.0</ele><time>2026-03-28T16:55:22Z</time></trkpt><trkpt lat="45.49823676628305" lon="8.837669798409756"><ele>153.0</ele><time>2026-03-28T16:55:23Z</time></trkpt><trkpt lat="45.49808440703991" lon="8.837835932248604"><ele>153.0</ele><time>2026-03-28T16:55:24Z</time></trkpt><trkpt lat="45.49792638788978" lon="8.838011256312633"><ele>153.0</ele><time>2026-03-28T16:55:25Z</time></trkpt><trkpt lat="45.49776970608769" lon="8.838162361154533"><ele>153.0</ele><time>2026-03-28T16:55:26Z</time></trkpt><trkpt lat="45.49761817378324" lon="8.83832300329687"><ele>152.33333333333334</ele><time>2026-03-28T16:55:27Z</time></trkpt><trkpt lat="45.49746947512749" lon="8.838485431976366"><ele>151.66666666666669</ele><time>2026-03-28T16:55:28Z</time></trkpt><trkpt lat="45.497312376766594" lon="8.838666233890466"><ele>151.0</ele><time>2026-03-28T16:55:29Z</time></trkpt><trkpt lat="45.49715432631589" lon="8.838826245092298"><ele>151.66666666666669</ele><time>2026-03-28T16:55:30Z</time></trkpt><trkpt lat="45.49699557175073" lon="8.83898151476558"><ele>152.33333333333334</ele><time>2026-03-28T16:55:31Z</time></trkpt><trkpt lat="45.49683443424617" lon="8.839146072139323"><ele>153.0</ele><time>2026-03-28T16:55:32Z</time></trkpt><trkpt lat="45.496678315856414" lon="8.83929291389099"><ele>152.66666666666666</ele><time>2026-03-28T16:55:33Z</time></trkpt><trkpt lat="45.49651680874913" lon="8.83945107122701"><ele>152.33333333333331</ele><time>2026-03-28T16:55:34Z</time></trkpt><trkpt lat="45.49634970860577" lon="8.839611483209175"><ele>152.0</ele><time>2026-03-28T16:55:35Z</time></trkpt><trkpt lat="45.496185326224776" lon="8.839750872307917"><ele>152.0</ele><time>2026-03-28T16:55:36Z</time></trkpt><trkpt lat="45.49601640654392" lon="8.83990964291738"><ele>152.0</ele><time>2026-03-28T16:55:37Z</time></trkpt><trkpt lat="45.49585704372851" lon="8.840049735397999"><ele>152.0</ele><time>2026-03-28T16:55:38Z</time></trkpt><trkpt lat="45.49570138725093" lon="8.840181786292257"><ele>152.0</ele><time>2026-03-28T16:55:39Z</time></trkpt><trkpt lat="45.495543852744255" lon="8.840310894152756"><ele>152.0</ele><time>2026-03-28T16:55:40Z</time></trkpt><trkpt lat="45.49538452484734" lon="8.840457303195095"><ele>152.0</ele><time>2026-03-28T16:55:41Z</time></trkpt><trkpt lat="45.49522816651956" lon="8.840595792806976"><ele>151.33333333333331</ele><time>2026-03-28T16:55:42Z</time></trkpt><trkpt lat="45.49507217449365" lon="8.840726777325653"><ele>150.66666666666666</ele><time>2026-03-28T16:55:43Z</time></trkpt><trkpt lat="45.4949198856381" lon="8.840852430168141"><ele>150.0</ele><time>2026-03-28T16:55:44Z</time></trkpt><trkpt lat="45.4947815024059" lon="8.840964006756987"><ele>150.0</ele><time>2026-03-28T16:55:45Z</time></trkpt><trkpt lat="45.49462980986952" lon="8.841087697594174"><ele>150.0</ele><time>2026-03-28T16:55:46Z</time></trkpt><trkpt lat="45.49448010515528" lon="8.841204136652857"><ele>150.0</ele><time>2026-03-28T16:55:46.999Z</time></trkpt><trkpt lat="45.494331036143436" lon="8.841341221931279"><ele>150.66666666666666</ele><time>2026-03-28T16:55:47.999Z</time></trkpt><trkpt lat="45.494174979107044" lon="8.841488982449432"><ele>151.33333333333331</ele><time>2026-03-28T16:55:48.999Z</time></trkpt><trkpt lat="45.49401233008817" lon="8.841645484554094"><ele>152.0</ele><time>2026-03-28T16:55:49.999Z</time></trkpt><trkpt lat="45.4938471441234" lon="8.841792129849974"><ele>150.66666666666666</ele><time>2026-03-28T16:55:50.999Z</time></trkpt><trkpt lat="45.49368768304216" lon="8.84193233562409"><ele>149.33333333333334</ele><time>2026-03-28T16:55:51.999Z</time></trkpt><trkpt lat="45.49351758764723" lon="8.842087968963142"><ele>148.0</ele><time>2026-03-28T16:55:52.999Z</time></trkpt><trkpt lat="45.49335633397237" lon="8.842234610106718"><ele>148.0</ele><time>2026-03-28T16:55:53.999Z</time></trkpt><trkpt lat="45.49319143906575" lon="8.842381610228163"><ele>148.0</ele><time>2026-03-28T16:55:54.999Z</time></trkpt><trkpt lat="45.493020051024885" lon="8.84253001106532"><ele>148.0</ele><time>2026-03-28T16:55:55.999Z</time></trkpt><trkpt lat="45.49284658044287" lon="8.842667934151867"><ele>148.66666666666669</ele><time>2026-03-28T16:55:56.999Z</time></trkpt><trkpt lat="45.49266385776993" lon="8.842816301028895"><ele>149.33333333333334</ele><time>2026-03-28T16:55:57.999Z</time></trkpt><trkpt lat="45.492480299996764" lon="8.842972247965616"><ele>150.0</ele><time>2026-03-28T16:55:58.999Z</time></trkpt><trkpt lat="45.4923018150753" lon="8.843120980204194"><ele>150.0</ele><time>2026-03-28T16:55:59.999Z</time></trkpt><trkpt lat="45.492117280255066" lon="8.843266818708244"><ele>150.0</ele><time>2026-03-28T16:56:00.999Z</time></trkpt><trkpt lat="45.49194495769446" lon="8.843413741064616"><ele>150.0</ele><time>2026-03-28T16:56:01.999Z</time></trkpt><trkpt lat="45.491767517098715" lon="8.843558424170292"><ele>149.66666666666666</ele><time>2026-03-28T16:56:02.999Z</time></trkpt><trkpt lat="45.49158626089497" lon="8.843693706750974"><ele>149.33333333333331</ele><time>2026-03-28T16:56:03.999Z</time></trkpt><trkpt lat="45.49139649284806" lon="8.843822141003473"><ele>149.0</ele><time>2026-03-28T16:56:04.999Z</time></trkpt><trkpt lat="45.491220625068145" lon="8.84395197549427"><ele>148.0</ele><time>2026-03-28T16:56:05.999Z</time></trkpt><trkpt lat="45.49106239518713" lon="8.844054373903477"><ele>147.0</ele><time>2026-03-28T16:56:06.999Z</time></trkpt><trkpt lat="45.49088170575855" lon="8.844187656243555"><ele>146.0</ele><time>2026-03-28T16:56:07.999Z</time></trkpt><trkpt lat="45.4907188439188" lon="8.844276199378378"><ele>145.66666666666666</ele><time>2026-03-28T16:56:08.999Z</time></trkpt><trkpt lat="45.4905519250367" lon="8.84439766247261"><ele>145.33333333333334</ele><time>2026-03-28T16:56:09.999Z</time></trkpt><trkpt lat="45.49038492169015" lon="8.84452737740043"><ele>145.0</ele><time>2026-03-28T16:56:10.999Z</time></trkpt><trkpt lat="45.49021319877782" lon="8.844643631080386"><ele>145.0</ele><time>2026-03-28T16:56:11.999Z</time></trkpt><trkpt lat="45.49003102967127" lon="8.844743784682978"><ele>145.0</ele><time>2026-03-28T16:56:12.999Z</time></trkpt><trkpt lat="45.489853704953276" lon="8.84486585594206"><ele>145.0</ele><time>2026-03-28T16:56:13.999Z</time></trkpt><trkpt lat="45.48966894836072" lon="8.844955149499377"><ele>145.33333333333334</ele><time>2026-03-28T16:56:14.999Z</time></trkpt><trkpt lat="45.489491928205666" lon="8.845072944688628"><ele>145.66666666666666</ele><time>2026-03-28T16:56:15.999Z</time></trkpt><trkpt lat="45.48933907997844" lon="8.845145253872342"><ele>146.0</ele><time>2026-03-28T16:56:16.999Z</time></trkpt><trkpt lat="45.489194776851846" lon="8.845237407068998"><ele>146.0</ele><time>2026-03-28T16:56:17.999Z</time></trkpt><trkpt lat="45.48905288631476" lon="8.845294194541177"><ele>146.0</ele><time>2026-03-28T16:56:18.999Z</time></trkpt><trkpt lat="45.48891006613381" lon="8.845351772360537"><ele>146.0</ele><time>2026-03-28T16:56:19.999Z</time></trkpt><trkpt lat="45.48878073585429" lon="8.845398968557143"><ele>146.0</ele><time>2026-03-28T16:56:20.999Z</time></trkpt><trkpt lat="45.48865041976024" lon="8.845475890460152"><ele>146.0</ele><time>2026-03-28T16:56:21.999Z</time></trkpt><trkpt lat="45.48851568669759" lon="8.845560075024741"><ele>146.0</ele><time>2026-03-28T16:56:22.999Z</time></trkpt><trkpt lat="45.488398566075986" lon="8.845623055790194"><ele>146.0</ele><time>2026-03-28T16:56:23.999Z</time></trkpt><trkpt lat="45.48828971688867" lon="8.845683579934846"><ele>146.0</ele><time>2026-03-28T16:56:24.999Z</time></trkpt><trkpt lat="45.488185317605854" lon="8.845742854096622"><ele>146.0</ele><time>2026-03-28T16:56:25.999Z</time></trkpt><trkpt lat="45.48809156583728" lon="8.845791315609771"><ele>146.0</ele><time>2026-03-28T16:56:26.999Z</time></trkpt><trkpt lat="45.488022009765" lon="8.845807677960282"><ele>146.0</ele><time>2026-03-28T16:56:27.999Z</time></trkpt><trkpt lat="45.48795623183186" lon="8.845836663605883"><ele>146.0</ele><time>2026-03-28T16:56:30.999Z</time></trkpt><trkpt lat="45.48785076110927" lon="8.84583017132035"><ele>146.0</ele><time>2026-03-28T16:56:39.999Z</time></trkpt><trkpt lat="45.48777844106922" lon="8.845771349211773"><ele>146.0</ele><time>2026-03-28T16:56:40.999Z</time></trkpt><trkpt lat="45.4876745457408" lon="8.84575377500002"><ele>146.0</ele><time>2026-03-28T16:56:41.999Z</time></trkpt><trkpt lat="45.48755097680581" lon="8.84579058183381"><ele>146.0</ele><time>2026-03-28T16:56:42.999Z</time></trkpt><trkpt lat="45.487444710942775" lon="8.845865801366642"><ele>146.0</ele><time>2026-03-28T16:56:43.999Z</time></trkpt><trkpt lat="45.487363177692835" lon="8.845948200869639"><ele>146.0</ele><time>2026-03-28T16:56:44.999Z</time></trkpt><trkpt lat="45.48728942146557" lon="8.846104492041716"><ele>146.0</ele><time>2026-03-28T16:56:45.999Z</time></trkpt><trkpt lat="45.48725547250831" lon="8.846275083015575"><ele>146.0</ele><time>2026-03-28T16:56:46.999Z</time></trkpt><trkpt lat="45.487262090494454" lon="8.846466078613526"><ele>146.0</ele><time>2026-03-28T16:56:47.999Z</time></trkpt><trkpt lat="45.48729217138159" lon="8.846700332347321"><ele>146.0</ele><time>2026-03-28T16:56:48.999Z</time></trkpt><trkpt lat="45.487340975942175" lon="8.846846389259914"><ele>145.8</ele><time>2026-03-28T16:56:49.999Z</time></trkpt><trkpt lat="45.48736973263432" lon="8.847017634641317"><ele>145.6</ele><time>2026-03-28T16:56:50.999Z</time></trkpt><trkpt lat="45.48742636756743" lon="8.84715506172335"><ele>145.4</ele><time>2026-03-28T16:56:51.999Z</time></trkpt><trkpt lat="45.4874934317199" lon="8.847267743536474"><ele>145.2</ele><time>2026-03-28T16:56:52.999Z</time></trkpt><trkpt lat="45.48756668685357" lon="8.8473493977418"><ele>145.0</ele><time>2026-03-28T16:56:53.999Z</time></trkpt><trkpt lat="45.48763557975789" lon="8.847414370521824"><ele>146.0</ele><time>2026-03-28T16:56:55Z</time></trkpt><trkpt lat="45.48798957520987" lon="8.847474826842095"><ele>147.0</ele><time>2026-03-28T16:56:56Z</time></trkpt><trkpt lat="45.48809511305493" lon="8.847604247022812"><ele>146.5</ele><time>2026-03-28T16:56:57Z</time></trkpt><trkpt lat="45.48819123452768" lon="8.847713005917734"><ele>146.0</ele><time>2026-03-28T16:56:58Z</time></trkpt><trkpt lat="45.488207880360406" lon="8.847945335263168"><ele>145.5</ele><time>2026-03-28T16:56:59Z</time></trkpt><trkpt lat="45.48826390418607" lon="8.848161625236429"><ele>145.0</ele><time>2026-03-28T16:57:00Z</time></trkpt><trkpt lat="45.48831303728915" lon="8.848381776223333"><ele>144.66666666666669</ele><time>2026-03-28T16:57:01Z</time></trkpt><trkpt lat="45.488381613023684" lon="8.848588263033875"><ele>144.33333333333334</ele><time>2026-03-28T16:57:02Z</time></trkpt><trkpt lat="45.48845909106925" lon="8.848784054439982"><ele>144.0</ele><time>2026-03-28T16:57:03Z</time></trkpt><trkpt lat="45.48855621156443" lon="8.849000859836236"><ele>144.0</ele><time>2026-03-28T16:57:04Z</time></trkpt><trkpt lat="45.488643199397536" lon="8.849207882028825"><ele>144.0</ele><time>2026-03-28T16:57:05Z</time></trkpt><trkpt lat="45.48872015004346" lon="8.84942067645711"><ele>144.0</ele><time>2026-03-28T16:57:06Z</time></trkpt><trkpt lat="45.48879485344744" lon="8.849640241651352"><ele>144.0</ele><time>2026-03-28T16:57:07Z</time></trkpt><trkpt lat="45.48887138643875" lon="8.849846555650341"><ele>144.0</ele><time>2026-03-28T16:57:08Z</time></trkpt><trkpt lat="45.48894892371455" lon="8.850044065715322"><ele>144.0</ele><time>2026-03-28T16:57:09Z</time></trkpt><trkpt lat="45.489003150910875" lon="8.850257725257924"><ele>144.66666666666666</ele><time>2026-03-28T16:57:10Z</time></trkpt><trkpt lat="45.489058215114795" lon="8.850489918083156"><ele>145.33333333333331</ele><time>2026-03-28T16:57:11Z</time></trkpt><trkpt lat="45.489094553790466" lon="8.850729072914929"><ele>146.0</ele><time>2026-03-28T16:57:12Z</time></trkpt><trkpt lat="45.48913441786192" lon="8.850966787734569"><ele>146.0</ele><time>2026-03-28T16:57:13Z</time></trkpt><trkpt lat="45.489151899913836" lon="8.85120763195585"><ele>146.0</ele><time>2026-03-28T16:57:14Z</time></trkpt><trkpt lat="45.48916972929533" lon="8.851444711720589"><ele>146.0</ele><time>2026-03-28T16:57:15Z</time></trkpt><trkpt lat="45.48917349741472" lon="8.851680893554962"><ele>146.33333333333331</ele><time>2026-03-28T16:57:16Z</time></trkpt><trkpt lat="45.48917342060892" lon="8.851912970650288"><ele>146.66666666666666</ele><time>2026-03-28T16:57:17Z</time></trkpt><trkpt lat="45.489179754974565" lon="8.852150582379256"><ele>147.0</ele><time>2026-03-28T16:57:18Z</time></trkpt><trkpt lat="45.48919086660888" lon="8.852391788524532"><ele>147.66666666666666</ele><time>2026-03-28T16:57:19Z</time></trkpt><trkpt lat="45.48919515101299" lon="8.852634287717313"><ele>148.33333333333331</ele><time>2026-03-28T16:57:20Z</time></trkpt><trkpt lat="45.48920058212765" lon="8.852854230499732"><ele>149.0</ele><time>2026-03-28T16:57:21Z</time></trkpt><trkpt lat="45.48921245911468" lon="8.85305518022739"><ele>149.0</ele><time>2026-03-28T16:57:22Z</time></trkpt><trkpt lat="45.48922761911527" lon="8.853277825849768"><ele>149.0</ele><time>2026-03-28T16:57:23Z</time></trkpt><trkpt lat="45.48922838404768" lon="8.853497325056958"><ele>149.0</ele><time>2026-03-28T16:57:24Z</time></trkpt><trkpt lat="45.48923070370888" lon="8.853719415011264"><ele>148.0</ele><time>2026-03-28T16:57:25Z</time></trkpt><trkpt lat="45.48924113304041" lon="8.85396757600322"><ele>147.0</ele><time>2026-03-28T16:57:26Z</time></trkpt><trkpt lat="45.4892411306624" lon="8.854224842603756"><ele>146.0</ele><time>2026-03-28T16:57:27Z</time></trkpt><trkpt lat="45.4892475462136" lon="8.85448975589411"><ele>145.66666666666666</ele><time>2026-03-28T16:57:28Z</time></trkpt><trkpt lat="45.489240578037695" lon="8.854728218688118"><ele>145.33333333333334</ele><time>2026-03-28T16:57:29Z</time></trkpt><trkpt lat="45.48924687334869" lon="8.854986623666145"><ele>145.0</ele><time>2026-03-28T16:57:30Z</time></trkpt><trkpt lat="45.489244894292575" lon="8.855233637443662"><ele>145.66666666666669</ele><time>2026-03-28T16:57:31Z</time></trkpt><trkpt lat="45.48924558397492" lon="8.855518972405974"><ele>146.33333333333334</ele><time>2026-03-28T16:57:32Z</time></trkpt><trkpt lat="45.48926266016478" lon="8.855767791837078"><ele>147.0</ele><time>2026-03-28T16:57:33Z</time></trkpt><trkpt lat="45.48928165659338" lon="8.856001055255824"><ele>147.0</ele><time>2026-03-28T16:57:34Z</time></trkpt><trkpt lat="45.489296658194526" lon="8.856255298612323"><ele>147.0</ele><time>2026-03-28T16:57:35Z</time></trkpt><trkpt lat="45.48931230503231" lon="8.85652355311193"><ele>147.0</ele><time>2026-03-28T16:57:36Z</time></trkpt><trkpt lat="45.48931008893725" lon="8.856772940584047"><ele>147.0</ele><time>2026-03-28T16:57:37Z</time></trkpt><trkpt lat="45.489316863039356" lon="8.857029354206952"><ele>147.0</ele><time>2026-03-28T16:57:38Z</time></trkpt><trkpt lat="45.48932575391613" lon="8.857271545958524"><ele>147.0</ele><time>2026-03-28T16:57:39Z</time></trkpt><trkpt lat="45.48934420844846" lon="8.85749321606566"><ele>146.75</ele><time>2026-03-28T16:57:40Z</time></trkpt><trkpt lat="45.489381021014594" lon="8.857703640935984"><ele>146.5</ele><time>2026-03-28T16:57:41Z</time></trkpt><trkpt lat="45.48942685110088" lon="8.857896175889932"><ele>146.25</ele><time>2026-03-28T16:57:42Z</time></trkpt><trkpt lat="45.48950365848143" lon="8.858077018631437"><ele>146.0</ele><time>2026-03-28T16:57:43Z</time></trkpt><trkpt lat="45.48957009034555" lon="8.85821050252979"><ele>146.25</ele><time>2026-03-28T16:57:44Z</time></trkpt><trkpt lat="45.489668058101216" lon="8.858351984965255"><ele>146.5</ele><time>2026-03-28T16:57:45Z</time></trkpt><trkpt lat="45.48976365679034" lon="8.85847737019082"><ele>146.75</ele><time>2026-03-28T16:57:46Z</time></trkpt><trkpt lat="45.48987504973562" lon="8.858581452144417"><ele>147.0</ele><time>2026-03-28T16:57:47Z</time></trkpt><trkpt lat="45.48999876592954" lon="8.85864230922711"><ele>147.0</ele><time>2026-03-28T16:57:48Z</time></trkpt><trkpt lat="45.490070332224676" lon="8.858744037205328"><ele>147.0</ele><time>2026-03-28T16:57:49Z</time></trkpt><trkpt lat="45.490191165479295" lon="8.858819459460904"><ele>147.0</ele><time>2026-03-28T16:57:50Z</time></trkpt><trkpt lat="45.4903266959457" lon="8.858894877343339"><ele>147.0</ele><time>2026-03-28T16:57:51Z</time></trkpt><trkpt lat="45.49045131266587" lon="8.858961960353973"><ele>147.25</ele><time>2026-03-28T16:57:52Z</time></trkpt><trkpt lat="45.490587338119454" lon="8.859035373889922"><ele>147.5</ele><time>2026-03-28T16:57:53Z</time></trkpt><trkpt lat="45.49070121101606" lon="8.859126676615686"><ele>147.75</ele><time>2026-03-28T16:57:54Z</time></trkpt><trkpt lat="45.490808905484585" lon="8.859232010739925"><ele>148.0</ele><time>2026-03-28T16:57:55Z</time></trkpt><trkpt lat="45.490902209875074" lon="8.859325525258916"><ele>148.0</ele><time>2026-03-28T16:57:56Z</time></trkpt><trkpt lat="45.49098656496481" lon="8.859473013873673"><ele>148.0</ele><time>2026-03-28T16:57:57Z</time></trkpt><trkpt lat="45.4910552612226" lon="8.859610540151143"><ele>148.0</ele><time>2026-03-28T16:57:58Z</time></trkpt><trkpt lat="45.4911021097401" lon="8.859765751215203"><ele>148.0</ele><time>2026-03-28T16:57:59Z</time></trkpt><trkpt lat="45.49115354231402" lon="8.8599390185299"><ele>148.0</ele><time>2026-03-28T16:57:59.999Z</time></trkpt><trkpt lat="45.491186749559404" lon="8.860113237484569"><ele>148.0</ele><time>2026-03-28T16:58:00.999Z</time></trkpt><trkpt lat="45.49122522576281" lon="8.8602984145165"><ele>148.0</ele><time>2026-03-28T16:58:01.999Z</time></trkpt><trkpt lat="45.49125231278543" lon="8.860501115032484"><ele>148.0</ele><time>2026-03-28T16:58:02.999Z</time></trkpt><trkpt lat="45.49128440300099" lon="8.860710013967758"><ele>148.0</ele><time>2026-03-28T16:58:03.999Z</time></trkpt><trkpt lat="45.49131357456326" lon="8.860907201977406"><ele>148.0</ele><time>2026-03-28T16:58:04.999Z</time></trkpt><trkpt lat="45.491359396725095" lon="8.86110684680196"><ele>148.0</ele><time>2026-03-28T16:58:05.999Z</time></trkpt><trkpt lat="45.491387404070956" lon="8.861306278039251"><ele>148.0</ele><time>2026-03-28T16:58:06.999Z</time></trkpt><trkpt lat="45.49142049723113" lon="8.861508724951003"><ele>148.0</ele><time>2026-03-28T16:58:07.999Z</time></trkpt><trkpt lat="45.491444806158654" lon="8.861720895016918"><ele>148.0</ele><time>2026-03-28T16:58:08.999Z</time></trkpt><trkpt lat="45.491484271683206" lon="8.861950284656391"><ele>148.0</ele><time>2026-03-28T16:58:09.999Z</time></trkpt><trkpt lat="45.49150648664632" lon="8.862178869916807"><ele>148.0</ele><time>2026-03-28T16:58:10.999Z</time></trkpt><trkpt lat="45.49155085979966" lon="8.862392754766864"><ele>148.0</ele><time>2026-03-28T16:58:11.999Z</time></trkpt><trkpt lat="45.491578776059484" lon="8.862569591642941"><ele>148.0</ele><time>2026-03-28T16:58:12.999Z</time></trkpt><trkpt lat="45.491596727354434" lon="8.862785038896783"><ele>148.0</ele><time>2026-03-28T16:58:13.999Z</time></trkpt><trkpt lat="45.49162506267059" lon="8.862973294605423"><ele>148.0</ele><time>2026-03-28T16:58:14.999Z</time></trkpt><trkpt lat="45.49164433814239" lon="8.863161971450092"><ele>148.0</ele><time>2026-03-28T16:58:15.999Z</time></trkpt><trkpt lat="45.491670503504146" lon="8.86333768412367"><ele>148.0</ele><time>2026-03-28T16:58:16.999Z</time></trkpt><trkpt lat="45.49170099900282" lon="8.863501234218164"><ele>148.0</ele><time>2026-03-28T16:58:17.999Z</time></trkpt><trkpt lat="45.491725504501126" lon="8.86365422565248"><ele>148.20000000000002</ele><time>2026-03-28T16:58:18.999Z</time></trkpt><trkpt lat="45.491740229599" lon="8.863800629262759"><ele>148.4</ele><time>2026-03-28T16:58:19.999Z</time></trkpt><trkpt lat="45.491762482893776" lon="8.863962422976863"><ele>148.60000000000002</ele><time>2026-03-28T16:58:20.999Z</time></trkpt><trkpt lat="45.4917838023183" lon="8.86411790858492"><ele>148.8</ele><time>2026-03-28T16:58:21.999Z</time></trkpt><trkpt lat="45.491798139934915" lon="8.864222474889754"><ele>149.0</ele><time>2026-03-28T16:58:22.999Z</time></trkpt><trkpt lat="45.49180308189028" lon="8.864317873715098"><ele>148.66666666666666</ele><time>2026-03-28T16:58:23.999Z</time></trkpt><trkpt lat="45.49180563738115" lon="8.864418976494408"><ele>148.33333333333331</ele><time>2026-03-28T16:58:24.999Z</time></trkpt><trkpt lat="45.49183765503463" lon="8.864582747074945"><ele>148.0</ele><time>2026-03-28T16:58:26.999Z</time></trkpt><trkpt lat="45.491829065415715" lon="8.864697756681764"><ele>147.66666666666666</ele><time>2026-03-28T16:58:27.999Z</time></trkpt><trkpt lat="45.49181927635102" lon="8.864809266342778"><ele>147.33333333333334</ele><time>2026-03-28T16:58:28.999Z</time></trkpt><trkpt lat="45.491808930324105" lon="8.864928043010437"><ele>147.0</ele><time>2026-03-28T16:58:29.999Z</time></trkpt><trkpt lat="45.49181087963158" lon="8.865051921369396"><ele>147.0</ele><time>2026-03-28T16:58:30.999Z</time></trkpt><trkpt lat="45.49184273716341" lon="8.865166073770126"><ele>147.0</ele><time>2026-03-28T16:58:31.999Z</time></trkpt><trkpt lat="45.49188773844981" lon="8.865256288777408"><ele>147.0</ele><time>2026-03-28T16:58:32.999Z</time></trkpt><trkpt lat="45.491956970279396" lon="8.865368652000804"><ele>147.0</ele><time>2026-03-28T16:58:33.999Z</time></trkpt><trkpt lat="45.49201044915497" lon="8.865492775463574"><ele>147.0</ele><time>2026-03-28T16:58:34.999Z</time></trkpt><trkpt lat="45.492038257731345" lon="8.865652361577318"><ele>147.0</ele><time>2026-03-28T16:58:35.999Z</time></trkpt><trkpt lat="45.492079707405" lon="8.865832979582624"><ele>147.0</ele><time>2026-03-28T16:58:36.999Z</time></trkpt><trkpt lat="45.492111014919494" lon="8.866029379797812"><ele>147.0</ele><time>2026-03-28T16:58:37.999Z</time></trkpt><trkpt lat="45.49214698058598" lon="8.866239339944974"><ele>147.0</ele><time>2026-03-28T16:58:38.999Z</time></trkpt><trkpt lat="45.49219465770875" lon="8.866451253832576"><ele>146.66666666666666</ele><time>2026-03-28T16:58:39.999Z</time></trkpt><trkpt lat="45.492237261342936" lon="8.86667187453196"><ele>146.33333333333331</ele><time>2026-03-28T16:58:40.999Z</time></trkpt><trkpt lat="45.49228816095755" lon="8.86688436448473"><ele>146.0</ele><time>2026-03-28T16:58:41.999Z</time></trkpt><trkpt lat="45.49233126525279" lon="8.867129947290561"><ele>146.66666666666666</ele><time>2026-03-28T16:58:42.999Z</time></trkpt><trkpt lat="45.492382809695556" lon="8.867378387643482"><ele>147.33333333333334</ele><time>2026-03-28T16:58:43.999Z</time></trkpt><trkpt lat="45.49242707274397" lon="8.8676365611148"><ele>148.0</ele><time>2026-03-28T16:58:44.999Z</time></trkpt><trkpt lat="45.49246632515427" lon="8.86786645417369"><ele>148.0</ele><time>2026-03-28T16:58:45.999Z</time></trkpt><trkpt lat="45.49250446415268" lon="8.868102131940974"><ele>148.0</ele><time>2026-03-28T16:58:46.999Z</time></trkpt><trkpt lat="45.49254878952589" lon="8.868335571125247"><ele>148.0</ele><time>2026-03-28T16:58:47.999Z</time></trkpt><trkpt lat="45.492592462425996" lon="8.868579143812347"><ele>147.66666666666669</ele><time>2026-03-28T16:58:48.999Z</time></trkpt><trkpt lat="45.49263249218873" lon="8.868812539506594"><ele>147.33333333333334</ele><time>2026-03-28T16:58:49.999Z</time></trkpt><trkpt lat="45.49266220712061" lon="8.869026077844625"><ele>147.0</ele><time>2026-03-28T16:58:50.999Z</time></trkpt><trkpt lat="45.49270944426532" lon="8.86923938381472"><ele>147.75</ele><time>2026-03-28T16:58:51.999Z</time></trkpt><trkpt lat="45.49274542977735" lon="8.8694505775007"><ele>148.5</ele><time>2026-03-28T16:58:52.999Z</time></trkpt><trkpt lat="45.49279011349829" lon="8.869663021068483"><ele>149.25</ele><time>2026-03-28T16:58:53.999Z</time></trkpt><trkpt lat="45.49282270027894" lon="8.869852292737114"><ele>150.0</ele><time>2026-03-28T16:58:54.999Z</time></trkpt><trkpt lat="45.49286092407039" lon="8.870035070428925"><ele>149.83333333333334</ele><time>2026-03-28T16:58:55.999Z</time></trkpt><trkpt lat="45.4928831632779" lon="8.870198386661198"><ele>149.66666666666666</ele><time>2026-03-28T16:58:56.999Z</time></trkpt><trkpt lat="45.49290714912799" lon="8.87034648622533"><ele>149.5</ele><time>2026-03-28T16:58:57.999Z</time></trkpt><trkpt lat="45.49291906916419" lon="8.87045103114231"><ele>149.33333333333331</ele><time>2026-03-28T16:58:58.999Z</time></trkpt><trkpt lat="45.492919541954734" lon="8.870558100734156"><ele>149.16666666666666</ele><time>2026-03-28T16:58:59.999Z</time></trkpt><trkpt lat="45.49290375738847" lon="8.870663297934586"><ele>149.0</ele><time>2026-03-28T16:59:01Z</time></trkpt><trkpt lat="45.49285348945796" lon="8.870763052951581"><ele>149.0</ele><time>2026-03-28T16:59:02Z</time></trkpt><trkpt lat="45.49279550028842" lon="8.870863816003306"><ele>149.0</ele><time>2026-03-28T16:59:03Z</time></trkpt><trkpt lat="45.492741367079276" lon="8.870961143880262"><ele>149.0</ele><time>2026-03-28T16:59:04Z</time></trkpt><trkpt lat="45.49265441342256" lon="8.871043606207934"><ele>149.0</ele><time>2026-03-28T16:59:05Z</time></trkpt><trkpt lat="45.49254886721521" lon="8.871127794371992"><ele>149.0</ele><time>2026-03-28T16:59:06Z</time></trkpt><trkpt lat="45.49245054879332" lon="8.871226790360309"><ele>148.75</ele><time>2026-03-28T16:59:07Z</time></trkpt><trkpt lat="45.492359275786875" lon="8.871353733838824"><ele>148.5</ele><time>2026-03-28T16:59:08Z</time></trkpt><trkpt lat="45.49225915125902" lon="8.871506150463771"><ele>148.25</ele><time>2026-03-28T16:59:09Z</time></trkpt><trkpt lat="45.49218103967319" lon="8.87167426881397"><ele>148.0</ele><time>2026-03-28T16:59:10Z</time></trkpt><trkpt lat="45.49211406256456" lon="8.87185640793119"><ele>147.5</ele><time>2026-03-28T16:59:11Z</time></trkpt><trkpt lat="45.49206712261024" lon="8.87205203994643"><ele>147.0</ele><time>2026-03-28T16:59:12Z</time></trkpt><trkpt lat="45.49203477830902" lon="8.872250099922592"><ele>146.5</ele><time>2026-03-28T16:59:13Z</time></trkpt><trkpt lat="45.492016818241034" lon="8.872456724001653"><ele>146.0</ele><time>2026-03-28T16:59:14Z</time></trkpt><trkpt lat="45.49201299126148" lon="8.872677043921133"><ele>146.0</ele><time>2026-03-28T16:59:15Z</time></trkpt><trkpt lat="45.49202637902862" lon="8.872874721707714"><ele>146.0</ele><time>2026-03-28T16:59:16Z</time></trkpt><trkpt lat="45.49202981582287" lon="8.873116263727999"><ele>146.0</ele><time>2026-03-28T16:59:17Z</time></trkpt><trkpt lat="45.49205844953838" lon="8.873342709416262"><ele>146.33333333333331</ele><time>2026-03-28T16:59:18Z</time></trkpt><trkpt lat="45.492088657849145" lon="8.873581466706128"><ele>146.66666666666666</ele><time>2026-03-28T16:59:19Z</time></trkpt><trkpt lat="45.49212973206303" lon="8.873829565143033"><ele>147.0</ele><time>2026-03-28T16:59:20Z</time></trkpt><trkpt lat="45.492172100055846" lon="8.874085920148831"><ele>148.0</ele><time>2026-03-28T16:59:21Z</time></trkpt><trkpt lat="45.492217525590796" lon="8.874334832555295"><ele>149.0</ele><time>2026-03-28T16:59:22Z</time></trkpt><trkpt lat="45.49225015039311" lon="8.874581116682915"><ele>150.0</ele><time>2026-03-28T16:59:23Z</time></trkpt><trkpt lat="45.49230336454051" lon="8.874839358715267"><ele>150.0</ele><time>2026-03-28T16:59:24Z</time></trkpt><trkpt lat="45.49235683013437" lon="8.875090746976301"><ele>150.0</ele><time>2026-03-28T16:59:25Z</time></trkpt><trkpt lat="45.49240787817379" lon="8.875321032656446"><ele>150.0</ele><time>2026-03-28T16:59:26Z</time></trkpt><trkpt lat="45.492469557227146" lon="8.87556755054141"><ele>150.33333333333334</ele><time>2026-03-28T16:59:27Z</time></trkpt><trkpt lat="45.492519153758785" lon="8.87581492707776"><ele>150.66666666666669</ele><time>2026-03-28T16:59:28Z</time></trkpt><trkpt lat="45.49257578873207" lon="8.876069962100482"><ele>151.0</ele><time>2026-03-28T16:59:29Z</time></trkpt><trkpt lat="45.49262941625286" lon="8.876331338310369"><ele>150.0</ele><time>2026-03-28T16:59:30Z</time></trkpt><trkpt lat="45.4926758867444" lon="8.876577573424909"><ele>149.0</ele><time>2026-03-28T16:59:31Z</time></trkpt><trkpt lat="45.49270295662562" lon="8.87680668757407"><ele>148.0</ele><time>2026-03-28T16:59:32Z</time></trkpt><trkpt lat="45.49272579341372" lon="8.87703925016022"><ele>147.66666666666669</ele><time>2026-03-28T16:59:33Z</time></trkpt><trkpt lat="45.49273477154883" lon="8.877267757649506"><ele>147.33333333333334</ele><time>2026-03-28T16:59:34Z</time></trkpt><trkpt lat="45.49274209600436" lon="8.87749153744365"><ele>147.0</ele><time>2026-03-28T16:59:35Z</time></trkpt><trkpt lat="45.492753100072136" lon="8.877715911239191"><ele>146.75</ele><time>2026-03-28T16:59:36Z</time></trkpt><trkpt lat="45.49274239448412" lon="8.87792775575496"><ele>146.5</ele><time>2026-03-28T16:59:37Z</time></trkpt><trkpt lat="45.49271815848037" lon="8.878136382294112"><ele>146.25</ele><time>2026-03-28T16:59:38Z</time></trkpt><trkpt lat="45.492681347836864" lon="8.878338522834737"><ele>146.0</ele><time>2026-03-28T16:59:39Z</time></trkpt><trkpt lat="45.492616176991355" lon="8.878529435331334"><ele>146.0</ele><time>2026-03-28T16:59:40Z</time></trkpt><trkpt lat="45.49253874016158" lon="8.878717487846117"><ele>146.0</ele><time>2026-03-28T16:59:41Z</time></trkpt><trkpt lat="45.4924434380469" lon="8.87888553967974"><ele>146.0</ele><time>2026-03-28T16:59:42Z</time></trkpt><trkpt lat="45.492349700289495" lon="8.879026278324408"><ele>146.0</ele><time>2026-03-28T16:59:43Z</time></trkpt><trkpt lat="45.49223570308445" lon="8.879160621531847"><ele>146.66666666666666</ele><time>2026-03-28T16:59:44Z</time></trkpt><trkpt lat="45.492101314106655" lon="8.879284800983298"><ele>147.33333333333334</ele><time>2026-03-28T16:59:45Z</time></trkpt><trkpt lat="45.49196228266111" lon="8.879384231579849"><ele>148.0</ele><time>2026-03-28T16:59:46Z</time></trkpt><trkpt lat="45.49182081171213" lon="8.879489349456922"><ele>148.33333333333334</ele><time>2026-03-28T16:59:47Z</time></trkpt><trkpt lat="45.49166813836626" lon="8.879561506775264"><ele>148.66666666666666</ele><time>2026-03-28T16:59:48Z</time></trkpt><trkpt lat="45.49150679326768" lon="8.879631442984651"><ele>149.0</ele><time>2026-03-28T16:59:49Z</time></trkpt><trkpt lat="45.491341116651284" lon="8.879705666076903"><ele>148.66666666666666</ele><time>2026-03-28T16:59:50Z</time></trkpt><trkpt lat="45.491169723184164" lon="8.879755034392744"><ele>148.33333333333334</ele><time>2026-03-28T16:59:51Z</time></trkpt><trkpt lat="45.49100663259964" lon="8.879846385861978"><ele>148.0</ele><time>2026-03-28T16:59:52Z</time></trkpt><trkpt lat="45.49083135326987" lon="8.879920716200683"><ele>148.0</ele><time>2026-03-28T16:59:53Z</time></trkpt><trkpt lat="45.49066021688495" lon="8.879979906013373"><ele>148.0</ele><time>2026-03-28T16:59:54Z</time></trkpt><trkpt lat="45.49048330552178" lon="8.880040758164293"><ele>148.0</ele><time>2026-03-28T16:59:55Z</time></trkpt><trkpt lat="45.49030720086721" lon="8.880116402237016"><ele>148.33333333333334</ele><time>2026-03-28T16:59:56Z</time></trkpt><trkpt lat="45.49013131249948" lon="8.880195910473573"><ele>148.66666666666666</ele><time>2026-03-28T16:59:57Z</time></trkpt><trkpt lat="45.489959007211255" lon="8.88026955890368"><ele>149.0</ele><time>2026-03-28T16:59:58Z</time></trkpt><trkpt lat="45.48978533348755" lon="8.880348362999879"><ele>149.0</ele><time>2026-03-28T16:59:59Z</time></trkpt><trkpt lat="45.48961154097695" lon="8.88042863547338"><ele>149.0</ele><time>2026-03-28T17:00:00Z</time></trkpt><trkpt lat="45.48944701978773" lon="8.88049594343794"><ele>149.0</ele><time>2026-03-28T17:00:01Z</time></trkpt><trkpt lat="45.48928670250704" lon="8.880565171031133"><ele>148.0</ele><time>2026-03-28T17:00:02Z</time></trkpt><trkpt lat="45.489131594248846" lon="8.880635540178988"><ele>147.0</ele><time>2026-03-28T17:00:03Z</time></trkpt><trkpt lat="45.48898367035636" lon="8.88069353378505"><ele>146.0</ele><time>2026-03-28T17:00:03.999Z</time></trkpt><trkpt lat="45.48884138665451" lon="8.880736763521838"><ele>145.8</ele><time>2026-03-28T17:00:04.999Z</time></trkpt><trkpt lat="45.48871524546812" lon="8.88079539889616"><ele>145.6</ele><time>2026-03-28T17:00:05.999Z</time></trkpt><trkpt lat="45.4885972328391" lon="8.880836000271373"><ele>145.4</ele><time>2026-03-28T17:00:06.999Z</time></trkpt><trkpt lat="45.48849132687574" lon="8.88088812522906"><ele>145.2</ele><time>2026-03-28T17:00:07.999Z</time></trkpt><trkpt lat="45.488414867569695" lon="8.88091026017027"><ele>145.0</ele><time>2026-03-28T17:00:08.999Z</time></trkpt><trkpt lat="45.48833381548991" lon="8.880937560624536"><ele>145.0</ele><time>2026-03-28T17:00:09.999Z</time></trkpt><trkpt lat="45.48823087378659" lon="8.880956999970616"><ele>145.0</ele><time>2026-03-28T17:00:11.999Z</time></trkpt><trkpt lat="45.488128248816544" lon="8.880912393926106"><ele>145.0</ele><time>2026-03-28T17:00:13.999Z</time></trkpt><trkpt lat="45.488074790679164" lon="8.880853410701476"><ele>145.0</ele><time>2026-03-28T17:00:14.999Z</time></trkpt><trkpt lat="45.48801926029765" lon="8.880791981890777"><ele>145.0</ele><time>2026-03-28T17:00:15.999Z</time></trkpt><trkpt lat="45.48797274623427" lon="8.88073011051539"><ele>145.0</ele><time>2026-03-28T17:00:16.999Z</time></trkpt><trkpt lat="45.487877038182276" lon="8.88080829573491"><ele>145.0</ele><time>2026-03-28T17:00:17.999Z</time></trkpt><trkpt lat="45.487818150976814" lon="8.880865483773226"><ele>145.0</ele><time>2026-03-28T17:00:18.999Z</time></trkpt><trkpt lat="45.48776927453885" lon="8.880941016240696"><ele>145.0</ele><time>2026-03-28T17:00:19.999Z</time></trkpt><trkpt lat="45.48770526493647" lon="8.881078338694342"><ele>145.0</ele><time>2026-03-28T17:00:21.999Z</time></trkpt><trkpt lat="45.48779185272362" lon="8.88126381863514"><ele>145.0</ele><time>2026-03-28T17:00:22.999Z</time></trkpt><trkpt lat="45.48784939380028" lon="8.88136385022745"><ele>145.0</ele><time>2026-03-28T17:00:23.999Z</time></trkpt><trkpt lat="45.48792720124902" lon="8.881483609167246"><ele>145.0</ele><time>2026-03-28T17:00:24.999Z</time></trkpt><trkpt lat="45.48798555536153" lon="8.88163975824801"><ele>145.0</ele><time>2026-03-28T17:00:25.999Z</time></trkpt><trkpt lat="45.488029016831405" lon="8.881808563394445"><ele>145.0</ele><time>2026-03-28T17:00:26.999Z</time></trkpt><trkpt lat="45.4880574158027" lon="8.882000345707013"><ele>145.33333333333334</ele><time>2026-03-28T17:00:27.999Z</time></trkpt><trkpt lat="45.48809211081112" lon="8.8822023625596"><ele>145.66666666666666</ele><time>2026-03-28T17:00:28.999Z</time></trkpt><trkpt lat="45.48814062761547" lon="8.8824200006804"><ele>146.0</ele><time>2026-03-28T17:00:29.999Z</time></trkpt><trkpt lat="45.488182071202765" lon="8.882629274082216"><ele>146.0</ele><time>2026-03-28T17:00:30.999Z</time></trkpt><trkpt lat="45.48822407512569" lon="8.882844248356365"><ele>146.0</ele><time>2026-03-28T17:00:31.999Z</time></trkpt><trkpt lat="45.48827633943633" lon="8.883079456892066"><ele>146.0</ele><time>2026-03-28T17:00:32.999Z</time></trkpt><trkpt lat="45.48834339113905" lon="8.883316738222488"><ele>146.0</ele><time>2026-03-28T17:00:33.999Z</time></trkpt><trkpt lat="45.48841881229267" lon="8.883564606809998"><ele>146.0</ele><time>2026-03-28T17:00:34.999Z</time></trkpt><trkpt lat="45.488516411104364" lon="8.883797438090602"><ele>146.0</ele><time>2026-03-28T17:00:35.999Z</time></trkpt><trkpt lat="45.48859698401221" lon="8.88401401983546"><ele>146.0</ele><time>2026-03-28T17:00:36.999Z</time></trkpt><trkpt lat="45.488699069451904" lon="8.884233769374935"><ele>146.0</ele><time>2026-03-28T17:00:37.999Z</time></trkpt><trkpt lat="45.48880315292215" lon="8.884456575443723"><ele>146.0</ele><time>2026-03-28T17:00:38.999Z</time></trkpt><trkpt lat="45.488913838960904" lon="8.884668808558155"><ele>145.33333333333331</ele><time>2026-03-28T17:00:39.999Z</time></trkpt><trkpt lat="45.489016234722804" lon="8.884897237284116"><ele>144.66666666666666</ele><time>2026-03-28T17:00:40.999Z</time></trkpt><trkpt lat="45.48910723984711" lon="8.885172738195822"><ele>144.0</ele><time>2026-03-28T17:00:41.999Z</time></trkpt><trkpt lat="45.48919733273914" lon="8.885452024212615"><ele>144.0</ele><time>2026-03-28T17:00:42.999Z</time></trkpt><trkpt lat="45.489287716628226" lon="8.885702442076402"><ele>144.0</ele><time>2026-03-28T17:00:43.999Z</time></trkpt><trkpt lat="45.48936949914537" lon="8.885952980743557"><ele>144.0</ele><time>2026-03-28T17:00:44.999Z</time></trkpt><trkpt lat="45.4894760365518" lon="8.886217538496984"><ele>145.0</ele><time>2026-03-28T17:00:45.999Z</time></trkpt><trkpt lat="45.489572862954915" lon="8.886495710111273"><ele>146.0</ele><time>2026-03-28T17:00:46.999Z</time></trkpt><trkpt lat="45.48966776334963" lon="8.886784868615969"><ele>147.0</ele><time>2026-03-28T17:00:47.999Z</time></trkpt><trkpt lat="45.48975208496067" lon="8.887055324549854"><ele>147.33333333333334</ele><time>2026-03-28T17:00:48.999Z</time></trkpt><trkpt lat="45.4898397408055" lon="8.887314945306766"><ele>147.66666666666669</ele><time>2026-03-28T17:00:49.999Z</time></trkpt><trkpt lat="45.48993798734462" lon="8.887584676628352"><ele>148.0</ele><time>2026-03-28T17:00:50.999Z</time></trkpt><trkpt lat="45.49002787874968" lon="8.887848318141145"><ele>148.0</ele><time>2026-03-28T17:00:51.999Z</time></trkpt><trkpt lat="45.490110806327394" lon="8.888102220035266"><ele>148.0</ele><time>2026-03-28T17:00:52.999Z</time></trkpt><trkpt lat="45.49019594980874" lon="8.888345917050675"><ele>148.0</ele><time>2026-03-28T17:00:53.999Z</time></trkpt><trkpt lat="45.490304940215346" lon="8.888583287783922"><ele>148.0</ele><time>2026-03-28T17:00:54.999Z</time></trkpt><trkpt lat="45.490383296172226" lon="8.888836225133886"><ele>148.0</ele><time>2026-03-28T17:00:55.999Z</time></trkpt><trkpt lat="45.490465507844696" lon="8.889071679991593"><ele>148.0</ele><time>2026-03-28T17:00:56.999Z</time></trkpt><trkpt lat="45.49056106782121" lon="8.889295520870409"><ele>148.0</ele><time>2026-03-28T17:00:57.999Z</time></trkpt><trkpt lat="45.49063291152245" lon="8.889551538891341"><ele>148.0</ele><time>2026-03-28T17:00:58.999Z</time></trkpt><trkpt lat="45.49071916664848" lon="8.889780798491548"><ele>148.0</ele><time>2026-03-28T17:00:59.999Z</time></trkpt><trkpt lat="45.49080378706815" lon="8.890014120706802"><ele>148.0</ele><time>2026-03-28T17:01:00.999Z</time></trkpt><trkpt lat="45.49087909460394" lon="8.890222286658394"><ele>148.0</ele><time>2026-03-28T17:01:01.999Z</time></trkpt><trkpt lat="45.49092498448365" lon="8.890444830465556"><ele>148.0</ele><time>2026-03-28T17:01:02.999Z</time></trkpt><trkpt lat="45.49097485701034" lon="8.890641601332508"><ele>148.0</ele><time>2026-03-28T17:01:03.999Z</time></trkpt><trkpt lat="45.49101537118011" lon="8.890828022109567"><ele>148.0</ele><time>2026-03-28T17:01:04.999Z</time></trkpt><trkpt lat="45.49104374690955" lon="8.891017530685275"><ele>148.0</ele><time>2026-03-28T17:01:05.999Z</time></trkpt><trkpt lat="45.49106603451305" lon="8.891198597815679"><ele>148.0</ele><time>2026-03-28T17:01:07Z</time></trkpt><trkpt lat="45.49108429660114" lon="8.891375740108337"><ele>148.16666666666669</ele><time>2026-03-28T17:01:08Z</time></trkpt><trkpt lat="45.49110593482762" lon="8.891537255061156"><ele>148.33333333333334</ele><time>2026-03-28T17:01:09Z</time></trkpt><trkpt lat="45.49111933745859" lon="8.891683890326735"><ele>148.5</ele><time>2026-03-28T17:01:10Z</time></trkpt><trkpt lat="45.49114466035069" lon="8.891807277170182"><ele>148.66666666666666</ele><time>2026-03-28T17:01:11Z</time></trkpt><trkpt lat="45.491148235093796" lon="8.891907286489637"><ele>148.83333333333331</ele><time>2026-03-28T17:01:12Z</time></trkpt><trkpt lat="45.49112832519523" lon="8.891994032592505"><ele>149.0</ele><time>2026-03-28T17:01:13Z</time></trkpt><trkpt lat="45.491051667733686" lon="8.892174733203067"><ele>149.0</ele><time>2026-03-28T17:01:15Z</time></trkpt><trkpt lat="45.49099454173058" lon="8.89226940766406"><ele>149.0</ele><time>2026-03-28T17:01:16Z</time></trkpt><trkpt lat="45.49097911499329" lon="8.892405412250204"><ele>149.0</ele><time>2026-03-28T17:01:17Z</time></trkpt><trkpt lat="45.49100388475885" lon="8.892565798650677"><ele>149.0</ele><time>2026-03-28T17:01:18Z</time></trkpt><trkpt lat="45.49109160588853" lon="8.892681693042931"><ele>149.0</ele><time>2026-03-28T17:01:19Z</time></trkpt><trkpt lat="45.49116684353669" lon="8.892823869485005"><ele>148.75</ele><time>2026-03-28T17:01:20Z</time></trkpt><trkpt lat="45.49121340996643" lon="8.892965457874423"><ele>148.5</ele><time>2026-03-28T17:01:21Z</time></trkpt><trkpt lat="45.491231614356394" lon="8.893179327651772"><ele>148.25</ele><time>2026-03-28T17:01:22Z</time></trkpt><trkpt lat="45.49125075243964" lon="8.893416491411534"><ele>148.0</ele><time>2026-03-28T17:01:23Z</time></trkpt><trkpt lat="45.49125727187484" lon="8.893656593716445"><ele>147.66666666666669</ele><time>2026-03-28T17:01:24Z</time></trkpt><trkpt lat="45.49125560556872" lon="8.89392247692477"><ele>147.33333333333334</ele><time>2026-03-28T17:01:25Z</time></trkpt><trkpt lat="45.49126776673417" lon="8.894218143726832"><ele>147.0</ele><time>2026-03-28T17:01:26Z</time></trkpt><trkpt lat="45.4912800179988" lon="8.894536017588797"><ele>147.0</ele><time>2026-03-28T17:01:27Z</time></trkpt><trkpt lat="45.49127623377608" lon="8.89485637395743"><ele>147.0</ele><time>2026-03-28T17:01:28Z</time></trkpt><trkpt lat="45.491272998025174" lon="8.89518267745185"><ele>147.0</ele><time>2026-03-28T17:01:29Z</time></trkpt><trkpt lat="45.49128986863922" lon="8.895500886943914"><ele>147.0</ele><time>2026-03-28T17:01:30Z</time></trkpt><trkpt lat="45.49128721594351" lon="8.895802503327365"><ele>147.0</ele><time>2026-03-28T17:01:31Z</time></trkpt><trkpt lat="45.49128845807712" lon="8.896084301096511"><ele>147.0</ele><time>2026-03-28T17:01:32Z</time></trkpt><trkpt lat="45.49129267187497" lon="8.896344310080885"><ele>147.0</ele><time>2026-03-28T17:01:33Z</time></trkpt><trkpt lat="45.49132842370349" lon="8.89665970371908"><ele>147.0</ele><time>2026-03-28T17:01:34Z</time></trkpt><trkpt lat="45.49133722589817" lon="8.896968527761285"><ele>146.0</ele><time>2026-03-28T17:01:35Z</time></trkpt><trkpt lat="45.49136635514987" lon="8.897293826459526"><ele>145.0</ele><time>2026-03-28T17:01:36Z</time></trkpt><trkpt lat="45.49137801457352" lon="8.89762667639311"><ele>145.0</ele><time>2026-03-28T17:01:37Z</time></trkpt><trkpt lat="45.49138031109777" lon="8.897975754365543"><ele>145.0</ele><time>2026-03-28T17:01:38Z</time></trkpt><trkpt lat="45.491375390658085" lon="8.898341528550677"><ele>146.0</ele><time>2026-03-28T17:01:39Z</time></trkpt><trkpt lat="45.4913780042564" lon="8.898717329788848"><ele>147.0</ele><time>2026-03-28T17:01:40Z</time></trkpt><trkpt lat="45.49139646913798" lon="8.89910558549845"><ele>148.0</ele><time>2026-03-28T17:01:41Z</time></trkpt><trkpt lat="45.4913929953934" lon="8.89950768565631"><ele>149.0</ele><time>2026-03-28T17:01:42Z</time></trkpt><trkpt lat="45.49141588753544" lon="8.899848785474674"><ele>148.5</ele><time>2026-03-28T17:01:43Z</time></trkpt><trkpt lat="45.491414855161665" lon="8.90017385355866"><ele>148.0</ele><time>2026-03-28T17:01:44Z</time></trkpt><trkpt lat="45.49139211150376" lon="8.900489758762566"><ele>148.0</ele><time>2026-03-28T17:01:45Z</time></trkpt><trkpt lat="45.49140669269601" lon="8.900789076135371"><ele>148.0</ele><time>2026-03-28T17:01:46Z</time></trkpt><trkpt lat="45.49138631481224" lon="8.901076417179699"><ele>148.0</ele><time>2026-03-28T17:01:47Z</time></trkpt><trkpt lat="45.49135234163872" lon="8.90137455292647"><ele>148.0</ele><time>2026-03-28T17:01:48Z</time></trkpt><trkpt lat="45.49132582687323" lon="8.90166704643106"><ele>148.0</ele><time>2026-03-28T17:01:49Z</time></trkpt><trkpt lat="45.49129726027394" lon="8.901954473717451"><ele>148.0</ele><time>2026-03-28T17:01:50Z</time></trkpt><trkpt lat="45.491274028406366" lon="8.902245162806114"><ele>147.66666666666669</ele><time>2026-03-28T17:01:51Z</time></trkpt><trkpt lat="45.49124386728752" lon="8.902529332271623"><ele>147.33333333333334</ele><time>2026-03-28T17:01:52Z</time></trkpt><trkpt lat="45.49121767871501" lon="8.902826445454345"><ele>147.0</ele><time>2026-03-28T17:01:53Z</time></trkpt><trkpt lat="45.49119066846862" lon="8.903107474327664"><ele>147.0</ele><time>2026-03-28T17:01:54Z</time></trkpt><trkpt lat="45.491155101792806" lon="8.903407204494036"><ele>147.0</ele><time>2026-03-28T17:01:55Z</time></trkpt><trkpt lat="45.491102532602994" lon="8.903700665428106"><ele>147.0</ele><time>2026-03-28T17:01:56Z</time></trkpt><trkpt lat="45.491052447372056" lon="8.90402393080196"><ele>148.0</ele><time>2026-03-28T17:01:57Z</time></trkpt><trkpt lat="45.4910033995312" lon="8.904346880165617"><ele>149.0</ele><time>2026-03-28T17:01:58Z</time></trkpt><trkpt lat="45.49097916006697" lon="8.904667885335748"><ele>149.0</ele><time>2026-03-28T17:01:59Z</time></trkpt><trkpt lat="45.490930515593334" lon="8.904955315907475"><ele>149.0</ele><time>2026-03-28T17:02:00Z</time></trkpt><trkpt lat="45.49090286970542" lon="8.905244827330641"><ele>149.0</ele><time>2026-03-28T17:02:01Z</time></trkpt><trkpt lat="45.49087755222295" lon="8.905535968744854"><ele>149.0</ele><time>2026-03-28T17:02:02Z</time></trkpt><trkpt lat="45.490819974109925" lon="8.905826667103563"><ele>149.0</ele><time>2026-03-28T17:02:03Z</time></trkpt><trkpt lat="45.49080416847007" lon="8.906083568379852"><ele>149.0</ele><time>2026-03-28T17:02:04Z</time></trkpt><trkpt lat="45.49078413617034" lon="8.906338242505894"><ele>149.0</ele><time>2026-03-28T17:02:05Z</time></trkpt><trkpt lat="45.49075980759986" lon="8.906597460596254"><ele>149.0</ele><time>2026-03-28T17:02:06Z</time></trkpt><trkpt lat="45.490734976812526" lon="8.906865494144373"><ele>149.0</ele><time>2026-03-28T17:02:07Z</time></trkpt><trkpt lat="45.49071119074739" lon="8.90713490249343"><ele>148.33333333333331</ele><time>2026-03-28T17:02:08Z</time></trkpt><trkpt lat="45.490683762609564" lon="8.90741319936255"><ele>147.66666666666666</ele><time>2026-03-28T17:02:09Z</time></trkpt><trkpt lat="45.49067963485838" lon="8.907673437583757"><ele>147.0</ele><time>2026-03-28T17:02:10Z</time></trkpt><trkpt lat="45.49064818597143" lon="8.907892644707111"><ele>147.0</ele><time>2026-03-28T17:02:11Z</time></trkpt><trkpt lat="45.49055458144705" lon="8.908081390969512"><ele>147.0</ele><time>2026-03-28T17:02:11.999Z</time></trkpt><trkpt lat="45.490523606684654" lon="8.908294065903778"><ele>147.0</ele><time>2026-03-28T17:02:12.999Z</time></trkpt><trkpt lat="45.49049406328228" lon="8.90849691302818"><ele>147.0</ele><time>2026-03-28T17:02:13.999Z</time></trkpt><trkpt lat="45.49046610416637" lon="8.908683646456048"><ele>147.0</ele><time>2026-03-28T17:02:14.999Z</time></trkpt><trkpt lat="45.49042383417328" lon="8.90886183994363"><ele>147.0</ele><time>2026-03-28T17:02:15.999Z</time></trkpt><trkpt lat="45.4903927959214" lon="8.909069562876645"><ele>147.0</ele><time>2026-03-28T17:02:16.999Z</time></trkpt><trkpt lat="45.49036698383769" lon="8.90926235122478"><ele>147.0</ele><time>2026-03-28T17:02:17.999Z</time></trkpt><trkpt lat="45.49033639097315" lon="8.909423095032748"><ele>147.0</ele><time>2026-03-28T17:02:18.999Z</time></trkpt><trkpt lat="45.49031480131172" lon="8.909584002487192"><ele>147.0</ele><time>2026-03-28T17:02:19.999Z</time></trkpt><trkpt lat="45.49029888463338" lon="8.909727029132274"><ele>147.0</ele><time>2026-03-28T17:02:20.999Z</time></trkpt><trkpt lat="45.490278050448175" lon="8.909864710592796"><ele>147.0</ele><time>2026-03-28T17:02:21.999Z</time></trkpt><trkpt lat="45.490270116550285" lon="8.910000289921609"><ele>147.0</ele><time>2026-03-28T17:02:22.999Z</time></trkpt><trkpt lat="45.4902382076218" lon="8.91010575073674"><ele>147.0</ele><time>2026-03-28T17:02:23.999Z</time></trkpt><trkpt lat="45.49019312809693" lon="8.910207831370776"><ele>147.0</ele><time>2026-03-28T17:02:24.999Z</time></trkpt><trkpt lat="45.490134664488124" lon="8.910307414492271"><ele>147.0</ele><time>2026-03-28T17:02:25.999Z</time></trkpt><trkpt lat="45.4901202154847" lon="8.910460867108664"><ele>147.0</ele><time>2026-03-28T17:02:26.999Z</time></trkpt><trkpt lat="45.49010404984404" lon="8.910559382283784"><ele>147.0</ele><time>2026-03-28T17:02:27.999Z</time></trkpt><trkpt lat="45.490176842101825" lon="8.910725589936462"><ele>147.0</ele><time>2026-03-28T17:02:29.999Z</time></trkpt><trkpt lat="45.49025677189507" lon="8.910771687101288"><ele>147.0</ele><time>2026-03-28T17:02:30.999Z</time></trkpt><trkpt lat="45.49035624779373" lon="8.910732436406654"><ele>147.0</ele><time>2026-03-28T17:02:31.999Z</time></trkpt><trkpt lat="45.490438060727655" lon="8.910646614983458"><ele>147.0</ele><time>2026-03-28T17:02:32.999Z</time></trkpt><trkpt lat="45.49049763014393" lon="8.910521597741939"><ele>147.0</ele><time>2026-03-28T17:02:33.999Z</time></trkpt><trkpt lat="45.49057768995597" lon="8.910415396397198"><ele>146.75</ele><time>2026-03-28T17:02:34.999Z</time></trkpt><trkpt lat="45.4906962127564" lon="8.910348240908945"><ele>146.5</ele><time>2026-03-28T17:02:35.999Z</time></trkpt><trkpt lat="45.49084907760971" lon="8.910317337214428"><ele>146.25</ele><time>2026-03-28T17:02:36.999Z</time></trkpt><trkpt lat="45.49098779074683" lon="8.910315841380395"><ele>146.0</ele><time>2026-03-28T17:02:37.999Z</time></trkpt><trkpt lat="45.491141431741966" lon="8.910305677539995"><ele>146.75</ele><time>2026-03-28T17:02:38.999Z</time></trkpt><trkpt lat="45.4912972011679" lon="8.910296642843306"><ele>147.5</ele><time>2026-03-28T17:02:39.999Z</time></trkpt><trkpt lat="45.49144485275257" lon="8.910278001448969"><ele>148.25</ele><time>2026-03-28T17:02:40.999Z</time></trkpt><trkpt lat="45.49158938441225" lon="8.910267461726308"><ele>149.0</ele><time>2026-03-28T17:02:41.999Z</time></trkpt><trkpt lat="45.49173313830138" lon="8.910251661978458"><ele>149.0</ele><time>2026-03-28T17:02:42.999Z</time></trkpt><trkpt lat="45.49186124491853" lon="8.910245471187029"><ele>149.0</ele><time>2026-03-28T17:02:43.999Z</time></trkpt><trkpt lat="45.49198578863268" lon="8.910245703384033"><ele>149.0</ele><time>2026-03-28T17:02:44.999Z</time></trkpt><trkpt lat="45.49211463941144" lon="8.910211595808992"><ele>149.0</ele><time>2026-03-28T17:02:45.999Z</time></trkpt><trkpt lat="45.49221970578647" lon="8.910185350111423"><ele>148.0</ele><time>2026-03-28T17:02:46.999Z</time></trkpt><trkpt lat="45.492323652514514" lon="8.910169516181867"><ele>148.0</ele><time>2026-03-28T17:02:47.999Z</time></trkpt><trkpt lat="45.49241199442526" lon="8.910173838135021"><ele>148.0</ele><time>2026-03-28T17:02:48.999Z</time></trkpt><trkpt lat="45.49249217620016" lon="8.910166341310063"><ele>148.0</ele><time>2026-03-28T17:02:49.999Z</time></trkpt><trkpt lat="45.492537901166095" lon="8.910046489714839"><ele>149.0</ele><time>2026-03-28T17:02:51.999Z</time></trkpt><trkpt lat="45.49260403890355" lon="8.91003791976526"><ele>149.0</ele><time>2026-03-28T17:02:54.999Z</time></trkpt></trkseg></trk></gpx>